<?xml version="1.0" encoding="UTF-8" standalone="no" ?>
<gpx xmlns="http://www.topografix.com/GPX/1/1" xmlns:xsi="http://www.w3.org/2001/XMLSchema-instance" xsi:schemaLocation="http://www.topografix.com/GPX/1/1 http://www.topografix.com/GPX/1/1/gpx.xsd" version="1.1" creator="VisuGPX - https://www.visugpx.com">
  <metadata>
    <name>VDS 2024 VTT 66km</name>
  </metadata>
  <trk>
    <name><![CDATA[VDS 2024 60km]]></name>
    <extensions>
      <line xmlns="http://www.topografix.com/GPX/gpx_style/0/2">
        <color>0000FF</color>
        <width>4</width>
      </line>
    </extensions>
    <trkseg>
      <trkpt lat="49.1749" lon="1.35455">
        <ele>14.067564</ele>
        <time>2024-05-03T05:54:30.372Z</time>
      </trkpt>
      <trkpt lat="49.17477" lon="1.35438">
        <ele>14.067564</ele>
        <time>2024-05-03T05:54:33.923Z</time>
      </trkpt>
      <trkpt lat="49.17473" lon="1.3543">
        <ele>14.067564</ele>
        <time>2024-05-03T05:54:35.208Z</time>
      </trkpt>
      <trkpt lat="49.17463" lon="1.35421">
        <ele>14.067564</ele>
        <time>2024-05-03T05:54:37.520Z</time>
      </trkpt>
      <trkpt lat="49.17448" lon="1.35414">
        <ele>14.067564</ele>
        <time>2024-05-03T05:54:40.684Z</time>
      </trkpt>
      <trkpt lat="49.17463" lon="1.35333">
        <ele>14.111631</ele>
        <time>2024-05-03T05:54:52.045Z</time>
      </trkpt>
      <trkpt lat="49.17477" lon="1.35294">
        <ele>14.191682</ele>
        <time>2024-05-03T05:54:58.070Z</time>
      </trkpt>
      <trkpt lat="49.17519" lon="1.35195">
        <ele>14.401492</ele>
        <time>2024-05-03T05:55:13.383Z</time>
      </trkpt>
      <trkpt lat="49.17526" lon="1.3519">
        <ele>14.422064</ele>
        <time>2024-05-03T05:55:14.954Z</time>
      </trkpt>
      <trkpt lat="49.17549" lon="1.35195">
        <ele>14.484957</ele>
        <time>2024-05-03T05:55:19.571Z</time>
      </trkpt>
      <trkpt lat="49.1755" lon="1.35184">
        <ele>14.505587</ele>
        <time>2024-05-03T05:55:21.260Z</time>
      </trkpt>
      <trkpt lat="49.17557" lon="1.35181">
        <ele>14.525746</ele>
        <time>2024-05-03T05:55:23.541Z</time>
      </trkpt>
      <trkpt lat="49.17559" lon="1.35187">
        <ele>14.538438</ele>
        <time>2024-05-03T05:55:25.041Z</time>
      </trkpt>
      <trkpt lat="49.17628" lon="1.3521">
        <ele>14.696845</ele>
        <time>2024-05-03T05:55:44.125Z</time>
      </trkpt>
      <trkpt lat="49.17631" lon="1.35204">
        <ele>14.707039</ele>
        <time>2024-05-03T05:55:45.578Z</time>
      </trkpt>
      <trkpt lat="49.17637" lon="1.35209">
        <ele>14.721429</ele>
        <time>2024-05-03T05:55:47.198Z</time>
      </trkpt>
      <trkpt lat="49.17641" lon="1.35224">
        <ele>14.744582</ele>
        <time>2024-05-03T05:55:49.641Z</time>
      </trkpt>
      <trkpt lat="49.17649" lon="1.35226">
        <ele>14.76125</ele>
        <time>2024-05-03T05:55:51.280Z</time>
      </trkpt>
      <trkpt lat="49.17656" lon="1.35224">
        <ele>14.777652</ele>
        <time>2024-05-03T05:55:52.905Z</time>
      </trkpt>
      <trkpt lat="49.17665" lon="1.35229">
        <ele>14.797797</ele>
        <time>2024-05-03T05:55:55.350Z</time>
      </trkpt>
      <trkpt lat="49.17656" lon="1.35224">
        <ele>14.817941</ele>
        <time>2024-05-03T05:55:57.433Z</time>
      </trkpt>
      <trkpt lat="49.17663" lon="1.35215">
        <ele>14.837309</ele>
        <time>2024-05-03T05:55:59.323Z</time>
      </trkpt>
      <trkpt lat="49.17669" lon="1.35196">
        <ele>14.86777</ele>
        <time>2024-05-03T05:56:02.530Z</time>
      </trkpt>
      <trkpt lat="49.1765" lon="1.35185">
        <ele>14.911757</ele>
        <time>2024-05-03T05:56:06.252Z</time>
      </trkpt>
      <trkpt lat="49.176" lon="1.35161">
        <ele>14.979373</ele>
        <time>2024-05-03T05:56:17.438Z</time>
      </trkpt>
      <trkpt lat="49.17559" lon="1.35146">
        <ele>15.012137</ele>
        <time>2024-05-03T05:56:25.703Z</time>
      </trkpt>
      <trkpt lat="49.17557" lon="1.35145">
        <ele>15.014323</ele>
        <time>2024-05-03T05:56:26.190Z</time>
      </trkpt>
      <trkpt lat="49.17503" lon="1.35127">
        <ele>15.057886</ele>
        <time>2024-05-03T05:56:37.112Z</time>
      </trkpt>
      <trkpt lat="49.17502" lon="1.35127">
        <ele>15.058684</ele>
        <time>2024-05-03T05:56:37.295Z</time>
      </trkpt>
      <trkpt lat="49.17457" lon="1.35115">
        <ele>15.093116</ele>
        <time>2024-05-03T05:56:45.917Z</time>
      </trkpt>
      <trkpt lat="49.17387" lon="1.35104">
        <ele>14.849913</ele>
        <time>2024-05-03T05:56:59.169Z</time>
      </trkpt>
      <trkpt lat="49.17353" lon="1.35098">
        <ele>14.731718</ele>
        <time>2024-05-03T05:57:05.441Z</time>
      </trkpt>
      <trkpt lat="49.17339" lon="1.35099">
        <ele>14.683546</ele>
        <time>2024-05-03T05:57:07.955Z</time>
      </trkpt>
      <trkpt lat="49.17335" lon="1.35086">
        <ele>14.650549</ele>
        <time>2024-05-03T05:57:09.690Z</time>
      </trkpt>
      <trkpt lat="49.17329" lon="1.3508">
        <ele>14.626863</ele>
        <time>2024-05-03T05:57:10.925Z</time>
      </trkpt>
      <trkpt lat="49.1733" lon="1.35064">
        <ele>14.592327</ele>
        <time>2024-05-03T05:57:12.654Z</time>
      </trkpt>
      <trkpt lat="49.17332" lon="1.35025">
        <ele>14.503753</ele>
        <time>2024-05-03T05:57:17.199Z</time>
      </trkpt>
      <trkpt lat="49.17352" lon="1.34984">
        <ele>14.305823</ele>
        <time>2024-05-03T05:57:23.083Z</time>
      </trkpt>
      <trkpt lat="49.17363" lon="1.34968">
        <ele>14.205591</ele>
        <time>2024-05-03T05:57:25.644Z</time>
      </trkpt>
      <trkpt lat="49.17392" lon="1.3495">
        <ele>13.992298</ele>
        <time>2024-05-03T05:57:31.188Z</time>
      </trkpt>
      <trkpt lat="49.1742" lon="1.34944">
        <ele>13.800887</ele>
        <time>2024-05-03T05:57:36.190Z</time>
      </trkpt>
      <trkpt lat="49.17478" lon="1.34943">
        <ele>13.415106</ele>
        <time>2024-05-03T05:57:46.195Z</time>
      </trkpt>
      <trkpt lat="49.1749" lon="1.3494">
        <ele>13.329855</ele>
        <time>2024-05-03T05:57:48.445Z</time>
      </trkpt>
      <trkpt lat="49.1752" lon="1.34918">
        <ele>13.170472</ele>
        <time>2024-05-03T05:57:54.225Z</time>
      </trkpt>
      <trkpt lat="49.17528" lon="1.34924">
        <ele>13.133617</ele>
        <time>2024-05-03T05:57:55.849Z</time>
      </trkpt>
      <trkpt lat="49.1753" lon="1.34923">
        <ele>13.125892</ele>
        <time>2024-05-03T05:57:56.182Z</time>
      </trkpt>
      <trkpt lat="49.17537" lon="1.34912">
        <ele>13.08395</ele>
        <time>2024-05-03T05:57:57.996Z</time>
      </trkpt>
      <trkpt lat="49.17535" lon="1.34898">
        <ele>13.044444</ele>
        <time>2024-05-03T05:57:59.711Z</time>
      </trkpt>
      <trkpt lat="49.17544" lon="1.34877">
        <ele>12.977177</ele>
        <time>2024-05-03T05:58:02.626Z</time>
      </trkpt>
      <trkpt lat="49.17551" lon="1.34854">
        <ele>12.911038</ele>
        <time>2024-05-03T05:58:05.488Z</time>
      </trkpt>
      <trkpt lat="49.17556" lon="1.34828">
        <ele>12.839616</ele>
        <time>2024-05-03T05:58:08.652Z</time>
      </trkpt>
      <trkpt lat="49.17562" lon="1.34827">
        <ele>12.813494</ele>
        <time>2024-05-03T05:58:09.804Z</time>
      </trkpt>
      <trkpt lat="49.17563" lon="1.34817">
        <ele>12.786535</ele>
        <time>2024-05-03T05:58:11.163Z</time>
      </trkpt>
      <trkpt lat="49.17559" lon="1.34798">
        <ele>12.733308</ele>
        <time>2024-05-03T05:58:13.871Z</time>
      </trkpt>
      <trkpt lat="49.17574" lon="1.34688">
        <ele>12.520552</ele>
        <time>2024-05-03T05:58:29.375Z</time>
      </trkpt>
      <trkpt lat="49.17571" lon="1.34656">
        <ele>12.509336</ele>
        <time>2024-05-03T05:58:33.845Z</time>
      </trkpt>
      <trkpt lat="49.17578" lon="1.34629">
        <ele>12.499427</ele>
        <time>2024-05-03T05:58:37.764Z</time>
      </trkpt>
      <trkpt lat="49.17581" lon="1.34621">
        <ele>12.496226</ele>
        <time>2024-05-03T05:58:39.637Z</time>
      </trkpt>
      <trkpt lat="49.17588" lon="1.34604">
        <ele>12.489621</ele>
        <time>2024-05-03T05:58:42.280Z</time>
      </trkpt>
      <trkpt lat="49.17591" lon="1.34564">
        <ele>12.475677</ele>
        <time>2024-05-03T05:58:47.883Z</time>
      </trkpt>
      <trkpt lat="49.17591" lon="1.34544">
        <ele>12.46865</ele>
        <time>2024-05-03T05:58:50.383Z</time>
      </trkpt>
      <trkpt lat="49.1759" lon="1.34536">
        <ele>12.466023</ele>
        <time>2024-05-03T05:58:51.342Z</time>
      </trkpt>
      <trkpt lat="49.17594" lon="1.34524">
        <ele>12.461376</ele>
        <time>2024-05-03T05:58:53.607Z</time>
      </trkpt>
      <trkpt lat="49.17593" lon="1.34512">
        <ele>12.456954</ele>
        <time>2024-05-03T05:58:55.749Z</time>
      </trkpt>
      <trkpt lat="49.17592" lon="1.34506">
        <ele>12.454979</ele>
        <time>2024-05-03T05:58:56.702Z</time>
      </trkpt>
      <trkpt lat="49.17586" lon="1.34499">
        <ele>12.450874</ele>
        <time>2024-05-03T05:58:58.661Z</time>
      </trkpt>
      <trkpt lat="49.17585" lon="1.34493">
        <ele>12.448987</ele>
        <time>2024-05-03T05:58:59.352Z</time>
      </trkpt>
      <trkpt lat="49.17572" lon="1.34386">
        <ele>12.429243</ele>
        <time>2024-05-03T05:59:13.818Z</time>
      </trkpt>
      <trkpt lat="49.17545" lon="1.34166">
        <ele>12.406369</ele>
        <time>2024-05-03T05:59:41.421Z</time>
      </trkpt>
      <trkpt lat="49.17545" lon="1.34158">
        <ele>12.406474</ele>
        <time>2024-05-03T05:59:42.372Z</time>
      </trkpt>
      <trkpt lat="49.17467" lon="1.34156">
        <ele>12.408224</ele>
        <time>2024-05-03T05:59:57.271Z</time>
      </trkpt>
      <trkpt lat="49.17462" lon="1.34157">
        <ele>12.408325</ele>
        <time>2024-05-03T05:59:58.124Z</time>
      </trkpt>
      <trkpt lat="49.17438" lon="1.34157">
        <ele>12.408861</ele>
        <time>2024-05-03T06:00:02.632Z</time>
      </trkpt>
      <trkpt lat="49.17438" lon="1.34151">
        <ele>12.408953</ele>
        <time>2024-05-03T06:00:03.746Z</time>
      </trkpt>
      <trkpt lat="49.17437" lon="1.34135">
        <ele>12.409193</ele>
        <time>2024-05-03T06:00:06.530Z</time>
      </trkpt>
      <trkpt lat="49.17432" lon="1.34135">
        <ele>12.409312</ele>
        <time>2024-05-03T06:00:07.858Z</time>
      </trkpt>
      <trkpt lat="49.1738" lon="1.34135">
        <ele>12.471537</ele>
        <time>2024-05-03T06:00:21.322Z</time>
      </trkpt>
      <trkpt lat="49.1737" lon="1.34135">
        <ele>12.500112</ele>
        <time>2024-05-03T06:00:24.043Z</time>
      </trkpt>
      <trkpt lat="49.17363" lon="1.34137">
        <ele>12.52018</ele>
        <time>2024-05-03T06:00:25.846Z</time>
      </trkpt>
      <trkpt lat="49.17361" lon="1.34134">
        <ele>12.528554</ele>
        <time>2024-05-03T06:00:26.418Z</time>
      </trkpt>
      <trkpt lat="49.17335" lon="1.34096">
        <ele>12.632029</ele>
        <time>2024-05-03T06:00:33.816Z</time>
      </trkpt>
      <trkpt lat="49.17325" lon="1.34071">
        <ele>12.686342</ele>
        <time>2024-05-03T06:00:37.828Z</time>
      </trkpt>
      <trkpt lat="49.17326" lon="1.34011">
        <ele>12.800789</ele>
        <time>2024-05-03T06:00:45.991Z</time>
      </trkpt>
      <trkpt lat="49.17336" lon="1.33986">
        <ele>12.856172</ele>
        <time>2024-05-03T06:00:49.800Z</time>
      </trkpt>
      <trkpt lat="49.17342" lon="1.33974">
        <ele>12.883335</ele>
        <time>2024-05-03T06:00:51.874Z</time>
      </trkpt>
      <trkpt lat="49.1737" lon="1.33917">
        <ele>13.072098</ele>
        <time>2024-05-03T06:01:02.382Z</time>
      </trkpt>
      <trkpt lat="49.17372" lon="1.33896">
        <ele>13.135891</ele>
        <time>2024-05-03T06:01:05.683Z</time>
      </trkpt>
      <trkpt lat="49.17372" lon="1.33855">
        <ele>13.260609</ele>
        <time>2024-05-03T06:01:11.944Z</time>
      </trkpt>
      <trkpt lat="49.17372" lon="1.33844">
        <ele>13.291636</ele>
        <time>2024-05-03T06:01:13.564Z</time>
      </trkpt>
      <trkpt lat="49.1737" lon="1.33819">
        <ele>13.368095</ele>
        <time>2024-05-03T06:01:17.376Z</time>
      </trkpt>
      <trkpt lat="49.17377" lon="1.33813">
        <ele>13.40463</ele>
        <time>2024-05-03T06:01:19.577Z</time>
      </trkpt>
      <trkpt lat="49.17377" lon="1.33808">
        <ele>13.421503</ele>
        <time>2024-05-03T06:01:20.584Z</time>
      </trkpt>
      <trkpt lat="49.17377" lon="1.33743">
        <ele>13.617893</ele>
        <time>2024-05-03T06:01:32.066Z</time>
      </trkpt>
      <trkpt lat="49.1738" lon="1.3367">
        <ele>13.916311</ele>
        <time>2024-05-03T06:01:44.812Z</time>
      </trkpt>
      <trkpt lat="49.17381" lon="1.33659">
        <ele>13.986796</ele>
        <time>2024-05-03T06:01:46.833Z</time>
      </trkpt>
      <trkpt lat="49.17383" lon="1.33614">
        <ele>14.257203</ele>
        <time>2024-05-03T06:01:55.154Z</time>
      </trkpt>
      <trkpt lat="49.17384" lon="1.3361">
        <ele>14.280214</ele>
        <time>2024-05-03T06:01:56.849Z</time>
      </trkpt>
      <trkpt lat="49.1738" lon="1.3361">
        <ele>14.3138</ele>
        <time>2024-05-03T06:01:59.346Z</time>
      </trkpt>
      <trkpt lat="49.17381" lon="1.3359">
        <ele>14.43009</ele>
        <time>2024-05-03T06:02:02.355Z</time>
      </trkpt>
      <trkpt lat="49.17361" lon="1.33585">
        <ele>14.625657</ele>
        <time>2024-05-03T06:02:07.579Z</time>
      </trkpt>
      <trkpt lat="49.17323" lon="1.33572">
        <ele>14.984868</ele>
        <time>2024-05-03T06:02:17.278Z</time>
      </trkpt>
      <trkpt lat="49.17316" lon="1.33569">
        <ele>15.050784</ele>
        <time>2024-05-03T06:02:19.127Z</time>
      </trkpt>
      <trkpt lat="49.17316" lon="1.33561">
        <ele>15.102222</ele>
        <time>2024-05-03T06:02:20.625Z</time>
      </trkpt>
      <trkpt lat="49.17315" lon="1.33485">
        <ele>15.641743</ele>
        <time>2024-05-03T06:02:34.083Z</time>
      </trkpt>
      <trkpt lat="49.17314" lon="1.33371">
        <ele>16.732064</ele>
        <time>2024-05-03T06:02:53.981Z</time>
      </trkpt>
      <trkpt lat="49.17314" lon="1.33322">
        <ele>17.197264</ele>
        <time>2024-05-03T06:03:02.479Z</time>
      </trkpt>
      <trkpt lat="49.17311" lon="1.33308">
        <ele>17.337893</ele>
        <time>2024-05-03T06:03:05.258Z</time>
      </trkpt>
      <trkpt lat="49.17303" lon="1.33291">
        <ele>17.544691</ele>
        <time>2024-05-03T06:03:09.324Z</time>
      </trkpt>
      <trkpt lat="49.17293" lon="1.33271">
        <ele>17.784316</ele>
        <time>2024-05-03T06:03:13.841Z</time>
      </trkpt>
      <trkpt lat="49.17291" lon="1.33262">
        <ele>17.873083</ele>
        <time>2024-05-03T06:03:15.662Z</time>
      </trkpt>
      <trkpt lat="49.17289" lon="1.3324">
        <ele>18.113389</ele>
        <time>2024-05-03T06:03:19.920Z</time>
      </trkpt>
      <trkpt lat="49.17288" lon="1.33213">
        <ele>18.580835</ele>
        <time>2024-05-03T06:03:24.922Z</time>
      </trkpt>
      <trkpt lat="49.17286" lon="1.33152">
        <ele>19.648244</ele>
        <time>2024-05-03T06:03:36.960Z</time>
      </trkpt>
      <trkpt lat="49.17289" lon="1.3315">
        <ele>19.74204</ele>
        <time>2024-05-03T06:03:38.060Z</time>
      </trkpt>
      <trkpt lat="49.1729" lon="1.33144">
        <ele>19.861778</ele>
        <time>2024-05-03T06:03:39.472Z</time>
      </trkpt>
      <trkpt lat="49.17304" lon="1.33141">
        <ele>20.218552</ele>
        <time>2024-05-03T06:03:43.468Z</time>
      </trkpt>
      <trkpt lat="49.17313" lon="1.33132">
        <ele>20.514576</ele>
        <time>2024-05-03T06:03:46.894Z</time>
      </trkpt>
      <trkpt lat="49.17335" lon="1.33092">
        <ele>21.416366</ele>
        <time>2024-05-03T06:03:57.694Z</time>
      </trkpt>
      <trkpt lat="49.1733" lon="1.33086">
        <ele>21.571974</ele>
        <time>2024-05-03T06:04:00.375Z</time>
      </trkpt>
      <trkpt lat="49.17329" lon="1.33078">
        <ele>21.727333</ele>
        <time>2024-05-03T06:04:03.043Z</time>
      </trkpt>
      <trkpt lat="49.17328" lon="1.33003">
        <ele>23.100754</ele>
        <time>2024-05-03T06:04:28.486Z</time>
      </trkpt>
      <trkpt lat="49.17324" lon="1.32997">
        <ele>23.311646</ele>
        <time>2024-05-03T06:04:31.792Z</time>
      </trkpt>
      <trkpt lat="49.17264" lon="1.32977">
        <ele>25.583547</ele>
        <time>2024-05-03T06:05:05.817Z</time>
      </trkpt>
      <trkpt lat="49.17258" lon="1.32968">
        <ele>25.869486</ele>
        <time>2024-05-03T06:05:10.018Z</time>
      </trkpt>
      <trkpt lat="49.17255" lon="1.32944">
        <ele>26.476387</ele>
        <time>2024-05-03T06:05:18.784Z</time>
      </trkpt>
      <trkpt lat="49.17247" lon="1.32931">
        <ele>26.887486</ele>
        <time>2024-05-03T06:05:24.157Z</time>
      </trkpt>
      <trkpt lat="49.17245" lon="1.32901">
        <ele>27.615563</ele>
        <time>2024-05-03T06:05:34.463Z</time>
      </trkpt>
      <trkpt lat="49.17206" lon="1.32893">
        <ele>29.05367</ele>
        <time>2024-05-03T06:05:53.121Z</time>
      </trkpt>
      <trkpt lat="49.17188" lon="1.32887">
        <ele>29.418519</ele>
        <time>2024-05-03T06:06:01.006Z</time>
      </trkpt>
      <trkpt lat="49.17175" lon="1.32882">
        <ele>29.336114</ele>
        <time>2024-05-03T06:06:07.211Z</time>
      </trkpt>
      <trkpt lat="49.17163" lon="1.32884">
        <ele>29.265927</ele>
        <time>2024-05-03T06:06:12.065Z</time>
      </trkpt>
      <trkpt lat="49.17153" lon="1.32919">
        <ele>29.113</ele>
        <time>2024-05-03T06:06:21.603Z</time>
      </trkpt>
      <trkpt lat="49.17125" lon="1.32919">
        <ele>28.940345</ele>
        <time>2024-05-03T06:06:30.985Z</time>
      </trkpt>
      <trkpt lat="49.17066" lon="1.32909">
        <ele>28.580479</ele>
        <time>2024-05-03T06:06:47.339Z</time>
      </trkpt>
      <trkpt lat="49.17024" lon="1.32912">
        <ele>28.123841</ele>
        <time>2024-05-03T06:06:58.055Z</time>
      </trkpt>
      <trkpt lat="49.17027" lon="1.32935">
        <ele>27.653078</ele>
        <time>2024-05-03T06:07:00.207Z</time>
      </trkpt>
      <trkpt lat="49.17024" lon="1.32978">
        <ele>26.753357</ele>
        <time>2024-05-03T06:07:04.562Z</time>
      </trkpt>
      <trkpt lat="49.17021" lon="1.32995">
        <ele>26.394323</ele>
        <time>2024-05-03T06:07:06.280Z</time>
      </trkpt>
      <trkpt lat="49.17009" lon="1.33034">
        <ele>25.496093</ele>
        <time>2024-05-03T06:07:10.571Z</time>
      </trkpt>
      <trkpt lat="49.17007" lon="1.33041">
        <ele>25.345532</ele>
        <time>2024-05-03T06:07:11.279Z</time>
      </trkpt>
      <trkpt lat="49.16974" lon="1.33036">
        <ele>24.316557</ele>
        <time>2024-05-03T06:07:16.192Z</time>
      </trkpt>
      <trkpt lat="49.16934" lon="1.33046">
        <ele>23.044433</ele>
        <time>2024-05-03T06:07:22.367Z</time>
      </trkpt>
      <trkpt lat="49.16853" lon="1.33056">
        <ele>21.952376</ele>
        <time>2024-05-03T06:07:35.886Z</time>
      </trkpt>
      <trkpt lat="49.16815" lon="1.33072">
        <ele>21.536356</ele>
        <time>2024-05-03T06:07:42.897Z</time>
      </trkpt>
      <trkpt lat="49.16767" lon="1.33089">
        <ele>21.007875</ele>
        <time>2024-05-03T06:07:52.322Z</time>
      </trkpt>
      <trkpt lat="49.16754" lon="1.3309">
        <ele>20.867386</ele>
        <time>2024-05-03T06:07:54.980Z</time>
      </trkpt>
      <trkpt lat="49.16728" lon="1.33086">
        <ele>21.101178</ele>
        <time>2024-05-03T06:08:00.777Z</time>
      </trkpt>
      <trkpt lat="49.16667" lon="1.33075">
        <ele>22.091672</ele>
        <time>2024-05-03T06:08:17.179Z</time>
      </trkpt>
      <trkpt lat="49.16596" lon="1.3306">
        <ele>23.24716</ele>
        <time>2024-05-03T06:08:39.810Z</time>
      </trkpt>
      <trkpt lat="49.16568" lon="1.33055">
        <ele>23.709433</ele>
        <time>2024-05-03T06:08:49.067Z</time>
      </trkpt>
      <trkpt lat="49.16522" lon="1.33043">
        <ele>24.732253</ele>
        <time>2024-05-03T06:09:04.056Z</time>
      </trkpt>
      <trkpt lat="49.16486" lon="1.33021">
        <ele>25.577161</ele>
        <time>2024-05-03T06:09:16.724Z</time>
      </trkpt>
      <trkpt lat="49.16323" lon="1.33047">
        <ele>28.619135</ele>
        <time>2024-05-03T06:10:05.549Z</time>
      </trkpt>
      <trkpt lat="49.16323" lon="1.33047">
        <ele>28.619135</ele>
        <time>2024-05-03T06:10:05.566Z</time>
      </trkpt>
      <trkpt lat="49.16323" lon="1.33047">
        <ele>28.621928</ele>
        <time>2024-05-03T06:10:05.650Z</time>
      </trkpt>
      <trkpt lat="49.16256" lon="1.33048">
        <ele>29.581622</ele>
        <time>2024-05-03T06:10:34.479Z</time>
      </trkpt>
      <trkpt lat="49.16178" lon="1.3304">
        <ele>30.550946</ele>
        <time>2024-05-03T06:11:07.759Z</time>
      </trkpt>
      <trkpt lat="49.16101" lon="1.33031">
        <ele>31.349435</ele>
        <time>2024-05-03T06:11:41.038Z</time>
      </trkpt>
      <trkpt lat="49.16087" lon="1.3297">
        <ele>31.784814</ele>
        <time>2024-05-03T06:11:59.185Z</time>
      </trkpt>
      <trkpt lat="49.16099" lon="1.32868">
        <ele>32.689408</ele>
        <time>2024-05-03T06:12:28.025Z</time>
      </trkpt>
      <trkpt lat="49.16054" lon="1.32831">
        <ele>33.471506</ele>
        <time>2024-05-03T06:12:49.963Z</time>
      </trkpt>
      <trkpt lat="49.16076" lon="1.32708">
        <ele>34.748653</ele>
        <time>2024-05-03T06:13:25.791Z</time>
      </trkpt>
      <trkpt lat="49.16081" lon="1.32726">
        <ele>35.152281</ele>
        <time>2024-05-03T06:13:31.315Z</time>
      </trkpt>
      <trkpt lat="49.16083" lon="1.32715">
        <ele>35.414339</ele>
        <time>2024-05-03T06:13:34.184Z</time>
      </trkpt>
      <trkpt lat="49.16081" lon="1.32703">
        <ele>35.68497</ele>
        <time>2024-05-03T06:13:37.492Z</time>
      </trkpt>
      <trkpt lat="49.16063" lon="1.32676">
        <ele>36.561326</ele>
        <time>2024-05-03T06:13:47.615Z</time>
      </trkpt>
      <trkpt lat="49.16037" lon="1.32638">
        <ele>37.806336</ele>
        <time>2024-05-03T06:14:02.137Z</time>
      </trkpt>
      <trkpt lat="49.16022" lon="1.32598">
        <ele>38.837351</ele>
        <time>2024-05-03T06:14:13.946Z</time>
      </trkpt>
      <trkpt lat="49.16019" lon="1.32577">
        <ele>39.335594</ele>
        <time>2024-05-03T06:14:19.137Z</time>
      </trkpt>
      <trkpt lat="49.16012" lon="1.32546">
        <ele>40.066601</ele>
        <time>2024-05-03T06:14:26.078Z</time>
      </trkpt>
      <trkpt lat="49.15997" lon="1.32515">
        <ele>40.935357</ele>
        <time>2024-05-03T06:14:34.575Z</time>
      </trkpt>
      <trkpt lat="49.15987" lon="1.32496">
        <ele>41.390756</ele>
        <time>2024-05-03T06:14:40.738Z</time>
      </trkpt>
      <trkpt lat="49.15948" lon="1.32408">
        <ele>43.257381</ele>
        <time>2024-05-03T06:15:06.358Z</time>
      </trkpt>
      <trkpt lat="49.15975" lon="1.32383">
        <ele>44.109251</ele>
        <time>2024-05-03T06:15:17.588Z</time>
      </trkpt>
      <trkpt lat="49.15995" lon="1.32374">
        <ele>44.684615</ele>
        <time>2024-05-03T06:15:24.782Z</time>
      </trkpt>
      <trkpt lat="49.15971" lon="1.32289">
        <ele>46.329364</ele>
        <time>2024-05-03T06:15:40.196Z</time>
      </trkpt>
      <trkpt lat="49.15967" lon="1.32284">
        <ele>46.462508</ele>
        <time>2024-05-03T06:15:41.216Z</time>
      </trkpt>
      <trkpt lat="49.15942" lon="1.32274">
        <ele>47.181825</ele>
        <time>2024-05-03T06:15:49.216Z</time>
      </trkpt>
      <trkpt lat="49.15921" lon="1.32219">
        <ele>48.317329</ele>
        <time>2024-05-03T06:16:01.513Z</time>
      </trkpt>
      <trkpt lat="49.15921" lon="1.32203">
        <ele>48.604278</ele>
        <time>2024-05-03T06:16:06.557Z</time>
      </trkpt>
      <trkpt lat="49.15927" lon="1.3217">
        <ele>49.218112</ele>
        <time>2024-05-03T06:16:13.803Z</time>
      </trkpt>
      <trkpt lat="49.15931" lon="1.32149">
        <ele>49.61091</ele>
        <time>2024-05-03T06:16:20.543Z</time>
      </trkpt>
      <trkpt lat="49.15965" lon="1.32162">
        <ele>50.57421</ele>
        <time>2024-05-03T06:16:32.338Z</time>
      </trkpt>
      <trkpt lat="49.15965" lon="1.32162">
        <ele>50.57421</ele>
        <time>2024-05-03T06:16:32.470Z</time>
      </trkpt>
      <trkpt lat="49.15965" lon="1.32162">
        <ele>50.57421</ele>
        <time>2024-05-03T06:16:32.470Z</time>
      </trkpt>
      <trkpt lat="49.15965" lon="1.32158">
        <ele>50.648467</ele>
        <time>2024-05-03T06:16:33.628Z</time>
      </trkpt>
      <trkpt lat="49.15999" lon="1.32158">
        <ele>51.979913</ele>
        <time>2024-05-03T06:16:48.052Z</time>
      </trkpt>
      <trkpt lat="49.16034" lon="1.32075">
        <ele>54.654025</ele>
        <time>2024-05-03T06:17:15.732Z</time>
      </trkpt>
      <trkpt lat="49.16036" lon="1.32013">
        <ele>56.320647</ele>
        <time>2024-05-03T06:17:32.986Z</time>
      </trkpt>
      <trkpt lat="49.16073" lon="1.32084">
        <ele>59.033962</ele>
        <time>2024-05-03T06:17:58.339Z</time>
      </trkpt>
      <trkpt lat="49.16109" lon="1.32156">
        <ele>62.630075</ele>
        <time>2024-05-03T06:18:23.675Z</time>
      </trkpt>
      <trkpt lat="49.16109" lon="1.32156">
        <ele>62.642865</ele>
        <time>2024-05-03T06:18:23.827Z</time>
      </trkpt>
      <trkpt lat="49.16108" lon="1.32148">
        <ele>62.952269</ele>
        <time>2024-05-03T06:18:26.692Z</time>
      </trkpt>
      <trkpt lat="49.16105" lon="1.32109">
        <ele>64.499287</ele>
        <time>2024-05-03T06:18:41.027Z</time>
      </trkpt>
      <trkpt lat="49.16107" lon="1.32018">
        <ele>68.145573</ele>
        <time>2024-05-03T06:19:12.596Z</time>
      </trkpt>
      <trkpt lat="49.16105" lon="1.31942">
        <ele>71.687155</ele>
        <time>2024-05-03T06:19:39.993Z</time>
      </trkpt>
      <trkpt lat="49.16096" lon="1.31876">
        <ele>75.042846</ele>
        <time>2024-05-03T06:20:04.306Z</time>
      </trkpt>
      <trkpt lat="49.16085" lon="1.31838">
        <ele>77.129978</ele>
        <time>2024-05-03T06:20:20.389Z</time>
      </trkpt>
      <trkpt lat="49.16055" lon="1.31762">
        <ele>81.55864</ele>
        <time>2024-05-03T06:20:55.974Z</time>
      </trkpt>
      <trkpt lat="49.16024" lon="1.31713">
        <ele>85.176683</ele>
        <time>2024-05-03T06:21:24.120Z</time>
      </trkpt>
      <trkpt lat="49.16011" lon="1.31688">
        <ele>86.953601</ele>
        <time>2024-05-03T06:21:37.410Z</time>
      </trkpt>
      <trkpt lat="49.16008" lon="1.31674">
        <ele>87.774052</ele>
        <time>2024-05-03T06:21:43.404Z</time>
      </trkpt>
      <trkpt lat="49.16008" lon="1.31658">
        <ele>88.639591</ele>
        <time>2024-05-03T06:21:49.779Z</time>
      </trkpt>
      <trkpt lat="49.16018" lon="1.31585">
        <ele>92.715602</ele>
        <time>2024-05-03T06:22:20.205Z</time>
      </trkpt>
      <trkpt lat="49.16016" lon="1.31542">
        <ele>95.045432</ele>
        <time>2024-05-03T06:22:37.719Z</time>
      </trkpt>
      <trkpt lat="49.16018" lon="1.31517">
        <ele>96.430579</ele>
        <time>2024-05-03T06:22:48.120Z</time>
      </trkpt>
      <trkpt lat="49.16021" lon="1.31506">
        <ele>97.134864</ele>
        <time>2024-05-03T06:22:53.356Z</time>
      </trkpt>
      <trkpt lat="49.16042" lon="1.31483">
        <ele>99.000542</ele>
        <time>2024-05-03T06:23:09.429Z</time>
      </trkpt>
      <trkpt lat="49.16078" lon="1.31458">
        <ele>101.578849</ele>
        <time>2024-05-03T06:23:33.176Z</time>
      </trkpt>
      <trkpt lat="49.1608" lon="1.31441">
        <ele>102.301953</ele>
        <time>2024-05-03T06:23:39.489Z</time>
      </trkpt>
      <trkpt lat="49.16077" lon="1.31416">
        <ele>103.397749</ele>
        <time>2024-05-03T06:23:48.813Z</time>
      </trkpt>
      <trkpt lat="49.16074" lon="1.31347">
        <ele>106.366603</ele>
        <time>2024-05-03T06:24:12.078Z</time>
      </trkpt>
      <trkpt lat="49.16071" lon="1.31296">
        <ele>108.555398</ele>
        <time>2024-05-03T06:24:27.829Z</time>
      </trkpt>
      <trkpt lat="49.16064" lon="1.31257">
        <ele>110.051968</ele>
        <time>2024-05-03T06:24:39.649Z</time>
      </trkpt>
      <trkpt lat="49.16005" lon="1.31066">
        <ele>115.010882</ele>
        <time>2024-05-03T06:25:32.579Z</time>
      </trkpt>
      <trkpt lat="49.15991" lon="1.31037">
        <ele>115.848512</ele>
        <time>2024-05-03T06:25:40.463Z</time>
      </trkpt>
      <trkpt lat="49.15946" lon="1.30965">
        <ele>117.102289</ele>
        <time>2024-05-03T06:26:01.574Z</time>
      </trkpt>
      <trkpt lat="49.15894" lon="1.30855">
        <ele>118.544918</ele>
        <time>2024-05-03T06:26:27.171Z</time>
      </trkpt>
      <trkpt lat="49.15861" lon="1.30767">
        <ele>118.672794</ele>
        <time>2024-05-03T06:26:41.894Z</time>
      </trkpt>
      <trkpt lat="49.15846" lon="1.30734">
        <ele>118.274501</ele>
        <time>2024-05-03T06:26:46.801Z</time>
      </trkpt>
      <trkpt lat="49.15833" lon="1.30709">
        <ele>117.964316</ele>
        <time>2024-05-03T06:26:50.461Z</time>
      </trkpt>
      <trkpt lat="49.15821" lon="1.3071">
        <ele>117.782897</ele>
        <time>2024-05-03T06:26:52.457Z</time>
      </trkpt>
      <trkpt lat="49.15805" lon="1.30704">
        <ele>117.53659</ele>
        <time>2024-05-03T06:26:55.164Z</time>
      </trkpt>
      <trkpt lat="49.15762" lon="1.30676">
        <ele>116.819556</ele>
        <time>2024-05-03T06:27:02.746Z</time>
      </trkpt>
      <trkpt lat="49.1571" lon="1.30674">
        <ele>115.840959</ele>
        <time>2024-05-03T06:27:10.704Z</time>
      </trkpt>
      <trkpt lat="49.15665" lon="1.30671">
        <ele>114.812397</ele>
        <time>2024-05-03T06:27:22.258Z</time>
      </trkpt>
      <trkpt lat="49.15595" lon="1.30634">
        <ele>113.118559</ele>
        <time>2024-05-03T06:27:41.930Z</time>
      </trkpt>
      <trkpt lat="49.15541" lon="1.30633">
        <ele>112.705679</ele>
        <time>2024-05-03T06:27:57.014Z</time>
      </trkpt>
      <trkpt lat="49.15442" lon="1.3056">
        <ele>115.172182</ele>
        <time>2024-05-03T06:28:41.245Z</time>
      </trkpt>
      <trkpt lat="49.1543" lon="1.30558">
        <ele>115.439925</ele>
        <time>2024-05-03T06:28:47.586Z</time>
      </trkpt>
      <trkpt lat="49.15416" lon="1.3054">
        <ele>115.856845</ele>
        <time>2024-05-03T06:28:57.935Z</time>
      </trkpt>
      <trkpt lat="49.15363" lon="1.30538">
        <ele>118.355949</ele>
        <time>2024-05-03T06:29:30.244Z</time>
      </trkpt>
      <trkpt lat="49.15275" lon="1.3053">
        <ele>123.945904</ele>
        <time>2024-05-03T06:30:29.426Z</time>
      </trkpt>
      <trkpt lat="49.15244" lon="1.30516">
        <ele>125.968029</ele>
        <time>2024-05-03T06:30:50.794Z</time>
      </trkpt>
      <trkpt lat="49.15169" lon="1.30501">
        <ele>129.639248</ele>
        <time>2024-05-03T06:31:37.923Z</time>
      </trkpt>
      <trkpt lat="49.15141" lon="1.30501">
        <ele>130.704605</ele>
        <time>2024-05-03T06:31:52.862Z</time>
      </trkpt>
      <trkpt lat="49.15078" lon="1.30542">
        <ele>133.387082</ele>
        <time>2024-05-03T06:32:25.948Z</time>
      </trkpt>
      <trkpt lat="49.15045" lon="1.30462">
        <ele>135.13304</ele>
        <time>2024-05-03T06:32:51.535Z</time>
      </trkpt>
      <trkpt lat="49.15015" lon="1.30413">
        <ele>135.71317</ele>
        <time>2024-05-03T06:33:07.405Z</time>
      </trkpt>
      <trkpt lat="49.15011" lon="1.30407">
        <ele>135.790709</ele>
        <time>2024-05-03T06:33:08.869Z</time>
      </trkpt>
      <trkpt lat="49.14975" lon="1.30362">
        <ele>136.408049</ele>
        <time>2024-05-03T06:33:20.122Z</time>
      </trkpt>
      <trkpt lat="49.14782" lon="1.30172">
        <ele>139.122428</ele>
        <time>2024-05-03T06:34:17.729Z</time>
      </trkpt>
      <trkpt lat="49.14737" lon="1.30133">
        <ele>139.534141</ele>
        <time>2024-05-03T06:34:30.067Z</time>
      </trkpt>
      <trkpt lat="49.1472" lon="1.30114">
        <ele>139.694598</ele>
        <time>2024-05-03T06:34:35.165Z</time>
      </trkpt>
      <trkpt lat="49.14591" lon="1.29998">
        <ele>140.571094</ele>
        <time>2024-05-03T06:35:08.675Z</time>
      </trkpt>
      <trkpt lat="49.14537" lon="1.29971">
        <ele>140.624285</ele>
        <time>2024-05-03T06:35:20.331Z</time>
      </trkpt>
      <trkpt lat="49.14509" lon="1.29963">
        <ele>140.650715</ele>
        <time>2024-05-03T06:35:25.867Z</time>
      </trkpt>
      <trkpt lat="49.14492" lon="1.29958">
        <ele>140.666363</ele>
        <time>2024-05-03T06:35:29.015Z</time>
      </trkpt>
      <trkpt lat="49.14427" lon="1.29936">
        <ele>140.504439</ele>
        <time>2024-05-03T06:35:41.289Z</time>
      </trkpt>
      <trkpt lat="49.14341" lon="1.299">
        <ele>139.783173</ele>
        <time>2024-05-03T06:35:56.390Z</time>
      </trkpt>
      <trkpt lat="49.14301" lon="1.29879">
        <ele>139.438192</ele>
        <time>2024-05-03T06:36:03.442Z</time>
      </trkpt>
      <trkpt lat="49.14208" lon="1.29836">
        <ele>139.011438</ele>
        <time>2024-05-03T06:36:20.102Z</time>
      </trkpt>
      <trkpt lat="49.14182" lon="1.29818">
        <ele>138.921102</ele>
        <time>2024-05-03T06:36:25.197Z</time>
      </trkpt>
      <trkpt lat="49.14165" lon="1.29795">
        <ele>138.851428</ele>
        <time>2024-05-03T06:36:29.257Z</time>
      </trkpt>
      <trkpt lat="49.14161" lon="1.29785">
        <ele>138.826116</ele>
        <time>2024-05-03T06:36:30.736Z</time>
      </trkpt>
      <trkpt lat="49.1408" lon="1.29499">
        <ele>139.885893</ele>
        <time>2024-05-03T06:37:16.699Z</time>
      </trkpt>
      <trkpt lat="49.14014" lon="1.29253">
        <ele>141.884955</ele>
        <time>2024-05-03T06:38:01.081Z</time>
      </trkpt>
      <trkpt lat="49.13976" lon="1.29137">
        <ele>142.806631</ele>
        <time>2024-05-03T06:38:22.540Z</time>
      </trkpt>
      <trkpt lat="49.1396" lon="1.2909">
        <ele>143.163287</ele>
        <time>2024-05-03T06:38:31.003Z</time>
      </trkpt>
      <trkpt lat="49.13923" lon="1.29003">
        <ele>143.866689</ele>
        <time>2024-05-03T06:38:47.233Z</time>
      </trkpt>
      <trkpt lat="49.139" lon="1.28951">
        <ele>144.244892</ele>
        <time>2024-05-03T06:38:56.756Z</time>
      </trkpt>
      <trkpt lat="49.13831" lon="1.28799">
        <ele>145.188317</ele>
        <time>2024-05-03T06:39:24.677Z</time>
      </trkpt>
      <trkpt lat="49.13808" lon="1.2871">
        <ele>145.667504</ele>
        <time>2024-05-03T06:39:39.037Z</time>
      </trkpt>
      <trkpt lat="49.13802" lon="1.28681">
        <ele>145.805684</ele>
        <time>2024-05-03T06:39:43.460Z</time>
      </trkpt>
      <trkpt lat="49.13798" lon="1.28642">
        <ele>145.990648</ele>
        <time>2024-05-03T06:39:49.410Z</time>
      </trkpt>
      <trkpt lat="49.13801" lon="1.28532">
        <ele>146.50197</ele>
        <time>2024-05-03T06:40:06.061Z</time>
      </trkpt>
      <trkpt lat="49.13796" lon="1.28452">
        <ele>146.839903</ele>
        <time>2024-05-03T06:40:17.542Z</time>
      </trkpt>
      <trkpt lat="49.13786" lon="1.28383">
        <ele>147.045903</ele>
        <time>2024-05-03T06:40:27.391Z</time>
      </trkpt>
      <trkpt lat="49.13741" lon="1.28172">
        <ele>147.618804</ele>
        <time>2024-05-03T06:40:58.259Z</time>
      </trkpt>
      <trkpt lat="49.13772" lon="1.28139">
        <ele>147.685745</ele>
        <time>2024-05-03T06:41:06.558Z</time>
      </trkpt>
      <trkpt lat="49.13783" lon="1.28123">
        <ele>147.712929</ele>
        <time>2024-05-03T06:41:09.880Z</time>
      </trkpt>
      <trkpt lat="49.13814" lon="1.28065">
        <ele>147.798897</ele>
        <time>2024-05-03T06:41:20.150Z</time>
      </trkpt>
      <trkpt lat="49.13831" lon="1.28045">
        <ele>147.837459</ele>
        <time>2024-05-03T06:41:24.667Z</time>
      </trkpt>
      <trkpt lat="49.13879" lon="1.28011">
        <ele>147.887135</ele>
        <time>2024-05-03T06:41:35.337Z</time>
      </trkpt>
      <trkpt lat="49.1391" lon="1.27993">
        <ele>147.879355</ele>
        <time>2024-05-03T06:41:42.092Z</time>
      </trkpt>
      <trkpt lat="49.1401" lon="1.27953">
        <ele>147.855374</ele>
        <time>2024-05-03T06:42:02.733Z</time>
      </trkpt>
      <trkpt lat="49.14052" lon="1.27932">
        <ele>147.8806</ele>
        <time>2024-05-03T06:42:11.561Z</time>
      </trkpt>
      <trkpt lat="49.14074" lon="1.27917">
        <ele>147.912596</ele>
        <time>2024-05-03T06:42:16.464Z</time>
      </trkpt>
      <trkpt lat="49.14099" lon="1.27893">
        <ele>147.951282</ele>
        <time>2024-05-03T06:42:22.530Z</time>
      </trkpt>
      <trkpt lat="49.14113" lon="1.27878">
        <ele>147.973814</ele>
        <time>2024-05-03T06:42:26.042Z</time>
      </trkpt>
      <trkpt lat="49.14167" lon="1.27807">
        <ele>148.068036</ele>
        <time>2024-05-03T06:42:41.371Z</time>
      </trkpt>
      <trkpt lat="49.14242" lon="1.2767">
        <ele>148.527351</ele>
        <time>2024-05-03T06:43:07.119Z</time>
      </trkpt>
      <trkpt lat="49.14279" lon="1.2761">
        <ele>148.763275</ele>
        <time>2024-05-03T06:43:19.516Z</time>
      </trkpt>
      <trkpt lat="49.1434" lon="1.27522">
        <ele>149.146464</ele>
        <time>2024-05-03T06:43:38.607Z</time>
      </trkpt>
      <trkpt lat="49.14498" lon="1.27308">
        <ele>149.998199</ele>
        <time>2024-05-03T06:44:25.997Z</time>
      </trkpt>
      <trkpt lat="49.14682" lon="1.27047">
        <ele>150.562347</ele>
        <time>2024-05-03T06:45:19.026Z</time>
      </trkpt>
      <trkpt lat="49.14721" lon="1.26998">
        <ele>150.683135</ele>
        <time>2024-05-03T06:45:29.438Z</time>
      </trkpt>
      <trkpt lat="49.14631" lon="1.26869">
        <ele>151.021968</ele>
        <time>2024-05-03T06:46:09.716Z</time>
      </trkpt>
      <trkpt lat="49.14387" lon="1.26561">
        <ele>152.852417</ele>
        <time>2024-05-03T06:47:59.791Z</time>
      </trkpt>
      <trkpt lat="49.14299" lon="1.26481">
        <ele>153.460479</ele>
        <time>2024-05-03T06:48:36.164Z</time>
      </trkpt>
      <trkpt lat="49.14299" lon="1.26481">
        <ele>153.460479</ele>
        <time>2024-05-03T06:48:36.190Z</time>
      </trkpt>
      <trkpt lat="49.14299" lon="1.26481">
        <ele>153.460479</ele>
        <time>2024-05-03T06:48:36.190Z</time>
      </trkpt>
      <trkpt lat="49.14338" lon="1.2638">
        <ele>153.836473</ele>
        <time>2024-05-03T06:49:08.885Z</time>
      </trkpt>
      <trkpt lat="49.14377" lon="1.2628">
        <ele>154.189252</ele>
        <time>2024-05-03T06:49:41.601Z</time>
      </trkpt>
      <trkpt lat="49.14416" lon="1.26179">
        <ele>154.329247</ele>
        <time>2024-05-03T06:50:14.294Z</time>
      </trkpt>
      <trkpt lat="49.14455" lon="1.26078">
        <ele>154.469345</ele>
        <time>2024-05-03T06:50:47.012Z</time>
      </trkpt>
      <trkpt lat="49.14494" lon="1.25978">
        <ele>154.098398</ele>
        <time>2024-05-03T06:51:19.706Z</time>
      </trkpt>
      <trkpt lat="49.14533" lon="1.25877">
        <ele>153.554335</ele>
        <time>2024-05-03T06:51:52.421Z</time>
      </trkpt>
      <trkpt lat="49.14586" lon="1.2579">
        <ele>152.796499</ele>
        <time>2024-05-03T06:52:25.613Z</time>
      </trkpt>
      <trkpt lat="49.14639" lon="1.25703">
        <ele>151.734186</ele>
        <time>2024-05-03T06:52:58.835Z</time>
      </trkpt>
      <trkpt lat="49.14692" lon="1.25617">
        <ele>150.771514</ele>
        <time>2024-05-03T06:53:32.026Z</time>
      </trkpt>
      <trkpt lat="49.14745" lon="1.2553">
        <ele>150.841005</ele>
        <time>2024-05-03T06:54:05.194Z</time>
      </trkpt>
      <trkpt lat="49.14798" lon="1.25443">
        <ele>150.9106</ele>
        <time>2024-05-03T06:54:38.411Z</time>
      </trkpt>
      <trkpt lat="49.14808" lon="1.25422">
        <ele>150.925953</ele>
        <time>2024-05-03T06:54:42.804Z</time>
      </trkpt>
      <trkpt lat="49.14831" lon="1.25387">
        <ele>151.107016</ele>
        <time>2024-05-03T06:54:50.949Z</time>
      </trkpt>
      <trkpt lat="49.14839" lon="1.25366">
        <ele>151.200295</ele>
        <time>2024-05-03T06:54:55.202Z</time>
      </trkpt>
      <trkpt lat="49.14843" lon="1.25349">
        <ele>151.265344</ele>
        <time>2024-05-03T06:54:58.018Z</time>
      </trkpt>
      <trkpt lat="49.14852" lon="1.25298">
        <ele>151.46419</ele>
        <time>2024-05-03T06:55:06.856Z</time>
      </trkpt>
      <trkpt lat="49.1487" lon="1.2525">
        <ele>151.669242</ele>
        <time>2024-05-03T06:55:15.651Z</time>
      </trkpt>
      <trkpt lat="49.14879" lon="1.2523">
        <ele>151.761344</ele>
        <time>2024-05-03T06:55:19.491Z</time>
      </trkpt>
      <trkpt lat="49.1493" lon="1.25149">
        <ele>151.220839</ele>
        <time>2024-05-03T06:55:33.690Z</time>
      </trkpt>
      <trkpt lat="49.14933" lon="1.25141">
        <ele>151.101833</ele>
        <time>2024-05-03T06:55:34.832Z</time>
      </trkpt>
      <trkpt lat="49.14934" lon="1.25119">
        <ele>150.837865</ele>
        <time>2024-05-03T06:55:37.334Z</time>
      </trkpt>
      <trkpt lat="49.14927" lon="1.2508">
        <ele>150.350415</ele>
        <time>2024-05-03T06:55:41.869Z</time>
      </trkpt>
      <trkpt lat="49.14929" lon="1.25054">
        <ele>150.029442</ele>
        <time>2024-05-03T06:55:44.821Z</time>
      </trkpt>
      <trkpt lat="49.14669" lon="1.24941">
        <ele>142.340943</ele>
        <time>2024-05-03T06:56:54.381Z</time>
      </trkpt>
      <trkpt lat="49.14605" lon="1.24921">
        <ele>140.465056</ele>
        <time>2024-05-03T06:57:11.155Z</time>
      </trkpt>
      <trkpt lat="49.14541" lon="1.24915">
        <ele>138.639811</ele>
        <time>2024-05-03T06:57:27.896Z</time>
      </trkpt>
      <trkpt lat="49.1453" lon="1.24901">
        <ele>138.221115</ele>
        <time>2024-05-03T06:57:31.811Z</time>
      </trkpt>
      <trkpt lat="49.14493" lon="1.24826">
        <ele>137.189553</ele>
        <time>2024-05-03T06:57:48.530Z</time>
      </trkpt>
      <trkpt lat="49.14479" lon="1.24797">
        <ele>136.936062</ele>
        <time>2024-05-03T06:57:55.255Z</time>
      </trkpt>
      <trkpt lat="49.14379" lon="1.24542">
        <ele>135.826171</ele>
        <time>2024-05-03T06:58:54.357Z</time>
      </trkpt>
      <trkpt lat="49.14352" lon="1.2448">
        <ele>135.901243</ele>
        <time>2024-05-03T06:59:11.352Z</time>
      </trkpt>
      <trkpt lat="49.14285" lon="1.24379">
        <ele>136.057176</ele>
        <time>2024-05-03T06:59:44.360Z</time>
      </trkpt>
      <trkpt lat="49.14262" lon="1.2433">
        <ele>136.12852</ele>
        <time>2024-05-03T06:59:58.090Z</time>
      </trkpt>
      <trkpt lat="49.14244" lon="1.24257">
        <ele>136.220445</ele>
        <time>2024-05-03T07:00:14.855Z</time>
      </trkpt>
      <trkpt lat="49.14222" lon="1.24106">
        <ele>135.867413</ele>
        <time>2024-05-03T07:00:45.635Z</time>
      </trkpt>
      <trkpt lat="49.14211" lon="1.23955">
        <ele>135.03475</ele>
        <time>2024-05-03T07:01:14.609Z</time>
      </trkpt>
      <trkpt lat="49.14203" lon="1.23919">
        <ele>134.829934</ele>
        <time>2024-05-03T07:01:21.673Z</time>
      </trkpt>
      <trkpt lat="49.14137" lon="1.23683">
        <ele>133.370758</ele>
        <time>2024-05-03T07:02:11.010Z</time>
      </trkpt>
      <trkpt lat="49.14128" lon="1.23634">
        <ele>133.191192</ele>
        <time>2024-05-03T07:02:21.139Z</time>
      </trkpt>
      <trkpt lat="49.14129" lon="1.23619">
        <ele>133.163139</ele>
        <time>2024-05-03T07:02:24.252Z</time>
      </trkpt>
      <trkpt lat="49.1405" lon="1.23489">
        <ele>132.844523</ele>
        <time>2024-05-03T07:02:46.073Z</time>
      </trkpt>
      <trkpt lat="49.14007" lon="1.23419">
        <ele>132.600055</ele>
        <time>2024-05-03T07:02:57.765Z</time>
      </trkpt>
      <trkpt lat="49.14018" lon="1.2339">
        <ele>132.484484</ele>
        <time>2024-05-03T07:03:01.842Z</time>
      </trkpt>
      <trkpt lat="49.14018" lon="1.23384">
        <ele>132.462386</ele>
        <time>2024-05-03T07:03:02.610Z</time>
      </trkpt>
      <trkpt lat="49.14018" lon="1.23369">
        <ele>132.412939</ele>
        <time>2024-05-03T07:03:04.341Z</time>
      </trkpt>
      <trkpt lat="49.14005" lon="1.2334">
        <ele>132.290267</ele>
        <time>2024-05-03T07:03:08.579Z</time>
      </trkpt>
      <trkpt lat="49.13985" lon="1.23307">
        <ele>132.13267</ele>
        <time>2024-05-03T07:03:14.039Z</time>
      </trkpt>
      <trkpt lat="49.13956" lon="1.23266">
        <ele>131.918405</ele>
        <time>2024-05-03T07:03:21.599Z</time>
      </trkpt>
      <trkpt lat="49.13955" lon="1.23257">
        <ele>131.886478</ele>
        <time>2024-05-03T07:03:22.717Z</time>
      </trkpt>
      <trkpt lat="49.13955" lon="1.23251">
        <ele>131.865963</ele>
        <time>2024-05-03T07:03:23.432Z</time>
      </trkpt>
      <trkpt lat="49.13953" lon="1.23237">
        <ele>131.817686</ele>
        <time>2024-05-03T07:03:25.137Z</time>
      </trkpt>
      <trkpt lat="49.13956" lon="1.2318">
        <ele>131.655625</ele>
        <time>2024-05-03T07:03:32.115Z</time>
      </trkpt>
      <trkpt lat="49.1395" lon="1.23131">
        <ele>131.522712</ele>
        <time>2024-05-03T07:03:37.968Z</time>
      </trkpt>
      <trkpt lat="49.13949" lon="1.23098">
        <ele>131.436497</ele>
        <time>2024-05-03T07:03:41.784Z</time>
      </trkpt>
      <trkpt lat="49.13953" lon="1.23017">
        <ele>131.219721</ele>
        <time>2024-05-03T07:03:51.524Z</time>
      </trkpt>
      <trkpt lat="49.1395" lon="1.22994">
        <ele>131.155439</ele>
        <time>2024-05-03T07:03:54.691Z</time>
      </trkpt>
      <trkpt lat="49.1392" lon="1.22889">
        <ele>131.864408</ele>
        <time>2024-05-03T07:04:21.159Z</time>
      </trkpt>
      <trkpt lat="49.13914" lon="1.22863">
        <ele>132.166727</ele>
        <time>2024-05-03T07:04:28.263Z</time>
      </trkpt>
      <trkpt lat="49.13892" lon="1.22814">
        <ele>132.822261</ele>
        <time>2024-05-03T07:04:43.918Z</time>
      </trkpt>
      <trkpt lat="49.13993" lon="1.22574">
        <ele>136.55712</ele>
        <time>2024-05-03T07:06:06.983Z</time>
      </trkpt>
      <trkpt lat="49.1401" lon="1.22484">
        <ele>137.907537</ele>
        <time>2024-05-03T07:06:32.769Z</time>
      </trkpt>
      <trkpt lat="49.14018" lon="1.22384">
        <ele>138.484973</ele>
        <time>2024-05-03T07:06:57.398Z</time>
      </trkpt>
      <trkpt lat="49.14019" lon="1.22296">
        <ele>138.921332</ele>
        <time>2024-05-03T07:07:17.142Z</time>
      </trkpt>
      <trkpt lat="49.14056" lon="1.2217">
        <ele>139.46116</ele>
        <time>2024-05-03T07:07:47.411Z</time>
      </trkpt>
      <trkpt lat="49.14081" lon="1.21969">
        <ele>139.792058</ele>
        <time>2024-05-03T07:08:31.312Z</time>
      </trkpt>
      <trkpt lat="49.1408" lon="1.21886">
        <ele>139.871036</ele>
        <time>2024-05-03T07:08:49.338Z</time>
      </trkpt>
      <trkpt lat="49.14042" lon="1.21806">
        <ele>139.931302</ele>
        <time>2024-05-03T07:09:10.676Z</time>
      </trkpt>
      <trkpt lat="49.1404" lon="1.21768">
        <ele>139.954473</ele>
        <time>2024-05-03T07:09:18.568Z</time>
      </trkpt>
      <trkpt lat="49.14056" lon="1.21721">
        <ele>139.986234</ele>
        <time>2024-05-03T07:09:29.211Z</time>
      </trkpt>
      <trkpt lat="49.14083" lon="1.21666">
        <ele>140.041631</ele>
        <time>2024-05-03T07:09:43.481Z</time>
      </trkpt>
      <trkpt lat="49.14092" lon="1.21625">
        <ele>140.081804</ele>
        <time>2024-05-03T07:09:52.624Z</time>
      </trkpt>
      <trkpt lat="49.14069" lon="1.21539">
        <ele>140.170103</ele>
        <time>2024-05-03T07:10:05.996Z</time>
      </trkpt>
      <trkpt lat="49.14064" lon="1.21506">
        <ele>140.201774</ele>
        <time>2024-05-03T07:10:10.881Z</time>
      </trkpt>
      <trkpt lat="49.14133" lon="1.21451">
        <ele>140.077643</ele>
        <time>2024-05-03T07:10:26.859Z</time>
      </trkpt>
      <trkpt lat="49.14149" lon="1.21433">
        <ele>139.972827</ele>
        <time>2024-05-03T07:10:30.665Z</time>
      </trkpt>
      <trkpt lat="49.14173" lon="1.21393">
        <ele>139.784312</ele>
        <time>2024-05-03T07:10:37.391Z</time>
      </trkpt>
      <trkpt lat="49.14208" lon="1.21292">
        <ele>139.380672</ele>
        <time>2024-05-03T07:10:50.897Z</time>
      </trkpt>
      <trkpt lat="49.14218" lon="1.21278">
        <ele>139.307544</ele>
        <time>2024-05-03T07:10:53.237Z</time>
      </trkpt>
      <trkpt lat="49.14262" lon="1.21248">
        <ele>138.978631</ele>
        <time>2024-05-03T07:11:02.138Z</time>
      </trkpt>
      <trkpt lat="49.14283" lon="1.21239">
        <ele>138.828784</ele>
        <time>2024-05-03T07:11:05.998Z</time>
      </trkpt>
      <trkpt lat="49.14335" lon="1.21245">
        <ele>138.467344</ele>
        <time>2024-05-03T07:11:15.862Z</time>
      </trkpt>
      <trkpt lat="49.14351" lon="1.21261">
        <ele>138.336272</ele>
        <time>2024-05-03T07:11:19.188Z</time>
      </trkpt>
      <trkpt lat="49.14344" lon="1.2123">
        <ele>138.188387</ele>
        <time>2024-05-03T07:11:25.815Z</time>
      </trkpt>
      <trkpt lat="49.14343" lon="1.21183">
        <ele>137.953901</ele>
        <time>2024-05-03T07:11:35.204Z</time>
      </trkpt>
      <trkpt lat="49.14328" lon="1.21124">
        <ele>137.596339</ele>
        <time>2024-05-03T07:11:47.993Z</time>
      </trkpt>
      <trkpt lat="49.14321" lon="1.21051">
        <ele>137.18233</ele>
        <time>2024-05-03T07:12:03.042Z</time>
      </trkpt>
      <trkpt lat="49.14304" lon="1.20988">
        <ele>136.796225</ele>
        <time>2024-05-03T07:12:17.063Z</time>
      </trkpt>
      <trkpt lat="49.14292" lon="1.20967">
        <ele>136.633561</ele>
        <time>2024-05-03T07:12:22.322Z</time>
      </trkpt>
      <trkpt lat="49.14275" lon="1.20955">
        <ele>136.31705</ele>
        <time>2024-05-03T07:12:27.355Z</time>
      </trkpt>
      <trkpt lat="49.1425" lon="1.20947">
        <ele>134.991874</ele>
        <time>2024-05-03T07:12:33.906Z</time>
      </trkpt>
      <trkpt lat="49.14228" lon="1.20951">
        <ele>133.882374</ele>
        <time>2024-05-03T07:12:39.248Z</time>
      </trkpt>
      <trkpt lat="49.14206" lon="1.20946">
        <ele>132.678447</ele>
        <time>2024-05-03T07:12:44.902Z</time>
      </trkpt>
      <trkpt lat="49.14205" lon="1.20946">
        <ele>132.641842</ele>
        <time>2024-05-03T07:12:45.071Z</time>
      </trkpt>
      <trkpt lat="49.14184" lon="1.20949">
        <ele>131.564105</ele>
        <time>2024-05-03T07:12:50.036Z</time>
      </trkpt>
      <trkpt lat="49.14168" lon="1.20956">
        <ele>130.698741</ele>
        <time>2024-05-03T07:12:53.986Z</time>
      </trkpt>
      <trkpt lat="49.14113" lon="1.20964">
        <ele>127.803607</ele>
        <time>2024-05-03T07:13:06.789Z</time>
      </trkpt>
      <trkpt lat="49.14095" lon="1.20959">
        <ele>126.661786</ele>
        <time>2024-05-03T07:13:10.804Z</time>
      </trkpt>
      <trkpt lat="49.14085" lon="1.20937">
        <ele>124.989154</ele>
        <time>2024-05-03T07:13:14.703Z</time>
      </trkpt>
      <trkpt lat="49.14076" lon="1.20937">
        <ele>124.073124</ele>
        <time>2024-05-03T07:13:16.815Z</time>
      </trkpt>
      <trkpt lat="49.14007" lon="1.21006">
        <ele>116.233869</ele>
        <time>2024-05-03T07:13:34.491Z</time>
      </trkpt>
      <trkpt lat="49.13943" lon="1.21048">
        <ele>109.481377</ele>
        <time>2024-05-03T07:13:49.451Z</time>
      </trkpt>
      <trkpt lat="49.13903" lon="1.21065">
        <ele>104.978982</ele>
        <time>2024-05-03T07:13:58.209Z</time>
      </trkpt>
      <trkpt lat="49.13784" lon="1.2111">
        <ele>91.480723</ele>
        <time>2024-05-03T07:14:24.191Z</time>
      </trkpt>
      <trkpt lat="49.13766" lon="1.21106">
        <ele>89.439953</ele>
        <time>2024-05-03T07:14:28.033Z</time>
      </trkpt>
      <trkpt lat="49.13753" lon="1.21099">
        <ele>87.94816</ele>
        <time>2024-05-03T07:14:30.774Z</time>
      </trkpt>
      <trkpt lat="49.13713" lon="1.21064">
        <ele>82.595274</ele>
        <time>2024-05-03T07:14:40.647Z</time>
      </trkpt>
      <trkpt lat="49.13678" lon="1.21059">
        <ele>78.555141</ele>
        <time>2024-05-03T07:14:48.078Z</time>
      </trkpt>
      <trkpt lat="49.1359" lon="1.21075">
        <ele>68.396124</ele>
        <time>2024-05-03T07:15:06.700Z</time>
      </trkpt>
      <trkpt lat="49.13559" lon="1.21073">
        <ele>65.020151</ele>
        <time>2024-05-03T07:15:13.047Z</time>
      </trkpt>
      <trkpt lat="49.13545" lon="1.21076">
        <ele>63.462516</ele>
        <time>2024-05-03T07:15:15.992Z</time>
      </trkpt>
      <trkpt lat="49.13512" lon="1.21094">
        <ele>59.491229</ele>
        <time>2024-05-03T07:15:23.500Z</time>
      </trkpt>
      <trkpt lat="49.13497" lon="1.21096">
        <ele>57.850714</ele>
        <time>2024-05-03T07:15:26.579Z</time>
      </trkpt>
      <trkpt lat="49.13495" lon="1.21074">
        <ele>56.20421</ele>
        <time>2024-05-03T07:15:29.728Z</time>
      </trkpt>
      <trkpt lat="49.13502" lon="1.20973">
        <ele>49.036023</ele>
        <time>2024-05-03T07:15:43.851Z</time>
      </trkpt>
      <trkpt lat="49.13517" lon="1.20918">
        <ele>45.975679</ele>
        <time>2024-05-03T07:15:52.305Z</time>
      </trkpt>
      <trkpt lat="49.13536" lon="1.2088">
        <ele>43.565239</ele>
        <time>2024-05-03T07:15:59.034Z</time>
      </trkpt>
      <trkpt lat="49.13602" lon="1.20767">
        <ele>35.817318</ele>
        <time>2024-05-03T07:16:21.665Z</time>
      </trkpt>
      <trkpt lat="49.13619" lon="1.20728">
        <ele>34.476176</ele>
        <time>2024-05-03T07:16:29.023Z</time>
      </trkpt>
      <trkpt lat="49.13636" lon="1.20672">
        <ele>32.877123</ele>
        <time>2024-05-03T07:16:39.200Z</time>
      </trkpt>
      <trkpt lat="49.13636" lon="1.20662">
        <ele>32.627501</ele>
        <time>2024-05-03T07:16:40.763Z</time>
      </trkpt>
      <trkpt lat="49.13528" lon="1.20785">
        <ele>27.907824</ele>
        <time>2024-05-03T07:17:00.079Z</time>
      </trkpt>
      <trkpt lat="49.13515" lon="1.20766">
        <ele>27.569303</ele>
        <time>2024-05-03T07:17:02.951Z</time>
      </trkpt>
      <trkpt lat="49.13482" lon="1.20688">
        <ele>26.431953</ele>
        <time>2024-05-03T07:17:13.210Z</time>
      </trkpt>
      <trkpt lat="49.13473" lon="1.20666">
        <ele>26.111981</ele>
        <time>2024-05-03T07:17:16.084Z</time>
      </trkpt>
      <trkpt lat="49.13482" lon="1.20688">
        <ele>25.792009</ele>
        <time>2024-05-03T07:17:19.053Z</time>
      </trkpt>
      <trkpt lat="49.13592" lon="1.20633">
        <ele>24.877116</ele>
        <time>2024-05-03T07:17:52.996Z</time>
      </trkpt>
      <trkpt lat="49.13656" lon="1.20597">
        <ele>24.701068</ele>
        <time>2024-05-03T07:18:16.202Z</time>
      </trkpt>
      <trkpt lat="49.13698" lon="1.20565">
        <ele>24.585341</ele>
        <time>2024-05-03T07:18:31.748Z</time>
      </trkpt>
      <trkpt lat="49.1374" lon="1.20526">
        <ele>24.483826</ele>
        <time>2024-05-03T07:18:47.196Z</time>
      </trkpt>
      <trkpt lat="49.13786" lon="1.20468">
        <ele>24.359748</ele>
        <time>2024-05-03T07:19:05.761Z</time>
      </trkpt>
      <trkpt lat="49.13835" lon="1.20414">
        <ele>24.229434</ele>
        <time>2024-05-03T07:19:24.066Z</time>
      </trkpt>
      <trkpt lat="49.14008" lon="1.2021">
        <ele>22.921538</ele>
        <time>2024-05-03T07:20:29.995Z</time>
      </trkpt>
      <trkpt lat="49.1419" lon="1.19968">
        <ele>21.483421</ele>
        <time>2024-05-03T07:21:42.943Z</time>
      </trkpt>
      <trkpt lat="49.14189" lon="1.19936">
        <ele>21.359929</ele>
        <time>2024-05-03T07:21:46.654Z</time>
      </trkpt>
      <trkpt lat="49.14192" lon="1.19912">
        <ele>21.262651</ele>
        <time>2024-05-03T07:21:49.566Z</time>
      </trkpt>
      <trkpt lat="49.14194" lon="1.19902">
        <ele>21.226024</ele>
        <time>2024-05-03T07:21:50.618Z</time>
      </trkpt>
      <trkpt lat="49.1419" lon="1.19873">
        <ele>21.107871</ele>
        <time>2024-05-03T07:21:54.218Z</time>
      </trkpt>
      <trkpt lat="49.14088" lon="1.19322">
        <ele>20.615231</ele>
        <time>2024-05-03T07:23:08.834Z</time>
      </trkpt>
      <trkpt lat="49.14072" lon="1.19213">
        <ele>20.809865</ele>
        <time>2024-05-03T07:23:24.913Z</time>
      </trkpt>
      <trkpt lat="49.14067" lon="1.19153">
        <ele>20.914785</ele>
        <time>2024-05-03T07:23:33.526Z</time>
      </trkpt>
      <trkpt lat="49.14054" lon="1.19051">
        <ele>21.096976</ele>
        <time>2024-05-03T07:23:51.541Z</time>
      </trkpt>
      <trkpt lat="49.14035" lon="1.18939">
        <ele>21.639052</ele>
        <time>2024-05-03T07:24:11.918Z</time>
      </trkpt>
      <trkpt lat="49.14034" lon="1.18917">
        <ele>21.742297</ele>
        <time>2024-05-03T07:24:16.026Z</time>
      </trkpt>
      <trkpt lat="49.1403" lon="1.18917">
        <ele>21.765264</ele>
        <time>2024-05-03T07:24:16.705Z</time>
      </trkpt>
      <trkpt lat="49.14027" lon="1.18871">
        <ele>21.985369</ele>
        <time>2024-05-03T07:24:23.572Z</time>
      </trkpt>
      <trkpt lat="49.14016" lon="1.18827">
        <ele>22.201506</ele>
        <time>2024-05-03T07:24:30.455Z</time>
      </trkpt>
      <trkpt lat="49.13992" lon="1.18767">
        <ele>23.23591</ele>
        <time>2024-05-03T07:24:42.088Z</time>
      </trkpt>
      <trkpt lat="49.1399" lon="1.18762">
        <ele>23.409548</ele>
        <time>2024-05-03T07:24:43.220Z</time>
      </trkpt>
      <trkpt lat="49.1398" lon="1.18735">
        <ele>24.21531</ele>
        <time>2024-05-03T07:24:49.502Z</time>
      </trkpt>
      <trkpt lat="49.13967" lon="1.18669">
        <ele>26.024699</ele>
        <time>2024-05-03T07:25:06.115Z</time>
      </trkpt>
      <trkpt lat="49.13959" lon="1.18626">
        <ele>27.186949</ele>
        <time>2024-05-03T07:25:18.750Z</time>
      </trkpt>
      <trkpt lat="49.13951" lon="1.1855">
        <ele>29.206148</ele>
        <time>2024-05-03T07:25:43.138Z</time>
      </trkpt>
      <trkpt lat="49.13941" lon="1.18507">
        <ele>30.884644</ele>
        <time>2024-05-03T07:25:58.111Z</time>
      </trkpt>
      <trkpt lat="49.13925" lon="1.18472">
        <ele>32.608002</ele>
        <time>2024-05-03T07:26:12.283Z</time>
      </trkpt>
      <trkpt lat="49.13883" lon="1.18407">
        <ele>36.33681</ele>
        <time>2024-05-03T07:26:45.435Z</time>
      </trkpt>
      <trkpt lat="49.13848" lon="1.18363">
        <ele>39.180584</ele>
        <time>2024-05-03T07:27:10.282Z</time>
      </trkpt>
      <trkpt lat="49.13848" lon="1.18363">
        <ele>39.180584</ele>
        <time>2024-05-03T07:27:10.404Z</time>
      </trkpt>
      <trkpt lat="49.13848" lon="1.18363">
        <ele>39.180584</ele>
        <time>2024-05-03T07:27:10.404Z</time>
      </trkpt>
      <trkpt lat="49.13846" lon="1.18367">
        <ele>39.432385</ele>
        <time>2024-05-03T07:27:12.130Z</time>
      </trkpt>
      <trkpt lat="49.13765" lon="1.18376">
        <ele>43.598141</ele>
        <time>2024-05-03T07:27:46.904Z</time>
      </trkpt>
      <trkpt lat="49.13684" lon="1.18385">
        <ele>47.406854</ele>
        <time>2024-05-03T07:28:21.616Z</time>
      </trkpt>
      <trkpt lat="49.13603" lon="1.18394">
        <ele>50.961254</ele>
        <time>2024-05-03T07:28:56.373Z</time>
      </trkpt>
      <trkpt lat="49.13521" lon="1.18361">
        <ele>54.410457</ele>
        <time>2024-05-03T07:29:32.692Z</time>
      </trkpt>
      <trkpt lat="49.13439" lon="1.18328">
        <ele>57.431881</ele>
        <time>2024-05-03T07:30:08.961Z</time>
      </trkpt>
      <trkpt lat="49.13434" lon="1.18319">
        <ele>57.63941</ele>
        <time>2024-05-03T07:30:12.266Z</time>
      </trkpt>
      <trkpt lat="49.13334" lon="1.18418">
        <ele>60.861263</ele>
        <time>2024-05-03T07:30:51.741Z</time>
      </trkpt>
      <trkpt lat="49.13309" lon="1.18429">
        <ele>61.491372</ele>
        <time>2024-05-03T07:30:59.994Z</time>
      </trkpt>
      <trkpt lat="49.13287" lon="1.18429">
        <ele>61.728153</ele>
        <time>2024-05-03T07:31:05.646Z</time>
      </trkpt>
      <trkpt lat="49.13261" lon="1.18408">
        <ele>62.045482</ele>
        <time>2024-05-03T07:31:13.285Z</time>
      </trkpt>
      <trkpt lat="49.13239" lon="1.18378">
        <ele>62.362178</ele>
        <time>2024-05-03T07:31:20.881Z</time>
      </trkpt>
      <trkpt lat="49.13234" lon="1.18333">
        <ele>62.687731</ele>
        <time>2024-05-03T07:31:28.440Z</time>
      </trkpt>
      <trkpt lat="49.13229" lon="1.18268">
        <ele>63.151893</ele>
        <time>2024-05-03T07:31:38.432Z</time>
      </trkpt>
      <trkpt lat="49.13227" lon="1.18238">
        <ele>63.366155</ele>
        <time>2024-05-03T07:31:42.789Z</time>
      </trkpt>
      <trkpt lat="49.13221" lon="1.18163">
        <ele>63.933679</ele>
        <time>2024-05-03T07:31:53.429Z</time>
      </trkpt>
      <trkpt lat="49.13203" lon="1.17969">
        <ele>65.400895</ele>
        <time>2024-05-03T07:32:24.136Z</time>
      </trkpt>
      <trkpt lat="49.13205" lon="1.178">
        <ele>69.763277</ele>
        <time>2024-05-03T07:33:03.511Z</time>
      </trkpt>
      <trkpt lat="49.13224" lon="1.17624">
        <ele>75.58093</ele>
        <time>2024-05-03T07:34:01.948Z</time>
      </trkpt>
      <trkpt lat="49.13232" lon="1.17507">
        <ele>80.610301</ele>
        <time>2024-05-03T07:34:45.133Z</time>
      </trkpt>
      <trkpt lat="49.13227" lon="1.17468">
        <ele>82.338189</ele>
        <time>2024-05-03T07:35:00.227Z</time>
      </trkpt>
      <trkpt lat="49.13211" lon="1.17405">
        <ele>84.934058</ele>
        <time>2024-05-03T07:35:23.499Z</time>
      </trkpt>
      <trkpt lat="49.13161" lon="1.1728">
        <ele>88.58547</ele>
        <time>2024-05-03T07:36:05.904Z</time>
      </trkpt>
      <trkpt lat="49.13182" lon="1.17256">
        <ele>89.590945</ele>
        <time>2024-05-03T07:36:18.047Z</time>
      </trkpt>
      <trkpt lat="49.13194" lon="1.17224">
        <ele>90.504794</ele>
        <time>2024-05-03T07:36:28.431Z</time>
      </trkpt>
      <trkpt lat="49.13218" lon="1.17126">
        <ele>91.149675</ele>
        <time>2024-05-03T07:36:53.700Z</time>
      </trkpt>
      <trkpt lat="49.13231" lon="1.1703">
        <ele>90.856413</ele>
        <time>2024-05-03T07:37:12.082Z</time>
      </trkpt>
      <trkpt lat="49.13239" lon="1.16919">
        <ele>90.511307</ele>
        <time>2024-05-03T07:37:33.026Z</time>
      </trkpt>
      <trkpt lat="49.13244" lon="1.16825">
        <ele>90.072173</ele>
        <time>2024-05-03T07:37:51.126Z</time>
      </trkpt>
      <trkpt lat="49.13239" lon="1.16636">
        <ele>89.169574</ele>
        <time>2024-05-03T07:38:28.859Z</time>
      </trkpt>
      <trkpt lat="49.13246" lon="1.16471">
        <ele>88.082423</ele>
        <time>2024-05-03T07:39:01.062Z</time>
      </trkpt>
      <trkpt lat="49.13287" lon="1.16513">
        <ele>87.58756</ele>
        <time>2024-05-03T07:39:14.916Z</time>
      </trkpt>
      <trkpt lat="49.1335" lon="1.16612">
        <ele>86.344272</ele>
        <time>2024-05-03T07:39:40.272Z</time>
      </trkpt>
      <trkpt lat="49.13365" lon="1.16635">
        <ele>86.03974</ele>
        <time>2024-05-03T07:39:46.024Z</time>
      </trkpt>
      <trkpt lat="49.13364" lon="1.16687">
        <ele>85.541551</ele>
        <time>2024-05-03T07:39:55.688Z</time>
      </trkpt>
      <trkpt lat="49.13373" lon="1.16727">
        <ele>85.139592</ele>
        <time>2024-05-03T07:40:03.780Z</time>
      </trkpt>
      <trkpt lat="49.13384" lon="1.16789">
        <ele>84.584747</ele>
        <time>2024-05-03T07:40:16.086Z</time>
      </trkpt>
      <trkpt lat="49.13416" lon="1.16857">
        <ele>83.914923</ele>
        <time>2024-05-03T07:40:32.423Z</time>
      </trkpt>
      <trkpt lat="49.13435" lon="1.16913">
        <ele>83.416508</ele>
        <time>2024-05-03T07:40:44.228Z</time>
      </trkpt>
      <trkpt lat="49.13439" lon="1.16955">
        <ele>83.075735</ele>
        <time>2024-05-03T07:40:52.130Z</time>
      </trkpt>
      <trkpt lat="49.13439" lon="1.16989">
        <ele>82.811502</ele>
        <time>2024-05-03T07:40:58.280Z</time>
      </trkpt>
      <trkpt lat="49.13448" lon="1.17014">
        <ele>82.577388</ele>
        <time>2024-05-03T07:41:03.662Z</time>
      </trkpt>
      <trkpt lat="49.13505" lon="1.17083">
        <ele>81.697355</ele>
        <time>2024-05-03T07:41:24.034Z</time>
      </trkpt>
      <trkpt lat="49.13595" lon="1.17159">
        <ele>80.474667</ele>
        <time>2024-05-03T07:41:53.927Z</time>
      </trkpt>
      <trkpt lat="49.13615" lon="1.17234">
        <ele>80.324763</ele>
        <time>2024-05-03T07:42:10.210Z</time>
      </trkpt>
      <trkpt lat="49.13659" lon="1.17325">
        <ele>80.116704</ele>
        <time>2024-05-03T07:42:33.410Z</time>
      </trkpt>
      <trkpt lat="49.13704" lon="1.17321">
        <ele>79.989944</ele>
        <time>2024-05-03T07:42:47.656Z</time>
      </trkpt>
      <trkpt lat="49.13787" lon="1.17299">
        <ele>79.742929</ele>
        <time>2024-05-03T07:43:14.085Z</time>
      </trkpt>
      <trkpt lat="49.13847" lon="1.17269">
        <ele>79.556109</ele>
        <time>2024-05-03T07:43:33.585Z</time>
      </trkpt>
      <trkpt lat="49.13911" lon="1.17174">
        <ele>79.358908</ele>
        <time>2024-05-03T07:44:00.689Z</time>
      </trkpt>
      <trkpt lat="49.14028" lon="1.17085">
        <ele>79.154203</ele>
        <time>2024-05-03T07:44:41.842Z</time>
      </trkpt>
      <trkpt lat="49.14084" lon="1.17053">
        <ele>79.375633</ele>
        <time>2024-05-03T07:45:02.202Z</time>
      </trkpt>
      <trkpt lat="49.14116" lon="1.17046">
        <ele>79.493435</ele>
        <time>2024-05-03T07:45:13.331Z</time>
      </trkpt>
      <trkpt lat="49.14189" lon="1.17056">
        <ele>79.763713</ele>
        <time>2024-05-03T07:45:38.335Z</time>
      </trkpt>
      <trkpt lat="49.14214" lon="1.17065">
        <ele>79.795146</ele>
        <time>2024-05-03T07:45:47.104Z</time>
      </trkpt>
      <trkpt lat="49.14242" lon="1.17107">
        <ele>79.755376</ele>
        <time>2024-05-03T07:46:00.001Z</time>
      </trkpt>
      <trkpt lat="49.14341" lon="1.17185">
        <ele>79.641403</ele>
        <time>2024-05-03T07:46:34.960Z</time>
      </trkpt>
      <trkpt lat="49.14436" lon="1.17211">
        <ele>78.857896</ele>
        <time>2024-05-03T07:47:03.454Z</time>
      </trkpt>
      <trkpt lat="49.1453" lon="1.17258">
        <ele>77.919385</ele>
        <time>2024-05-03T07:47:32.483Z</time>
      </trkpt>
      <trkpt lat="49.14681" lon="1.1729">
        <ele>74.786808</ele>
        <time>2024-05-03T07:48:14.882Z</time>
      </trkpt>
      <trkpt lat="49.14719" lon="1.17316">
        <ele>73.464267</ele>
        <time>2024-05-03T07:48:25.815Z</time>
      </trkpt>
      <trkpt lat="49.1479" lon="1.17318">
        <ele>69.813784</ele>
        <time>2024-05-03T07:48:43.073Z</time>
      </trkpt>
      <trkpt lat="49.14867" lon="1.1735">
        <ele>65.706811</ele>
        <time>2024-05-03T07:49:01.664Z</time>
      </trkpt>
      <trkpt lat="49.14884" lon="1.17351">
        <ele>64.751427</ele>
        <time>2024-05-03T07:49:05.705Z</time>
      </trkpt>
      <trkpt lat="49.14892" lon="1.17355">
        <ele>64.171365</ele>
        <time>2024-05-03T07:49:07.553Z</time>
      </trkpt>
      <trkpt lat="49.14918" lon="1.1739">
        <ele>61.727593</ele>
        <time>2024-05-03T07:49:15.393Z</time>
      </trkpt>
      <trkpt lat="49.1496" lon="1.1746">
        <ele>57.333733</ele>
        <time>2024-05-03T07:49:29.429Z</time>
      </trkpt>
      <trkpt lat="49.15039" lon="1.17529">
        <ele>51.026291</ele>
        <time>2024-05-03T07:49:49.969Z</time>
      </trkpt>
      <trkpt lat="49.15187" lon="1.1763">
        <ele>40.495471</ele>
        <time>2024-05-03T07:50:27.458Z</time>
      </trkpt>
      <trkpt lat="49.15195" lon="1.17632">
        <ele>40.102616</ele>
        <time>2024-05-03T07:50:29.442Z</time>
      </trkpt>
      <trkpt lat="49.15232" lon="1.17624">
        <ele>38.355206</ele>
        <time>2024-05-03T07:50:38.199Z</time>
      </trkpt>
      <trkpt lat="49.15242" lon="1.17627">
        <ele>37.888554</ele>
        <time>2024-05-03T07:50:40.549Z</time>
      </trkpt>
      <trkpt lat="49.15255" lon="1.17619">
        <ele>37.226349</ele>
        <time>2024-05-03T07:50:42.550Z</time>
      </trkpt>
      <trkpt lat="49.15323" lon="1.1761">
        <ele>34.018153</ele>
        <time>2024-05-03T07:50:52.347Z</time>
      </trkpt>
      <trkpt lat="49.15361" lon="1.17611">
        <ele>32.255147</ele>
        <time>2024-05-03T07:50:57.990Z</time>
      </trkpt>
      <trkpt lat="49.15377" lon="1.17624">
        <ele>32.071903</ele>
        <time>2024-05-03T07:51:00.867Z</time>
      </trkpt>
      <trkpt lat="49.15383" lon="1.17632">
        <ele>32.062272</ele>
        <time>2024-05-03T07:51:02.124Z</time>
      </trkpt>
      <trkpt lat="49.15384" lon="1.17593">
        <ele>32.031349</ele>
        <time>2024-05-03T07:51:06.430Z</time>
      </trkpt>
      <trkpt lat="49.1538" lon="1.17558">
        <ele>32.003101</ele>
        <time>2024-05-03T07:51:10.553Z</time>
      </trkpt>
      <trkpt lat="49.15374" lon="1.17522">
        <ele>31.974002</ele>
        <time>2024-05-03T07:51:15.084Z</time>
      </trkpt>
      <trkpt lat="49.15367" lon="1.17505">
        <ele>31.958007</ele>
        <time>2024-05-03T07:51:17.867Z</time>
      </trkpt>
      <trkpt lat="49.15365" lon="1.17499">
        <ele>31.952674</ele>
        <time>2024-05-03T07:51:18.837Z</time>
      </trkpt>
      <trkpt lat="49.1528" lon="1.1734">
        <ele>33.081253</ele>
        <time>2024-05-03T07:52:02.382Z</time>
      </trkpt>
      <trkpt lat="49.15243" lon="1.17293">
        <ele>33.950701</ele>
        <time>2024-05-03T07:52:18.940Z</time>
      </trkpt>
      <trkpt lat="49.15176" lon="1.1722">
        <ele>34.591117</ele>
        <time>2024-05-03T07:52:39.212Z</time>
      </trkpt>
      <trkpt lat="49.15171" lon="1.17207">
        <ele>34.338247</ele>
        <time>2024-05-03T07:52:41.005Z</time>
      </trkpt>
      <trkpt lat="49.15171" lon="1.1719">
        <ele>34.055007</ele>
        <time>2024-05-03T07:52:42.989Z</time>
      </trkpt>
      <trkpt lat="49.15193" lon="1.17108">
        <ele>32.554078</ele>
        <time>2024-05-03T07:52:52.702Z</time>
      </trkpt>
      <trkpt lat="49.15186" lon="1.17075">
        <ele>31.982998</ele>
        <time>2024-05-03T07:52:56.041Z</time>
      </trkpt>
      <trkpt lat="49.15158" lon="1.16995">
        <ele>30.452615</ele>
        <time>2024-05-03T07:53:04.475Z</time>
      </trkpt>
      <trkpt lat="49.15151" lon="1.16961">
        <ele>29.521571</ele>
        <time>2024-05-03T07:53:07.710Z</time>
      </trkpt>
      <trkpt lat="49.15153" lon="1.16955">
        <ele>29.358517</ele>
        <time>2024-05-03T07:53:08.277Z</time>
      </trkpt>
      <trkpt lat="49.15159" lon="1.16955">
        <ele>29.100324</ele>
        <time>2024-05-03T07:53:09.213Z</time>
      </trkpt>
      <trkpt lat="49.15195" lon="1.16952">
        <ele>27.691626</ele>
        <time>2024-05-03T07:53:14.255Z</time>
      </trkpt>
      <trkpt lat="49.15206" lon="1.16942">
        <ele>27.178393</ele>
        <time>2024-05-03T07:53:16.132Z</time>
      </trkpt>
      <trkpt lat="49.15229" lon="1.16872">
        <ele>25.142204</ele>
        <time>2024-05-03T07:53:23.742Z</time>
      </trkpt>
      <trkpt lat="49.1525" lon="1.1681">
        <ele>23.318489</ele>
        <time>2024-05-03T07:53:30.905Z</time>
      </trkpt>
      <trkpt lat="49.15258" lon="1.16793">
        <ele>23.157319</ele>
        <time>2024-05-03T07:53:33.081Z</time>
      </trkpt>
      <trkpt lat="49.15267" lon="1.16784">
        <ele>23.04098</ele>
        <time>2024-05-03T07:53:34.795Z</time>
      </trkpt>
      <trkpt lat="49.15266" lon="1.16747">
        <ele>22.780089</ele>
        <time>2024-05-03T07:53:38.514Z</time>
      </trkpt>
      <trkpt lat="49.15275" lon="1.16672">
        <ele>22.236049</ele>
        <time>2024-05-03T07:53:46.717Z</time>
      </trkpt>
      <trkpt lat="49.15276" lon="1.16609">
        <ele>21.782429</ele>
        <time>2024-05-03T07:53:54.420Z</time>
      </trkpt>
      <trkpt lat="49.15296" lon="1.16491">
        <ele>21.461346</ele>
        <time>2024-05-03T07:54:09.608Z</time>
      </trkpt>
      <trkpt lat="49.15303" lon="1.16377">
        <ele>21.70218</ele>
        <time>2024-05-03T07:54:25.079Z</time>
      </trkpt>
      <trkpt lat="49.15308" lon="1.16331">
        <ele>21.801095</ele>
        <time>2024-05-03T07:54:31.879Z</time>
      </trkpt>
      <trkpt lat="49.15318" lon="1.16314">
        <ele>21.848785</ele>
        <time>2024-05-03T07:54:36.074Z</time>
      </trkpt>
      <trkpt lat="49.15323" lon="1.16292">
        <ele>21.896048</ele>
        <time>2024-05-03T07:54:40.300Z</time>
      </trkpt>
      <trkpt lat="49.15323" lon="1.16274">
        <ele>21.957021</ele>
        <time>2024-05-03T07:54:43.718Z</time>
      </trkpt>
      <trkpt lat="49.15316" lon="1.16266">
        <ele>22.012889</ele>
        <time>2024-05-03T07:54:46.152Z</time>
      </trkpt>
      <trkpt lat="49.15319" lon="1.16225">
        <ele>22.193175</ele>
        <time>2024-05-03T07:54:52.175Z</time>
      </trkpt>
      <trkpt lat="49.15318" lon="1.16208">
        <ele>22.267477</ele>
        <time>2024-05-03T07:54:54.709Z</time>
      </trkpt>
      <trkpt lat="49.15313" lon="1.1619">
        <ele>22.354311</ele>
        <time>2024-05-03T07:54:57.670Z</time>
      </trkpt>
      <trkpt lat="49.15322" lon="1.1617">
        <ele>22.457679</ele>
        <time>2024-05-03T07:55:01.285Z</time>
      </trkpt>
      <trkpt lat="49.15319" lon="1.16063">
        <ele>22.922832</ele>
        <time>2024-05-03T07:55:18.172Z</time>
      </trkpt>
      <trkpt lat="49.15322" lon="1.1596">
        <ele>23.246815</ele>
        <time>2024-05-03T07:55:33.948Z</time>
      </trkpt>
      <trkpt lat="49.15319" lon="1.1587">
        <ele>23.454714</ele>
        <time>2024-05-03T07:55:46.591Z</time>
      </trkpt>
      <trkpt lat="49.15312" lon="1.158">
        <ele>23.616467</ele>
        <time>2024-05-03T07:55:56.458Z</time>
      </trkpt>
      <trkpt lat="49.15308" lon="1.15768">
        <ele>23.692114</ele>
        <time>2024-05-03T07:56:01.047Z</time>
      </trkpt>
      <trkpt lat="49.1531" lon="1.15753">
        <ele>23.728056</ele>
        <time>2024-05-03T07:56:03.299Z</time>
      </trkpt>
      <trkpt lat="49.15344" lon="1.15705">
        <ele>23.927786</ele>
        <time>2024-05-03T07:56:13.360Z</time>
      </trkpt>
      <trkpt lat="49.15367" lon="1.15658">
        <ele>24.097568</ele>
        <time>2024-05-03T07:56:21.585Z</time>
      </trkpt>
      <trkpt lat="49.15398" lon="1.1562">
        <ele>24.275537</ele>
        <time>2024-05-03T07:56:30.335Z</time>
      </trkpt>
      <trkpt lat="49.15406" lon="1.15601">
        <ele>24.339929</ele>
        <time>2024-05-03T07:56:33.531Z</time>
      </trkpt>
      <trkpt lat="49.15408" lon="1.15575">
        <ele>24.417998</ele>
        <time>2024-05-03T07:56:37.681Z</time>
      </trkpt>
      <trkpt lat="49.15414" lon="1.15566">
        <ele>24.453324</ele>
        <time>2024-05-03T07:56:39.627Z</time>
      </trkpt>
      <trkpt lat="49.15381" lon="1.15508">
        <ele>25.140135</ele>
        <time>2024-05-03T07:56:51.696Z</time>
      </trkpt>
      <trkpt lat="49.15361" lon="1.15465">
        <ele>25.800209</ele>
        <time>2024-05-03T07:57:00.360Z</time>
      </trkpt>
      <trkpt lat="49.15339" lon="1.15396">
        <ele>26.759953</ele>
        <time>2024-05-03T07:57:14.874Z</time>
      </trkpt>
      <trkpt lat="49.15326" lon="1.15326">
        <ele>27.674387</ele>
        <time>2024-05-03T07:57:30.744Z</time>
      </trkpt>
      <trkpt lat="49.15308" lon="1.15261">
        <ele>29.378914</ele>
        <time>2024-05-03T07:57:48.170Z</time>
      </trkpt>
      <trkpt lat="49.15336" lon="1.15242">
        <ele>30.782288</ele>
        <time>2024-05-03T07:58:00.308Z</time>
      </trkpt>
      <trkpt lat="49.1535" lon="1.15227">
        <ele>31.608292</ele>
        <time>2024-05-03T07:58:07.831Z</time>
      </trkpt>
      <trkpt lat="49.15355" lon="1.15203">
        <ele>32.373756</ele>
        <time>2024-05-03T07:58:14.798Z</time>
      </trkpt>
      <trkpt lat="49.15352" lon="1.15143">
        <ele>34.18872</ele>
        <time>2024-05-03T07:58:31.700Z</time>
      </trkpt>
      <trkpt lat="49.15337" lon="1.14986">
        <ele>41.511572</ele>
        <time>2024-05-03T07:59:21.876Z</time>
      </trkpt>
      <trkpt lat="49.15331" lon="1.14943">
        <ele>44.061477</ele>
        <time>2024-05-03T07:59:38.494Z</time>
      </trkpt>
      <trkpt lat="49.1531" lon="1.14871">
        <ele>48.697059</ele>
        <time>2024-05-03T08:00:13.744Z</time>
      </trkpt>
      <trkpt lat="49.15303" lon="1.14848">
        <ele>50.196785</ele>
        <time>2024-05-03T08:00:25.966Z</time>
      </trkpt>
      <trkpt lat="49.15301" lon="1.14734">
        <ele>59.807884</ele>
        <time>2024-05-03T08:01:38.898Z</time>
      </trkpt>
      <trkpt lat="49.1533" lon="1.14689">
        <ele>65.945772</ele>
        <time>2024-05-03T08:02:24.368Z</time>
      </trkpt>
      <trkpt lat="49.15459" lon="1.14623">
        <ele>85.234287</ele>
        <time>2024-05-03T08:04:59.710Z</time>
      </trkpt>
      <trkpt lat="49.15483" lon="1.14357">
        <ele>105.099814</ele>
        <time>2024-05-03T08:07:35.977Z</time>
      </trkpt>
      <trkpt lat="49.15527" lon="1.14211">
        <ele>112.499295</ele>
        <time>2024-05-03T08:08:42.158Z</time>
      </trkpt>
      <trkpt lat="49.15613" lon="1.14115">
        <ele>116.943078</ele>
        <time>2024-05-03T08:09:35.627Z</time>
      </trkpt>
      <trkpt lat="49.15724" lon="1.1404">
        <ele>120.380705</ele>
        <time>2024-05-03T08:10:27.052Z</time>
      </trkpt>
      <trkpt lat="49.15774" lon="1.14159">
        <ele>122.468795</ele>
        <time>2024-05-03T08:11:07.517Z</time>
      </trkpt>
      <trkpt lat="49.15782" lon="1.14169">
        <ele>122.707453</ele>
        <time>2024-05-03T08:11:12.074Z</time>
      </trkpt>
      <trkpt lat="49.15808" lon="1.14204">
        <ele>123.491529</ele>
        <time>2024-05-03T08:11:27.233Z</time>
      </trkpt>
      <trkpt lat="49.15873" lon="1.14281">
        <ele>124.729447</ele>
        <time>2024-05-03T08:12:01.471Z</time>
      </trkpt>
      <trkpt lat="49.15911" lon="1.14338">
        <ele>125.346226</ele>
        <time>2024-05-03T08:12:22.135Z</time>
      </trkpt>
      <trkpt lat="49.15931" lon="1.14443">
        <ele>126.164627</ele>
        <time>2024-05-03T08:12:46.605Z</time>
      </trkpt>
      <trkpt lat="49.15938" lon="1.14443">
        <ele>126.112244</ele>
        <time>2024-05-03T08:12:48.812Z</time>
      </trkpt>
      <trkpt lat="49.15941" lon="1.14531">
        <ele>125.673998</ele>
        <time>2024-05-03T08:13:06.569Z</time>
      </trkpt>
      <trkpt lat="49.15947" lon="1.14578">
        <ele>125.4361</ele>
        <time>2024-05-03T08:13:15.918Z</time>
      </trkpt>
      <trkpt lat="49.1595" lon="1.14621">
        <ele>125.2208</ele>
        <time>2024-05-03T08:13:24.277Z</time>
      </trkpt>
      <trkpt lat="49.15972" lon="1.14921">
        <ele>122.465488</ele>
        <time>2024-05-03T08:14:20.189Z</time>
      </trkpt>
      <trkpt lat="49.15952" lon="1.14974">
        <ele>121.777556</ele>
        <time>2024-05-03T08:14:31.047Z</time>
      </trkpt>
      <trkpt lat="49.15959" lon="1.1504">
        <ele>120.483398</ele>
        <time>2024-05-03T08:14:42.786Z</time>
      </trkpt>
      <trkpt lat="49.15992" lon="1.15192">
        <ele>117.393554</ele>
        <time>2024-05-03T08:15:09.994Z</time>
      </trkpt>
      <trkpt lat="49.15999" lon="1.1521">
        <ele>116.986751</ele>
        <time>2024-05-03T08:15:13.474Z</time>
      </trkpt>
      <trkpt lat="49.1601" lon="1.15216">
        <ele>116.64321</ele>
        <time>2024-05-03T08:15:16.425Z</time>
      </trkpt>
      <trkpt lat="49.15989" lon="1.15339">
        <ele>112.603156</ele>
        <time>2024-05-03T08:15:36.891Z</time>
      </trkpt>
      <trkpt lat="49.15954" lon="1.15452">
        <ele>108.513452</ele>
        <time>2024-05-03T08:15:56.494Z</time>
      </trkpt>
      <trkpt lat="49.15897" lon="1.1571">
        <ele>96.991152</ele>
        <time>2024-05-03T08:16:37.181Z</time>
      </trkpt>
      <trkpt lat="49.15894" lon="1.15847">
        <ele>92.049604</ele>
        <time>2024-05-03T08:16:57.797Z</time>
      </trkpt>
      <trkpt lat="49.15894" lon="1.15865">
        <ele>91.445138</ele>
        <time>2024-05-03T08:17:00.512Z</time>
      </trkpt>
      <trkpt lat="49.15962" lon="1.16238">
        <ele>81.025437</ele>
        <time>2024-05-03T08:18:03.753Z</time>
      </trkpt>
      <trkpt lat="49.16027" lon="1.16384">
        <ele>79.456379</ele>
        <time>2024-05-03T08:18:37.241Z</time>
      </trkpt>
      <trkpt lat="49.16057" lon="1.16532">
        <ele>78.723479</ele>
        <time>2024-05-03T08:19:09.591Z</time>
      </trkpt>
      <trkpt lat="49.16094" lon="1.16609">
        <ele>78.440146</ele>
        <time>2024-05-03T08:19:29.226Z</time>
      </trkpt>
      <trkpt lat="49.16139" lon="1.16689">
        <ele>78.130732</ele>
        <time>2024-05-03T08:19:50.137Z</time>
      </trkpt>
      <trkpt lat="49.16253" lon="1.16766">
        <ele>76.828331</ele>
        <time>2024-05-03T08:20:26.705Z</time>
      </trkpt>
      <trkpt lat="49.16372" lon="1.16882">
        <ele>74.785248</ele>
        <time>2024-05-03T08:21:06.123Z</time>
      </trkpt>
      <trkpt lat="49.16408" lon="1.16904">
        <ele>74.104509</ele>
        <time>2024-05-03T08:21:16.708Z</time>
      </trkpt>
      <trkpt lat="49.16478" lon="1.16915">
        <ele>72.858708</ele>
        <time>2024-05-03T08:21:36.217Z</time>
      </trkpt>
      <trkpt lat="49.16521" lon="1.16922">
        <ele>72.319431</ele>
        <time>2024-05-03T08:21:48.455Z</time>
      </trkpt>
      <trkpt lat="49.16536" lon="1.16913">
        <ele>72.205984</ele>
        <time>2024-05-03T08:21:52.989Z</time>
      </trkpt>
      <trkpt lat="49.1657" lon="1.1689">
        <ele>71.948085</ele>
        <time>2024-05-03T08:22:03.748Z</time>
      </trkpt>
      <trkpt lat="49.16612" lon="1.16831">
        <ele>71.546267</ele>
        <time>2024-05-03T08:22:21.065Z</time>
      </trkpt>
      <trkpt lat="49.16677" lon="1.16749">
        <ele>71.178703</ele>
        <time>2024-05-03T08:22:47.776Z</time>
      </trkpt>
      <trkpt lat="49.1671" lon="1.16725">
        <ele>71.157145</ele>
        <time>2024-05-03T08:23:00.750Z</time>
      </trkpt>
      <trkpt lat="49.16781" lon="1.16706">
        <ele>71.115049</ele>
        <time>2024-05-03T08:23:26.457Z</time>
      </trkpt>
      <trkpt lat="49.16847" lon="1.1667">
        <ele>69.776538</ele>
        <time>2024-05-03T08:23:46.453Z</time>
      </trkpt>
      <trkpt lat="49.16901" lon="1.16617">
        <ele>67.294364</ele>
        <time>2024-05-03T08:24:02.960Z</time>
      </trkpt>
      <trkpt lat="49.1693" lon="1.16716">
        <ele>64.560429</ele>
        <time>2024-05-03T08:24:12.436Z</time>
      </trkpt>
      <trkpt lat="49.16945" lon="1.16781">
        <ele>61.126648</ele>
        <time>2024-05-03T08:24:18.226Z</time>
      </trkpt>
      <trkpt lat="49.16964" lon="1.16829">
        <ele>57.992233</ele>
        <time>2024-05-03T08:24:22.685Z</time>
      </trkpt>
      <trkpt lat="49.16987" lon="1.16865">
        <ele>55.18605</ele>
        <time>2024-05-03T08:24:26.547Z</time>
      </trkpt>
      <trkpt lat="49.1702" lon="1.16924">
        <ele>50.769608</ele>
        <time>2024-05-03T08:24:32.606Z</time>
      </trkpt>
      <trkpt lat="49.17037" lon="1.1697">
        <ele>47.821364</ele>
        <time>2024-05-03T08:24:36.830Z</time>
      </trkpt>
      <trkpt lat="49.17048" lon="1.17015">
        <ele>45.378418</ele>
        <time>2024-05-03T08:24:40.635Z</time>
      </trkpt>
      <trkpt lat="49.17054" lon="1.17042">
        <ele>43.890233</ele>
        <time>2024-05-03T08:24:42.962Z</time>
      </trkpt>
      <trkpt lat="49.17068" lon="1.17106">
        <ele>40.374268</ele>
        <time>2024-05-03T08:24:48.433Z</time>
      </trkpt>
      <trkpt lat="49.17097" lon="1.17241">
        <ele>33.505468</ele>
        <time>2024-05-03T08:25:00.046Z</time>
      </trkpt>
      <trkpt lat="49.171" lon="1.17252">
        <ele>33.124354</ele>
        <time>2024-05-03T08:25:01.007Z</time>
      </trkpt>
      <trkpt lat="49.17115" lon="1.17305">
        <ele>31.259273</ele>
        <time>2024-05-03T08:25:05.947Z</time>
      </trkpt>
      <trkpt lat="49.17155" lon="1.17413">
        <ele>27.232126</ele>
        <time>2024-05-03T08:25:17.341Z</time>
      </trkpt>
      <trkpt lat="49.17196" lon="1.17534">
        <ele>23.899656</ele>
        <time>2024-05-03T08:25:29.430Z</time>
      </trkpt>
      <trkpt lat="49.17203" lon="1.17556">
        <ele>23.427047</ele>
        <time>2024-05-03T08:25:31.678Z</time>
      </trkpt>
      <trkpt lat="49.17222" lon="1.17616">
        <ele>22.149085</ele>
        <time>2024-05-03T08:25:38.030Z</time>
      </trkpt>
      <trkpt lat="49.17249" lon="1.177">
        <ele>20.352841</ele>
        <time>2024-05-03T08:25:47.518Z</time>
      </trkpt>
      <trkpt lat="49.17279" lon="1.17793">
        <ele>19.674907</ele>
        <time>2024-05-03T08:25:58.604Z</time>
      </trkpt>
      <trkpt lat="49.17293" lon="1.1785">
        <ele>19.357962</ele>
        <time>2024-05-03T08:26:05.491Z</time>
      </trkpt>
      <trkpt lat="49.17299" lon="1.17893">
        <ele>19.127496</ele>
        <time>2024-05-03T08:26:10.705Z</time>
      </trkpt>
      <trkpt lat="49.17303" lon="1.17921">
        <ele>18.98033</ele>
        <time>2024-05-03T08:26:14.177Z</time>
      </trkpt>
      <trkpt lat="49.17312" lon="1.17998">
        <ele>18.761741</ele>
        <time>2024-05-03T08:26:23.888Z</time>
      </trkpt>
      <trkpt lat="49.1731" lon="1.18052">
        <ele>18.815732</ele>
        <time>2024-05-03T08:26:30.637Z</time>
      </trkpt>
      <trkpt lat="49.17291" lon="1.18148">
        <ele>18.916875</ele>
        <time>2024-05-03T08:26:43.594Z</time>
      </trkpt>
      <trkpt lat="49.1729" lon="1.18155">
        <ele>18.923851</ele>
        <time>2024-05-03T08:26:44.484Z</time>
      </trkpt>
      <trkpt lat="49.17265" lon="1.18292">
        <ele>19.105453</ele>
        <time>2024-05-03T08:27:04.899Z</time>
      </trkpt>
      <trkpt lat="49.17262" lon="1.18325">
        <ele>19.1591</ele>
        <time>2024-05-03T08:27:09.365Z</time>
      </trkpt>
      <trkpt lat="49.17263" lon="1.1838">
        <ele>19.2505</ele>
        <time>2024-05-03T08:27:17.061Z</time>
      </trkpt>
      <trkpt lat="49.17267" lon="1.18417">
        <ele>19.312108</ele>
        <time>2024-05-03T08:27:22.346Z</time>
      </trkpt>
      <trkpt lat="49.1727" lon="1.18447">
        <ele>19.36145</ele>
        <time>2024-05-03T08:27:26.025Z</time>
      </trkpt>
      <trkpt lat="49.17285" lon="1.18546">
        <ele>19.757655</ele>
        <time>2024-05-03T08:27:38.461Z</time>
      </trkpt>
      <trkpt lat="49.17289" lon="1.18565">
        <ele>19.896623</ele>
        <time>2024-05-03T08:27:40.894Z</time>
      </trkpt>
      <trkpt lat="49.17298" lon="1.18588">
        <ele>20.083171</ele>
        <time>2024-05-03T08:27:44.016Z</time>
      </trkpt>
      <trkpt lat="49.17318" lon="1.18612">
        <ele>20.360562</ele>
        <time>2024-05-03T08:27:48.862Z</time>
      </trkpt>
      <trkpt lat="49.17355" lon="1.18671">
        <ele>20.932641</ele>
        <time>2024-05-03T08:28:00.616Z</time>
      </trkpt>
      <trkpt lat="49.17371" lon="1.18705">
        <ele>21.229283</ele>
        <time>2024-05-03T08:28:09.155Z</time>
      </trkpt>
      <trkpt lat="49.17396" lon="1.18776">
        <ele>23.861043</ele>
        <time>2024-05-03T08:28:29.829Z</time>
      </trkpt>
      <trkpt lat="49.17401" lon="1.18794">
        <ele>24.708573</ele>
        <time>2024-05-03T08:28:35.913Z</time>
      </trkpt>
      <trkpt lat="49.17394" lon="1.188">
        <ele>25.274238</ele>
        <time>2024-05-03T08:28:39.719Z</time>
      </trkpt>
      <trkpt lat="49.1739" lon="1.18821">
        <ele>26.207169</ele>
        <time>2024-05-03T08:28:46.525Z</time>
      </trkpt>
      <trkpt lat="49.17378" lon="1.1889">
        <ele>29.311179</ele>
        <time>2024-05-03T08:29:12.345Z</time>
      </trkpt>
      <trkpt lat="49.17376" lon="1.18918">
        <ele>30.535085</ele>
        <time>2024-05-03T08:29:23.513Z</time>
      </trkpt>
      <trkpt lat="49.17374" lon="1.19018">
        <ele>35.353776</ele>
        <time>2024-05-03T08:30:06.940Z</time>
      </trkpt>
      <trkpt lat="49.17383" lon="1.1917">
        <ele>43.908968</ele>
        <time>2024-05-03T08:31:14.133Z</time>
      </trkpt>
      <trkpt lat="49.17382" lon="1.19201">
        <ele>45.649986</ele>
        <time>2024-05-03T08:31:26.749Z</time>
      </trkpt>
      <trkpt lat="49.17376" lon="1.19227">
        <ele>47.199096</ele>
        <time>2024-05-03T08:31:36.457Z</time>
      </trkpt>
      <trkpt lat="49.17356" lon="1.19265">
        <ele>49.403525</ele>
        <time>2024-05-03T08:31:52.857Z</time>
      </trkpt>
      <trkpt lat="49.17318" lon="1.19335">
        <ele>52.183267</ele>
        <time>2024-05-03T08:32:20.686Z</time>
      </trkpt>
      <trkpt lat="49.17279" lon="1.1941">
        <ele>55.128144</ele>
        <time>2024-05-03T08:32:52.967Z</time>
      </trkpt>
      <trkpt lat="49.1726" lon="1.19502">
        <ele>57.763423</ele>
        <time>2024-05-03T08:33:24.846Z</time>
      </trkpt>
      <trkpt lat="49.1725" lon="1.19589">
        <ele>59.503232</ele>
        <time>2024-05-03T08:33:50.913Z</time>
      </trkpt>
      <trkpt lat="49.1725" lon="1.19682">
        <ele>61.323042</ele>
        <time>2024-05-03T08:34:18.115Z</time>
      </trkpt>
      <trkpt lat="49.1726" lon="1.1975">
        <ele>62.712957</ele>
        <time>2024-05-03T08:34:39.780Z</time>
      </trkpt>
      <trkpt lat="49.17287" lon="1.19809">
        <ele>64.407837</ele>
        <time>2024-05-03T08:35:02.493Z</time>
      </trkpt>
      <trkpt lat="49.1732" lon="1.19849">
        <ele>65.946946</ele>
        <time>2024-05-03T08:35:23.159Z</time>
      </trkpt>
      <trkpt lat="49.17389" lon="1.19922">
        <ele>68.977133</ele>
        <time>2024-05-03T08:36:04.367Z</time>
      </trkpt>
      <trkpt lat="49.17406" lon="1.19961">
        <ele>71.013115</ele>
        <time>2024-05-03T08:36:21.497Z</time>
      </trkpt>
      <trkpt lat="49.17418" lon="1.20001">
        <ele>73.065836</ele>
        <time>2024-05-03T08:36:38.818Z</time>
      </trkpt>
      <trkpt lat="49.17428" lon="1.20048">
        <ele>75.346718</ele>
        <time>2024-05-03T08:36:59.558Z</time>
      </trkpt>
      <trkpt lat="49.17441" lon="1.20086">
        <ele>77.300816</ele>
        <time>2024-05-03T08:37:18.305Z</time>
      </trkpt>
      <trkpt lat="49.17503" lon="1.20159">
        <ele>83.400782</ele>
        <time>2024-05-03T08:38:18.607Z</time>
      </trkpt>
      <trkpt lat="49.17517" lon="1.2026">
        <ele>90.705</ele>
        <time>2024-05-03T08:39:17.812Z</time>
      </trkpt>
      <trkpt lat="49.17498" lon="1.20349">
        <ele>97.283574</ele>
        <time>2024-05-03T08:40:14.353Z</time>
      </trkpt>
      <trkpt lat="49.17433" lon="1.20471">
        <ele>106.3098</ele>
        <time>2024-05-03T08:41:38.989Z</time>
      </trkpt>
      <trkpt lat="49.17427" lon="1.20545">
        <ele>110.060749</ele>
        <time>2024-05-03T08:42:13.163Z</time>
      </trkpt>
      <trkpt lat="49.17388" lon="1.20527">
        <ele>113.13455</ele>
        <time>2024-05-03T08:42:38.091Z</time>
      </trkpt>
      <trkpt lat="49.17397" lon="1.20576">
        <ele>115.373918</ele>
        <time>2024-05-03T08:42:56.874Z</time>
      </trkpt>
      <trkpt lat="49.17446" lon="1.20658">
        <ele>117.99338</ele>
        <time>2024-05-03T08:43:32.856Z</time>
      </trkpt>
      <trkpt lat="49.17468" lon="1.20733">
        <ele>119.908048</ele>
        <time>2024-05-03T08:43:57.591Z</time>
      </trkpt>
      <trkpt lat="49.17458" lon="1.20795">
        <ele>121.402929</ele>
        <time>2024-05-03T08:44:17.427Z</time>
      </trkpt>
      <trkpt lat="49.1744" lon="1.2083">
        <ele>122.332546</ele>
        <time>2024-05-03T08:44:31.733Z</time>
      </trkpt>
      <trkpt lat="49.17437" lon="1.2108">
        <ele>127.333138</ele>
        <time>2024-05-03T08:45:50.096Z</time>
      </trkpt>
      <trkpt lat="49.17419" lon="1.2126">
        <ele>129.949312</ele>
        <time>2024-05-03T08:46:40.816Z</time>
      </trkpt>
      <trkpt lat="49.1737" lon="1.21408">
        <ele>131.866487</ele>
        <time>2024-05-03T08:47:24.635Z</time>
      </trkpt>
      <trkpt lat="49.17304" lon="1.21394">
        <ele>132.77836</ele>
        <time>2024-05-03T08:47:51.179Z</time>
      </trkpt>
      <trkpt lat="49.17161" lon="1.21422">
        <ele>133.934248</ele>
        <time>2024-05-03T08:48:41.972Z</time>
      </trkpt>
      <trkpt lat="49.17134" lon="1.21438">
        <ele>134.057117</ele>
        <time>2024-05-03T08:48:51.079Z</time>
      </trkpt>
      <trkpt lat="49.17082" lon="1.21467">
        <ele>134.291476</ele>
        <time>2024-05-03T08:49:09.041Z</time>
      </trkpt>
      <trkpt lat="49.17032" lon="1.21557">
        <ele>134.996999</ele>
        <time>2024-05-03T08:49:35.357Z</time>
      </trkpt>
      <trkpt lat="49.17084" lon="1.21727">
        <ele>136.292916</ele>
        <time>2024-05-03T08:50:22.136Z</time>
      </trkpt>
      <trkpt lat="49.17032" lon="1.21775">
        <ele>137.392539</ele>
        <time>2024-05-03T08:50:47.361Z</time>
      </trkpt>
      <trkpt lat="49.17002" lon="1.21912">
        <ele>139.092446</ele>
        <time>2024-05-03T08:51:26.062Z</time>
      </trkpt>
      <trkpt lat="49.17005" lon="1.22046">
        <ele>140.723962</ele>
        <time>2024-05-03T08:52:01.994Z</time>
      </trkpt>
      <trkpt lat="49.17059" lon="1.22152">
        <ele>142.390566</ele>
        <time>2024-05-03T08:52:39.245Z</time>
      </trkpt>
      <trkpt lat="49.1712" lon="1.22191">
        <ele>143.344321</ele>
        <time>2024-05-03T08:52:58.219Z</time>
      </trkpt>
      <trkpt lat="49.17198" lon="1.22257">
        <ele>144.49614</ele>
        <time>2024-05-03T08:53:21.225Z</time>
      </trkpt>
      <trkpt lat="49.17204" lon="1.22259">
        <ele>144.584178</ele>
        <time>2024-05-03T08:53:22.939Z</time>
      </trkpt>
      <trkpt lat="49.17259" lon="1.22222">
        <ele>145.271188</ele>
        <time>2024-05-03T08:53:37.814Z</time>
      </trkpt>
      <trkpt lat="49.1728" lon="1.22285">
        <ele>145.708787</ele>
        <time>2024-05-03T08:53:49.482Z</time>
      </trkpt>
      <trkpt lat="49.17288" lon="1.22315">
        <ele>145.905114</ele>
        <time>2024-05-03T08:53:54.617Z</time>
      </trkpt>
      <trkpt lat="49.17292" lon="1.2235">
        <ele>146.124458</ele>
        <time>2024-05-03T08:54:00.454Z</time>
      </trkpt>
      <trkpt lat="49.17293" lon="1.22382">
        <ele>146.320693</ele>
        <time>2024-05-03T08:54:05.638Z</time>
      </trkpt>
      <trkpt lat="49.17288" lon="1.22465">
        <ele>146.836085</ele>
        <time>2024-05-03T08:54:19.322Z</time>
      </trkpt>
      <trkpt lat="49.17283" lon="1.2251">
        <ele>147.117374</ele>
        <time>2024-05-03T08:54:26.810Z</time>
      </trkpt>
      <trkpt lat="49.17274" lon="1.22596">
        <ele>147.657731</ele>
        <time>2024-05-03T08:54:41.413Z</time>
      </trkpt>
      <trkpt lat="49.17272" lon="1.22618">
        <ele>147.793304</ele>
        <time>2024-05-03T08:54:44.947Z</time>
      </trkpt>
      <trkpt lat="49.17265" lon="1.22727">
        <ele>148.467813</ele>
        <time>2024-05-03T08:55:02.458Z</time>
      </trkpt>
      <trkpt lat="49.17259" lon="1.22767">
        <ele>148.642122</ele>
        <time>2024-05-03T08:55:08.827Z</time>
      </trkpt>
      <trkpt lat="49.17232" lon="1.23024">
        <ele>149.682868</ele>
        <time>2024-05-03T08:56:08.360Z</time>
      </trkpt>
      <trkpt lat="49.17242" lon="1.23207">
        <ele>150.017747</ele>
        <time>2024-05-03T08:56:48.754Z</time>
      </trkpt>
      <trkpt lat="49.17269" lon="1.23492">
        <ele>149.879443</ele>
        <time>2024-05-03T08:57:47.998Z</time>
      </trkpt>
      <trkpt lat="49.17358" lon="1.23984">
        <ele>147.882144</ele>
        <time>2024-05-03T08:59:29.719Z</time>
      </trkpt>
      <trkpt lat="49.1737" lon="1.24165">
        <ele>145.840488</ele>
        <time>2024-05-03T09:00:02.603Z</time>
      </trkpt>
      <trkpt lat="49.17387" lon="1.24582">
        <ele>139.444983</ele>
        <time>2024-05-03T09:01:14.511Z</time>
      </trkpt>
      <trkpt lat="49.17388" lon="1.24593">
        <ele>139.277801</ele>
        <time>2024-05-03T09:01:16.533Z</time>
      </trkpt>
      <trkpt lat="49.17214" lon="1.24777">
        <ele>137.842995</ele>
        <time>2024-05-03T09:02:21.623Z</time>
      </trkpt>
      <trkpt lat="49.17188" lon="1.24783">
        <ele>137.698767</ele>
        <time>2024-05-03T09:02:29.792Z</time>
      </trkpt>
      <trkpt lat="49.17106" lon="1.24747">
        <ele>137.217507</ele>
        <time>2024-05-03T09:02:56.129Z</time>
      </trkpt>
      <trkpt lat="49.17031" lon="1.2471">
        <ele>136.46508</ele>
        <time>2024-05-03T09:03:19.386Z</time>
      </trkpt>
      <trkpt lat="49.16862" lon="1.24739">
        <ele>133.420417</ele>
        <time>2024-05-03T09:04:05.804Z</time>
      </trkpt>
      <trkpt lat="49.16882" lon="1.24952">
        <ele>130.777611</ele>
        <time>2024-05-03T09:04:44.338Z</time>
      </trkpt>
      <trkpt lat="49.16879" lon="1.25013">
        <ele>130.120782</ele>
        <time>2024-05-03T09:04:55.556Z</time>
      </trkpt>
      <trkpt lat="49.16884" lon="1.25088">
        <ele>129.514723</ele>
        <time>2024-05-03T09:05:09.636Z</time>
      </trkpt>
      <trkpt lat="49.16894" lon="1.25161">
        <ele>128.917739</ele>
        <time>2024-05-03T09:05:24.012Z</time>
      </trkpt>
      <trkpt lat="49.16892" lon="1.25172">
        <ele>128.822194</ele>
        <time>2024-05-03T09:05:26.285Z</time>
      </trkpt>
      <trkpt lat="49.16884" lon="1.25181">
        <ele>128.700594</ele>
        <time>2024-05-03T09:05:29.089Z</time>
      </trkpt>
      <trkpt lat="49.16852" lon="1.25216">
        <ele>128.212544</ele>
        <time>2024-05-03T09:05:38.036Z</time>
      </trkpt>
      <trkpt lat="49.16817" lon="1.2523">
        <ele>127.703873</ele>
        <time>2024-05-03T09:05:46.088Z</time>
      </trkpt>
      <trkpt lat="49.16803" lon="1.25249">
        <ele>127.429042</ele>
        <time>2024-05-03T09:05:50.339Z</time>
      </trkpt>
      <trkpt lat="49.16828" lon="1.25273">
        <ele>126.995306</ele>
        <time>2024-05-03T09:05:55.116Z</time>
      </trkpt>
      <trkpt lat="49.16858" lon="1.253">
        <ele>126.479256</ele>
        <time>2024-05-03T09:06:00.737Z</time>
      </trkpt>
      <trkpt lat="49.16871" lon="1.25313">
        <ele>126.240023</ele>
        <time>2024-05-03T09:06:03.280Z</time>
      </trkpt>
      <trkpt lat="49.16885" lon="1.25326">
        <ele>125.994413</ele>
        <time>2024-05-03T09:06:05.975Z</time>
      </trkpt>
      <trkpt lat="49.16743" lon="1.25752">
        <ele>120.41197</ele>
        <time>2024-05-03T09:07:31.926Z</time>
      </trkpt>
      <trkpt lat="49.16731" lon="1.25807">
        <ele>119.805478</ele>
        <time>2024-05-03T09:07:42.579Z</time>
      </trkpt>
      <trkpt lat="49.16733" lon="1.25937">
        <ele>118.627784</ele>
        <time>2024-05-03T09:08:07.194Z</time>
      </trkpt>
      <trkpt lat="49.16771" lon="1.25968">
        <ele>118.160115</ele>
        <time>2024-05-03T09:08:19.818Z</time>
      </trkpt>
      <trkpt lat="49.16813" lon="1.25994">
        <ele>117.667874</ele>
        <time>2024-05-03T09:08:33.175Z</time>
      </trkpt>
      <trkpt lat="49.17015" lon="1.26549">
        <ele>112.327472</ele>
        <time>2024-05-03T09:10:32.259Z</time>
      </trkpt>
      <trkpt lat="49.17112" lon="1.26801">
        <ele>109.340749</ele>
        <time>2024-05-03T09:11:25.942Z</time>
      </trkpt>
      <trkpt lat="49.17164" lon="1.26938">
        <ele>107.907122</ele>
        <time>2024-05-03T09:11:55.033Z</time>
      </trkpt>
      <trkpt lat="49.17174" lon="1.26969">
        <ele>107.59933</ele>
        <time>2024-05-03T09:12:01.308Z</time>
      </trkpt>
      <trkpt lat="49.1727" lon="1.2719">
        <ele>106.296572</ele>
        <time>2024-05-03T09:12:52.458Z</time>
      </trkpt>
      <trkpt lat="49.1728" lon="1.27261">
        <ele>106.037252</ele>
        <time>2024-05-03T09:13:07.824Z</time>
      </trkpt>
      <trkpt lat="49.17256" lon="1.27273">
        <ele>106.561733</ele>
        <time>2024-05-03T09:13:13.715Z</time>
      </trkpt>
      <trkpt lat="49.17239" lon="1.27281">
        <ele>106.917702</ele>
        <time>2024-05-03T09:13:18.144Z</time>
      </trkpt>
      <trkpt lat="49.17159" lon="1.27315">
        <ele>108.632117</ele>
        <time>2024-05-03T09:13:42.668Z</time>
      </trkpt>
      <trkpt lat="49.17133" lon="1.27332">
        <ele>109.224568</ele>
        <time>2024-05-03T09:13:52.348Z</time>
      </trkpt>
      <trkpt lat="49.16988" lon="1.27487">
        <ele>116.627679</ele>
        <time>2024-05-03T09:15:06.432Z</time>
      </trkpt>
      <trkpt lat="49.17012" lon="1.27593">
        <ele>120.298704</ele>
        <time>2024-05-03T09:15:51.415Z</time>
      </trkpt>
      <trkpt lat="49.17002" lon="1.27681">
        <ele>123.405921</ele>
        <time>2024-05-03T09:16:27.071Z</time>
      </trkpt>
      <trkpt lat="49.17009" lon="1.27737">
        <ele>125.376613</ele>
        <time>2024-05-03T09:16:49.116Z</time>
      </trkpt>
      <trkpt lat="49.17" lon="1.2781">
        <ele>127.704354</ele>
        <time>2024-05-03T09:17:16.095Z</time>
      </trkpt>
      <trkpt lat="49.16987" lon="1.27827">
        <ele>128.152561</ele>
        <time>2024-05-03T09:17:24.961Z</time>
      </trkpt>
      <trkpt lat="49.1696" lon="1.27878">
        <ele>129.257454</ele>
        <time>2024-05-03T09:17:45.892Z</time>
      </trkpt>
      <trkpt lat="49.16953" lon="1.27906">
        <ele>129.772047</ele>
        <time>2024-05-03T09:17:54.747Z</time>
      </trkpt>
      <trkpt lat="49.16949" lon="1.27942">
        <ele>130.396099</ele>
        <time>2024-05-03T09:18:05.157Z</time>
      </trkpt>
      <trkpt lat="49.16949" lon="1.27972">
        <ele>130.894472</ele>
        <time>2024-05-03T09:18:12.783Z</time>
      </trkpt>
      <trkpt lat="49.16953" lon="1.28024">
        <ele>131.791472</ele>
        <time>2024-05-03T09:18:26.024Z</time>
      </trkpt>
      <trkpt lat="49.16959" lon="1.28052">
        <ele>132.149488</ele>
        <time>2024-05-03T09:18:32.999Z</time>
      </trkpt>
      <trkpt lat="49.1697" lon="1.28084">
        <ele>132.217565</ele>
        <time>2024-05-03T09:18:41.719Z</time>
      </trkpt>
      <trkpt lat="49.17004" lon="1.28149">
        <ele>132.369382</ele>
        <time>2024-05-03T09:18:53.443Z</time>
      </trkpt>
      <trkpt lat="49.17121" lon="1.28339">
        <ele>132.092416</ele>
        <time>2024-05-03T09:19:27.558Z</time>
      </trkpt>
      <trkpt lat="49.17127" lon="1.28352">
        <ele>132.020087</ele>
        <time>2024-05-03T09:19:29.397Z</time>
      </trkpt>
      <trkpt lat="49.17153" lon="1.28394">
        <ele>131.741305</ele>
        <time>2024-05-03T09:19:36.422Z</time>
      </trkpt>
      <trkpt lat="49.17188" lon="1.2846">
        <ele>131.338974</ele>
        <time>2024-05-03T09:19:46.195Z</time>
      </trkpt>
      <trkpt lat="49.17194" lon="1.28471">
        <ele>131.104137</ele>
        <time>2024-05-03T09:19:47.741Z</time>
      </trkpt>
      <trkpt lat="49.17228" lon="1.28536">
        <ele>129.570338</ele>
        <time>2024-05-03T09:19:56.737Z</time>
      </trkpt>
      <trkpt lat="49.17239" lon="1.28563">
        <ele>128.967693</ele>
        <time>2024-05-03T09:20:00.098Z</time>
      </trkpt>
      <trkpt lat="49.17241" lon="1.28575">
        <ele>128.753168</ele>
        <time>2024-05-03T09:20:01.303Z</time>
      </trkpt>
      <trkpt lat="49.17274" lon="1.28544">
        <ele>127.662546</ele>
        <time>2024-05-03T09:20:07.191Z</time>
      </trkpt>
      <trkpt lat="49.1733" lon="1.28471">
        <ele>125.241165</ele>
        <time>2024-05-03T09:20:17.978Z</time>
      </trkpt>
      <trkpt lat="49.1734" lon="1.28463">
        <ele>124.755124</ele>
        <time>2024-05-03T09:20:19.580Z</time>
      </trkpt>
      <trkpt lat="49.17346" lon="1.28464">
        <ele>124.469506</ele>
        <time>2024-05-03T09:20:20.549Z</time>
      </trkpt>
      <trkpt lat="49.17351" lon="1.28469">
        <ele>124.217905</ele>
        <time>2024-05-03T09:20:21.391Z</time>
      </trkpt>
      <trkpt lat="49.17366" lon="1.28499">
        <ele>123.14589</ele>
        <time>2024-05-03T09:20:27.429Z</time>
      </trkpt>
      <trkpt lat="49.17382" lon="1.28528">
        <ele>122.035176</ele>
        <time>2024-05-03T09:20:33.675Z</time>
      </trkpt>
      <trkpt lat="49.17418" lon="1.28571">
        <ele>120.067462</ele>
        <time>2024-05-03T09:20:44.652Z</time>
      </trkpt>
      <trkpt lat="49.17431" lon="1.286">
        <ele>119.044256</ele>
        <time>2024-05-03T09:20:50.400Z</time>
      </trkpt>
      <trkpt lat="49.17502" lon="1.28857">
        <ele>110.526912</ele>
        <time>2024-05-03T09:21:34.584Z</time>
      </trkpt>
      <trkpt lat="49.17561" lon="1.29063">
        <ele>105.761173</ele>
        <time>2024-05-03T09:22:11.146Z</time>
      </trkpt>
      <trkpt lat="49.17553" lon="1.29124">
        <ele>104.482133</ele>
        <time>2024-05-03T09:22:23.148Z</time>
      </trkpt>
      <trkpt lat="49.17578" lon="1.29187">
        <ele>104.022389</ele>
        <time>2024-05-03T09:22:38.462Z</time>
      </trkpt>
      <trkpt lat="49.17573" lon="1.29238">
        <ele>103.764907</ele>
        <time>2024-05-03T09:22:48.988Z</time>
      </trkpt>
      <trkpt lat="49.17564" lon="1.29287">
        <ele>103.516388</ele>
        <time>2024-05-03T09:22:54.975Z</time>
      </trkpt>
      <trkpt lat="49.17549" lon="1.29347">
        <ele>103.195201</ele>
        <time>2024-05-03T09:23:02.673Z</time>
      </trkpt>
      <trkpt lat="49.17545" lon="1.29352">
        <ele>103.159716</ele>
        <time>2024-05-03T09:23:03.802Z</time>
      </trkpt>
      <trkpt lat="49.17621" lon="1.2939">
        <ele>100.504987</ele>
        <time>2024-05-03T09:23:25.922Z</time>
      </trkpt>
      <trkpt lat="49.17682" lon="1.29428">
        <ele>97.665342</ele>
        <time>2024-05-03T09:23:41.976Z</time>
      </trkpt>
      <trkpt lat="49.17742" lon="1.29495">
        <ele>94.510931</ele>
        <time>2024-05-03T09:23:58.686Z</time>
      </trkpt>
      <trkpt lat="49.17772" lon="1.29519">
        <ele>93.130203</ele>
        <time>2024-05-03T09:24:06.655Z</time>
      </trkpt>
      <trkpt lat="49.17836" lon="1.29494">
        <ele>90.51425</ele>
        <time>2024-05-03T09:24:22.513Z</time>
      </trkpt>
      <trkpt lat="49.179" lon="1.29493">
        <ele>88.068615</ele>
        <time>2024-05-03T09:24:39.666Z</time>
      </trkpt>
      <trkpt lat="49.18022" lon="1.29501">
        <ele>92.631665</ele>
        <time>2024-05-03T09:25:36.320Z</time>
      </trkpt>
      <trkpt lat="49.18049" lon="1.29504">
        <ele>93.636971</ele>
        <time>2024-05-03T09:25:54.188Z</time>
      </trkpt>
      <trkpt lat="49.18082" lon="1.29521">
        <ele>95.114059</ele>
        <time>2024-05-03T09:26:18.863Z</time>
      </trkpt>
      <trkpt lat="49.18115" lon="1.29531">
        <ele>97.657143</ele>
        <time>2024-05-03T09:26:43.040Z</time>
      </trkpt>
      <trkpt lat="49.18145" lon="1.2954">
        <ele>99.955038</ele>
        <time>2024-05-03T09:27:04.915Z</time>
      </trkpt>
      <trkpt lat="49.18201" lon="1.29596">
        <ele>104.98033</ele>
        <time>2024-05-03T09:27:53.364Z</time>
      </trkpt>
      <trkpt lat="49.18222" lon="1.29608">
        <ele>106.67195</ele>
        <time>2024-05-03T09:28:08.956Z</time>
      </trkpt>
      <trkpt lat="49.18278" lon="1.29635">
        <ele>109.640251</ele>
        <time>2024-05-03T09:28:40.588Z</time>
      </trkpt>
      <trkpt lat="49.18286" lon="1.29632">
        <ele>109.953919</ele>
        <time>2024-05-03T09:28:44.598Z</time>
      </trkpt>
      <trkpt lat="49.18335" lon="1.29565">
        <ele>112.422705</ele>
        <time>2024-05-03T09:29:11.885Z</time>
      </trkpt>
      <trkpt lat="49.18371" lon="1.29507">
        <ele>114.374419</ele>
        <time>2024-05-03T09:29:29.221Z</time>
      </trkpt>
      <trkpt lat="49.18491" lon="1.29546">
        <ele>112.115229</ele>
        <time>2024-05-03T09:30:05.075Z</time>
      </trkpt>
      <trkpt lat="49.18514" lon="1.29549">
        <ele>111.479499</ele>
        <time>2024-05-03T09:30:10.931Z</time>
      </trkpt>
      <trkpt lat="49.18612" lon="1.29577">
        <ele>106.700889</ele>
        <time>2024-05-03T09:30:33.910Z</time>
      </trkpt>
      <trkpt lat="49.18676" lon="1.29605">
        <ele>102.061507</ele>
        <time>2024-05-03T09:30:49.014Z</time>
      </trkpt>
      <trkpt lat="49.18848" lon="1.29663">
        <ele>89.499003</ele>
        <time>2024-05-03T09:31:28.783Z</time>
      </trkpt>
      <trkpt lat="49.18955" lon="1.29703">
        <ele>82.431445</ele>
        <time>2024-05-03T09:31:53.855Z</time>
      </trkpt>
      <trkpt lat="49.19042" lon="1.2973">
        <ele>77.923472</ele>
        <time>2024-05-03T09:32:14.244Z</time>
      </trkpt>
      <trkpt lat="49.19119" lon="1.2976">
        <ele>76.991037</ele>
        <time>2024-05-03T09:32:36.116Z</time>
      </trkpt>
      <trkpt lat="49.19139" lon="1.29763">
        <ele>77.99393</ele>
        <time>2024-05-03T09:32:45.009Z</time>
      </trkpt>
      <trkpt lat="49.19152" lon="1.2977">
        <ele>78.657475</ele>
        <time>2024-05-03T09:32:51.441Z</time>
      </trkpt>
      <trkpt lat="49.19176" lon="1.29794">
        <ele>80.02984</ele>
        <time>2024-05-03T09:33:07.059Z</time>
      </trkpt>
      <trkpt lat="49.19206" lon="1.29811">
        <ele>81.601345</ele>
        <time>2024-05-03T09:33:28.595Z</time>
      </trkpt>
      <trkpt lat="49.19241" lon="1.2982">
        <ele>83.328293</ele>
        <time>2024-05-03T09:33:55.540Z</time>
      </trkpt>
      <trkpt lat="49.19267" lon="1.29812">
        <ele>84.94192</ele>
        <time>2024-05-03T09:34:17.769Z</time>
      </trkpt>
      <trkpt lat="49.1929" lon="1.29813">
        <ele>86.998989</ele>
        <time>2024-05-03T09:34:38.054Z</time>
      </trkpt>
      <trkpt lat="49.19309" lon="1.29809">
        <ele>88.793048</ele>
        <time>2024-05-03T09:34:56.510Z</time>
      </trkpt>
      <trkpt lat="49.19337" lon="1.29812">
        <ele>91.258252</ele>
        <time>2024-05-03T09:35:22.386Z</time>
      </trkpt>
      <trkpt lat="49.19368" lon="1.29832">
        <ele>94.2718</ele>
        <time>2024-05-03T09:35:51.406Z</time>
      </trkpt>
      <trkpt lat="49.19441" lon="1.29855">
        <ele>100.459183</ele>
        <time>2024-05-03T09:36:41.223Z</time>
      </trkpt>
      <trkpt lat="49.19503" lon="1.29873">
        <ele>101.528051</ele>
        <time>2024-05-03T09:37:07.921Z</time>
      </trkpt>
      <trkpt lat="49.19522" lon="1.29879">
        <ele>101.874728</ele>
        <time>2024-05-03T09:37:15.460Z</time>
      </trkpt>
      <trkpt lat="49.19613" lon="1.29845">
        <ele>103.473738</ele>
        <time>2024-05-03T09:37:44.670Z</time>
      </trkpt>
      <trkpt lat="49.1963" lon="1.29833">
        <ele>103.832166</ele>
        <time>2024-05-03T09:37:50.734Z</time>
      </trkpt>
      <trkpt lat="49.19635" lon="1.29823">
        <ele>103.986913</ele>
        <time>2024-05-03T09:37:52.417Z</time>
      </trkpt>
      <trkpt lat="49.19653" lon="1.29772">
        <ele>104.691014</ele>
        <time>2024-05-03T09:38:00.903Z</time>
      </trkpt>
      <trkpt lat="49.19671" lon="1.29712">
        <ele>105.503217</ele>
        <time>2024-05-03T09:38:12.965Z</time>
      </trkpt>
      <trkpt lat="49.19683" lon="1.29641">
        <ele>106.400742</ele>
        <time>2024-05-03T09:38:29.696Z</time>
      </trkpt>
      <trkpt lat="49.1971" lon="1.29552">
        <ele>108.274917</ele>
        <time>2024-05-03T09:38:55.124Z</time>
      </trkpt>
      <trkpt lat="49.1971" lon="1.29546">
        <ele>108.410341</ele>
        <time>2024-05-03T09:38:56.519Z</time>
      </trkpt>
      <trkpt lat="49.19739" lon="1.29519">
        <ele>109.569272</ele>
        <time>2024-05-03T09:39:09.294Z</time>
      </trkpt>
      <trkpt lat="49.19801" lon="1.29471">
        <ele>111.949674</ele>
        <time>2024-05-03T09:39:35.439Z</time>
      </trkpt>
      <trkpt lat="49.19902" lon="1.29437">
        <ele>114.421414</ele>
        <time>2024-05-03T09:40:07.466Z</time>
      </trkpt>
      <trkpt lat="49.19899" lon="1.2943">
        <ele>114.527109</ele>
        <time>2024-05-03T09:40:08.880Z</time>
      </trkpt>
      <trkpt lat="49.19883" lon="1.29382">
        <ele>115.215613</ele>
        <time>2024-05-03T09:40:18.916Z</time>
      </trkpt>
      <trkpt lat="49.19871" lon="1.29336">
        <ele>115.851034</ele>
        <time>2024-05-03T09:40:28.195Z</time>
      </trkpt>
      <trkpt lat="49.19867" lon="1.29339">
        <ele>115.946099</ele>
        <time>2024-05-03T09:40:29.382Z</time>
      </trkpt>
      <trkpt lat="49.19833" lon="1.29219">
        <ele>116.949783</ele>
        <time>2024-05-03T09:40:50.583Z</time>
      </trkpt>
      <trkpt lat="49.1982" lon="1.29126">
        <ele>117.442892</ele>
        <time>2024-05-03T09:41:05.121Z</time>
      </trkpt>
      <trkpt lat="49.1982" lon="1.29126">
        <ele>117.442892</ele>
        <time>2024-05-03T09:41:05.159Z</time>
      </trkpt>
      <trkpt lat="49.19837" lon="1.2912">
        <ele>117.576727</ele>
        <time>2024-05-03T09:41:12.417Z</time>
      </trkpt>
      <trkpt lat="49.1989" lon="1.29078">
        <ele>117.957696</ele>
        <time>2024-05-03T09:41:38.171Z</time>
      </trkpt>
      <trkpt lat="49.19905" lon="1.28982">
        <ele>118.103332</ele>
        <time>2024-05-03T09:42:05.827Z</time>
      </trkpt>
      <trkpt lat="49.19934" lon="1.28957">
        <ele>118.177934</ele>
        <time>2024-05-03T09:42:19.994Z</time>
      </trkpt>
      <trkpt lat="49.19921" lon="1.28827">
        <ele>118.22485</ele>
        <time>2024-05-03T09:42:56.779Z</time>
      </trkpt>
      <trkpt lat="49.19907" lon="1.28697">
        <ele>117.805914</ele>
        <time>2024-05-03T09:43:33.564Z</time>
      </trkpt>
      <trkpt lat="49.19913" lon="1.28699">
        <ele>117.774756</ele>
        <time>2024-05-03T09:43:36.312Z</time>
      </trkpt>
      <trkpt lat="49.19921" lon="1.28637">
        <ele>117.573314</ele>
        <time>2024-05-03T09:43:48.458Z</time>
      </trkpt>
      <trkpt lat="49.19913" lon="1.28526">
        <ele>116.33309</ele>
        <time>2024-05-03T09:44:09.548Z</time>
      </trkpt>
      <trkpt lat="49.19887" lon="1.28401">
        <ele>114.291846</ele>
        <time>2024-05-03T09:44:33.463Z</time>
      </trkpt>
      <trkpt lat="49.19856" lon="1.28232">
        <ele>107.855573</ele>
        <time>2024-05-03T09:45:01.406Z</time>
      </trkpt>
      <trkpt lat="49.19849" lon="1.28131">
        <ele>102.608388</ele>
        <time>2024-05-03T09:45:16.295Z</time>
      </trkpt>
      <trkpt lat="49.1985" lon="1.2804">
        <ele>96.645135</ele>
        <time>2024-05-03T09:45:28.864Z</time>
      </trkpt>
      <trkpt lat="49.19889" lon="1.27948">
        <ele>84.601389</ele>
        <time>2024-05-03T09:45:43.303Z</time>
      </trkpt>
      <trkpt lat="49.19927" lon="1.27896">
        <ele>76.007678</ele>
        <time>2024-05-03T09:45:53.418Z</time>
      </trkpt>
      <trkpt lat="49.19986" lon="1.27833">
        <ele>64.136227</ele>
        <time>2024-05-03T09:46:07.346Z</time>
      </trkpt>
      <trkpt lat="49.19998" lon="1.27762">
        <ele>56.304615</ele>
        <time>2024-05-03T09:46:16.698Z</time>
      </trkpt>
      <trkpt lat="49.20018" lon="1.27707">
        <ele>49.516399</ele>
        <time>2024-05-03T09:46:24.930Z</time>
      </trkpt>
      <trkpt lat="49.20061" lon="1.27645">
        <ele>39.805637</ele>
        <time>2024-05-03T09:46:36.978Z</time>
      </trkpt>
      <trkpt lat="49.20052" lon="1.27361">
        <ele>26.986698</ele>
        <time>2024-05-03T09:47:20.049Z</time>
      </trkpt>
      <trkpt lat="49.20055" lon="1.2724">
        <ele>23.886665</ele>
        <time>2024-05-03T09:47:41.013Z</time>
      </trkpt>
      <trkpt lat="49.20052" lon="1.27134">
        <ele>21.188937</ele>
        <time>2024-05-03T09:47:58.519Z</time>
      </trkpt>
      <trkpt lat="49.20062" lon="1.27137">
        <ele>20.813629</ele>
        <time>2024-05-03T09:48:00.900Z</time>
      </trkpt>
      <trkpt lat="49.20073" lon="1.27141">
        <ele>20.35062</ele>
        <time>2024-05-03T09:48:03.796Z</time>
      </trkpt>
      <trkpt lat="49.20079" lon="1.27143">
        <ele>20.134357</ele>
        <time>2024-05-03T09:48:05.092Z</time>
      </trkpt>
      <trkpt lat="49.20077" lon="1.27097">
        <ele>18.882765</ele>
        <time>2024-05-03T09:48:09.197Z</time>
      </trkpt>
      <trkpt lat="49.20081" lon="1.27071">
        <ele>18.16123</ele>
        <time>2024-05-03T09:48:11.532Z</time>
      </trkpt>
      <trkpt lat="49.20091" lon="1.27051">
        <ele>17.466002</ele>
        <time>2024-05-03T09:48:13.747Z</time>
      </trkpt>
      <trkpt lat="49.20099" lon="1.27041">
        <ele>17.034543</ele>
        <time>2024-05-03T09:48:15.087Z</time>
      </trkpt>
      <trkpt lat="49.20151" lon="1.26977">
        <ele>14.232464</ele>
        <time>2024-05-03T09:48:24.186Z</time>
      </trkpt>
      <trkpt lat="49.20228" lon="1.26918">
        <ele>11.634869</ele>
        <time>2024-05-03T09:48:36.463Z</time>
      </trkpt>
      <trkpt lat="49.20226" lon="1.26894">
        <ele>11.320839</ele>
        <time>2024-05-03T09:48:38.763Z</time>
      </trkpt>
      <trkpt lat="49.20228" lon="1.26918">
        <ele>11.006808</ele>
        <time>2024-05-03T09:48:41.165Z</time>
      </trkpt>
      <trkpt lat="49.20288" lon="1.27106">
        <ele>8.934617</ele>
        <time>2024-05-03T09:49:20.737Z</time>
      </trkpt>
      <trkpt lat="49.20341" lon="1.27254">
        <ele>8.77224</ele>
        <time>2024-05-03T09:49:56.767Z</time>
      </trkpt>
      <trkpt lat="49.20393" lon="1.27352">
        <ele>8.633903</ele>
        <time>2024-05-03T09:50:23.498Z</time>
      </trkpt>
      <trkpt lat="49.20427" lon="1.27389">
        <ele>8.557912</ele>
        <time>2024-05-03T09:50:36.541Z</time>
      </trkpt>
      <trkpt lat="49.20451" lon="1.2744">
        <ele>8.482816</ele>
        <time>2024-05-03T09:50:49.211Z</time>
      </trkpt>
      <trkpt lat="49.20469" lon="1.27473">
        <ele>8.432523</ele>
        <time>2024-05-03T09:50:57.683Z</time>
      </trkpt>
      <trkpt lat="49.20487" lon="1.27493">
        <ele>8.389211</ele>
        <time>2024-05-03T09:51:04.683Z</time>
      </trkpt>
      <trkpt lat="49.20506" lon="1.27522">
        <ele>8.281656</ele>
        <time>2024-05-03T09:51:12.673Z</time>
      </trkpt>
      <trkpt lat="49.20602" lon="1.27704">
        <ele>7.653611</ele>
        <time>2024-05-03T09:51:59.500Z</time>
      </trkpt>
      <trkpt lat="49.20699" lon="1.27851">
        <ele>7.425068</ele>
        <time>2024-05-03T09:52:41.901Z</time>
      </trkpt>
      <trkpt lat="49.20751" lon="1.27947">
        <ele>7.494583</ele>
        <time>2024-05-03T09:53:07.852Z</time>
      </trkpt>
      <trkpt lat="49.20875" lon="1.28129">
        <ele>8.112417</ele>
        <time>2024-05-03T09:54:06.748Z</time>
      </trkpt>
      <trkpt lat="49.20957" lon="1.28197">
        <ele>8.391001</ele>
        <time>2024-05-03T09:54:38.251Z</time>
      </trkpt>
      <trkpt lat="49.20988" lon="1.28232">
        <ele>8.506547</ele>
        <time>2024-05-03T09:54:50.892Z</time>
      </trkpt>
      <trkpt lat="49.21089" lon="1.28305">
        <ele>8.558305</ele>
        <time>2024-05-03T09:55:26.200Z</time>
      </trkpt>
      <trkpt lat="49.212" lon="1.28397">
        <ele>8.60777</ele>
        <time>2024-05-03T09:56:06.089Z</time>
      </trkpt>
      <trkpt lat="49.21265" lon="1.28454">
        <ele>8.705955</ele>
        <time>2024-05-03T09:56:30.829Z</time>
      </trkpt>
      <trkpt lat="49.213" lon="1.28495">
        <ele>8.763945</ele>
        <time>2024-05-03T09:56:45.053Z</time>
      </trkpt>
      <trkpt lat="49.21292" lon="1.28532">
        <ele>8.805233</ele>
        <time>2024-05-03T09:56:53.348Z</time>
      </trkpt>
      <trkpt lat="49.21277" lon="1.28566">
        <ele>8.888572</ele>
        <time>2024-05-03T09:57:02.315Z</time>
      </trkpt>
      <trkpt lat="49.21276" lon="1.28576">
        <ele>8.907432</ele>
        <time>2024-05-03T09:57:04.334Z</time>
      </trkpt>
      <trkpt lat="49.21278" lon="1.28584">
        <ele>8.925475</ele>
        <time>2024-05-03T09:57:06.255Z</time>
      </trkpt>
      <trkpt lat="49.21315" lon="1.28615">
        <ele>9.054274</ele>
        <time>2024-05-03T09:57:15.478Z</time>
      </trkpt>
      <trkpt lat="49.21319" lon="1.28615">
        <ele>9.068146</ele>
        <time>2024-05-03T09:57:17.069Z</time>
      </trkpt>
      <trkpt lat="49.21346" lon="1.28554">
        <ele>9.214934</ele>
        <time>2024-05-03T09:57:33.295Z</time>
      </trkpt>
      <trkpt lat="49.21404" lon="1.2864">
        <ele>9.446304</ele>
        <time>2024-05-03T09:58:00.326Z</time>
      </trkpt>
      <trkpt lat="49.21527" lon="1.28797">
        <ele>9.834833</ele>
        <time>2024-05-03T09:58:53.170Z</time>
      </trkpt>
      <trkpt lat="49.21583" lon="1.28895">
        <ele>9.912134</ele>
        <time>2024-05-03T09:59:20.336Z</time>
      </trkpt>
      <trkpt lat="49.21638" lon="1.28979">
        <ele>9.980721</ele>
        <time>2024-05-03T09:59:45.426Z</time>
      </trkpt>
      <trkpt lat="49.21669" lon="1.29039">
        <ele>9.967383</ele>
        <time>2024-05-03T10:00:01.412Z</time>
      </trkpt>
      <trkpt lat="49.21689" lon="1.29087">
        <ele>9.957488</ele>
        <time>2024-05-03T10:00:13.355Z</time>
      </trkpt>
      <trkpt lat="49.21721" lon="1.2918">
        <ele>9.939142</ele>
        <time>2024-05-03T10:00:35.204Z</time>
      </trkpt>
      <trkpt lat="49.21791" lon="1.29448">
        <ele>9.296013</ele>
        <time>2024-05-03T10:01:32.613Z</time>
      </trkpt>
      <trkpt lat="49.21883" lon="1.29683">
        <ele>9.121311</ele>
        <time>2024-05-03T10:02:29.043Z</time>
      </trkpt>
      <trkpt lat="49.21934" lon="1.29809">
        <ele>9.339372</ele>
        <time>2024-05-03T10:03:01.202Z</time>
      </trkpt>
      <trkpt lat="49.21979" lon="1.29945">
        <ele>9.610301</ele>
        <time>2024-05-03T10:03:34.795Z</time>
      </trkpt>
      <trkpt lat="49.22003" lon="1.30063">
        <ele>9.721507</ele>
        <time>2024-05-03T10:04:01.406Z</time>
      </trkpt>
      <trkpt lat="49.22024" lon="1.30171">
        <ele>9.822682</ele>
        <time>2024-05-03T10:04:24.948Z</time>
      </trkpt>
      <trkpt lat="49.22048" lon="1.30297">
        <ele>9.753045</ele>
        <time>2024-05-03T10:04:51.963Z</time>
      </trkpt>
      <trkpt lat="49.2206" lon="1.30456">
        <ele>9.58325</ele>
        <time>2024-05-03T10:05:24.407Z</time>
      </trkpt>
      <trkpt lat="49.22046" lon="1.30757">
        <ele>9.584976</ele>
        <time>2024-05-03T10:06:27.326Z</time>
      </trkpt>
      <trkpt lat="49.22031" lon="1.31">
        <ele>9.499588</ele>
        <time>2024-05-03T10:07:17.869Z</time>
      </trkpt>
      <trkpt lat="49.22041" lon="1.31087">
        <ele>9.40631</ele>
        <time>2024-05-03T10:07:35.776Z</time>
      </trkpt>
      <trkpt lat="49.22065" lon="1.31209">
        <ele>9.238534</ele>
        <time>2024-05-03T10:08:01.371Z</time>
      </trkpt>
      <trkpt lat="49.22117" lon="1.31357">
        <ele>9.267467</ele>
        <time>2024-05-03T10:08:36.188Z</time>
      </trkpt>
      <trkpt lat="49.22177" lon="1.31465">
        <ele>9.502546</ele>
        <time>2024-05-03T10:09:07.326Z</time>
      </trkpt>
      <trkpt lat="49.22271" lon="1.31608">
        <ele>9.889885</ele>
        <time>2024-05-03T10:09:51.910Z</time>
      </trkpt>
      <trkpt lat="49.22377" lon="1.31744">
        <ele>10.265682</ele>
        <time>2024-05-03T10:10:37.444Z</time>
      </trkpt>
      <trkpt lat="49.22462" lon="1.31837">
        <ele>10.508016</ele>
        <time>2024-05-03T10:11:12.486Z</time>
      </trkpt>
      <trkpt lat="49.22524" lon="1.3191">
        <ele>10.36922</ele>
        <time>2024-05-03T10:11:37.174Z</time>
      </trkpt>
      <trkpt lat="49.22554" lon="1.31956">
        <ele>10.247365</ele>
        <time>2024-05-03T10:11:50.172Z</time>
      </trkpt>
      <trkpt lat="49.22562" lon="1.31961">
        <ele>10.222088</ele>
        <time>2024-05-03T10:11:52.843Z</time>
      </trkpt>
      <trkpt lat="49.22583" lon="1.31959">
        <ele>10.160485</ele>
        <time>2024-05-03T10:11:59.362Z</time>
      </trkpt>
      <trkpt lat="49.22614" lon="1.31965">
        <ele>10.071011</ele>
        <time>2024-05-03T10:12:08.769Z</time>
      </trkpt>
      <trkpt lat="49.22681" lon="1.32026">
        <ele>9.735855</ele>
        <time>2024-05-03T10:12:32.468Z</time>
      </trkpt>
      <trkpt lat="49.22737" lon="1.32099">
        <ele>9.399799</ele>
        <time>2024-05-03T10:12:54.602Z</time>
      </trkpt>
      <trkpt lat="49.22813" lon="1.32245">
        <ele>9.223036</ele>
        <time>2024-05-03T10:13:32.976Z</time>
      </trkpt>
      <trkpt lat="49.22841" lon="1.32315">
        <ele>9.23754</ele>
        <time>2024-05-03T10:13:50.155Z</time>
      </trkpt>
      <trkpt lat="49.22946" lon="1.32528">
        <ele>9.734259</ele>
        <time>2024-05-03T10:14:48.142Z</time>
      </trkpt>
      <trkpt lat="49.2301" lon="1.32642">
        <ele>10.188714</ele>
        <time>2024-05-03T10:15:22.131Z</time>
      </trkpt>
      <trkpt lat="49.23059" lon="1.32713">
        <ele>10.566552</ele>
        <time>2024-05-03T10:15:45.364Z</time>
      </trkpt>
      <trkpt lat="49.23061" lon="1.32722">
        <ele>10.601654</ele>
        <time>2024-05-03T10:15:47.638Z</time>
      </trkpt>
      <trkpt lat="49.2306" lon="1.32738">
        <ele>10.663422</ele>
        <time>2024-05-03T10:15:51.442Z</time>
      </trkpt>
      <trkpt lat="49.22948" lon="1.32866">
        <ele>11.219357</ele>
        <time>2024-05-03T10:16:39.409Z</time>
      </trkpt>
      <trkpt lat="49.22929" lon="1.32871">
        <ele>11.27888</ele>
        <time>2024-05-03T10:16:45.772Z</time>
      </trkpt>
      <trkpt lat="49.22921" lon="1.32866">
        <ele>11.304566</ele>
        <time>2024-05-03T10:16:48.464Z</time>
      </trkpt>
      <trkpt lat="49.22905" lon="1.32857">
        <ele>11.356224</ele>
        <time>2024-05-03T10:16:53.926Z</time>
      </trkpt>
      <trkpt lat="49.22837" lon="1.32733">
        <ele>11.513382</ele>
        <time>2024-05-03T10:17:27.460Z</time>
      </trkpt>
      <trkpt lat="49.22722" lon="1.32574">
        <ele>11.743806</ele>
        <time>2024-05-03T10:18:17.123Z</time>
      </trkpt>
      <trkpt lat="49.22639" lon="1.32454">
        <ele>12.359981</ele>
        <time>2024-05-03T10:18:56.627Z</time>
      </trkpt>
      <trkpt lat="49.22631" lon="1.32452">
        <ele>12.405256</ele>
        <time>2024-05-03T10:18:59.644Z</time>
      </trkpt>
      <trkpt lat="49.22587" lon="1.32494">
        <ele>12.700212</ele>
        <time>2024-05-03T10:19:18.452Z</time>
      </trkpt>
      <trkpt lat="49.22534" lon="1.32576">
        <ele>13.146495</ele>
        <time>2024-05-03T10:19:45.522Z</time>
      </trkpt>
      <trkpt lat="49.22517" lon="1.32543">
        <ele>13.312201</ele>
        <time>2024-05-03T10:19:51.688Z</time>
      </trkpt>
      <trkpt lat="49.22472" lon="1.32458">
        <ele>13.527446</ele>
        <time>2024-05-03T10:20:06.116Z</time>
      </trkpt>
      <trkpt lat="49.22446" lon="1.32391">
        <ele>13.385028</ele>
        <time>2024-05-03T10:20:15.497Z</time>
      </trkpt>
      <trkpt lat="49.22374" lon="1.3213">
        <ele>13.066943</ele>
        <time>2024-05-03T10:20:48.620Z</time>
      </trkpt>
      <trkpt lat="49.22369" lon="1.32111">
        <ele>13.063075</ele>
        <time>2024-05-03T10:20:51.189Z</time>
      </trkpt>
      <trkpt lat="49.2236" lon="1.32078">
        <ele>13.05617</ele>
        <time>2024-05-03T10:20:55.701Z</time>
      </trkpt>
      <trkpt lat="49.22313" lon="1.32091">
        <ele>13.042158</ele>
        <time>2024-05-03T10:21:11.790Z</time>
      </trkpt>
      <trkpt lat="49.22276" lon="1.32112">
        <ele>13.279469</ele>
        <time>2024-05-03T10:21:25.705Z</time>
      </trkpt>
      <trkpt lat="49.22205" lon="1.32157">
        <ele>14.036627</ele>
        <time>2024-05-03T10:21:53.888Z</time>
      </trkpt>
      <trkpt lat="49.22161" lon="1.32169">
        <ele>14.47867</ele>
        <time>2024-05-03T10:22:10.714Z</time>
      </trkpt>
      <trkpt lat="49.22049" lon="1.32222">
        <ele>15.838925</ele>
        <time>2024-05-03T10:22:55.215Z</time>
      </trkpt>
      <trkpt lat="49.21998" lon="1.32238">
        <ele>16.471925</ele>
        <time>2024-05-03T10:23:14.734Z</time>
      </trkpt>
      <trkpt lat="49.21939" lon="1.32243">
        <ele>17.15293</ele>
        <time>2024-05-03T10:23:37.281Z</time>
      </trkpt>
      <trkpt lat="49.21827" lon="1.32201">
        <ele>18.18169</ele>
        <time>2024-05-03T10:24:20.983Z</time>
      </trkpt>
      <trkpt lat="49.21696" lon="1.32158">
        <ele>18.88008</ele>
        <time>2024-05-03T10:25:04.500Z</time>
      </trkpt>
      <trkpt lat="49.21667" lon="1.32227">
        <ele>19.042444</ele>
        <time>2024-05-03T10:25:15.338Z</time>
      </trkpt>
      <trkpt lat="49.2168" lon="1.32248">
        <ele>19.098386</ele>
        <time>2024-05-03T10:25:19.498Z</time>
      </trkpt>
      <trkpt lat="49.21691" lon="1.3231">
        <ele>19.420366</ele>
        <time>2024-05-03T10:25:33.748Z</time>
      </trkpt>
      <trkpt lat="49.21704" lon="1.32344">
        <ele>19.771716</ele>
        <time>2024-05-03T10:25:42.805Z</time>
      </trkpt>
      <trkpt lat="49.21708" lon="1.32386">
        <ele>20.153963</ele>
        <time>2024-05-03T10:25:52.633Z</time>
      </trkpt>
      <trkpt lat="49.21705" lon="1.32428">
        <ele>20.529857</ele>
        <time>2024-05-03T10:26:03.072Z</time>
      </trkpt>
      <trkpt lat="49.21667" lon="1.32424">
        <ele>21.039658</ele>
        <time>2024-05-03T10:26:18.913Z</time>
      </trkpt>
      <trkpt lat="49.21567" lon="1.32403">
        <ele>22.501551</ele>
        <time>2024-05-03T10:27:02.258Z</time>
      </trkpt>
      <trkpt lat="49.2153" lon="1.32415">
        <ele>23.060504</ele>
        <time>2024-05-03T10:27:17.420Z</time>
      </trkpt>
      <trkpt lat="49.21509" lon="1.32381">
        <ele>23.527709</ele>
        <time>2024-05-03T10:27:29.568Z</time>
      </trkpt>
      <trkpt lat="49.21481" lon="1.32374">
        <ele>23.948041</ele>
        <time>2024-05-03T10:27:39.933Z</time>
      </trkpt>
      <trkpt lat="49.21442" lon="1.32339">
        <ele>24.261528</ele>
        <time>2024-05-03T10:27:55.540Z</time>
      </trkpt>
      <trkpt lat="49.21391" lon="1.32318">
        <ele>24.136982</ele>
        <time>2024-05-03T10:28:12.304Z</time>
      </trkpt>
      <trkpt lat="49.21357" lon="1.32297">
        <ele>24.049898</ele>
        <time>2024-05-03T10:28:23.518Z</time>
      </trkpt>
      <trkpt lat="49.21309" lon="1.32276">
        <ele>23.929663</ele>
        <time>2024-05-03T10:28:38.338Z</time>
      </trkpt>
      <trkpt lat="49.21299" lon="1.32251">
        <ele>23.884687</ele>
        <time>2024-05-03T10:28:43.886Z</time>
      </trkpt>
      <trkpt lat="49.21288" lon="1.32247">
        <ele>23.953549</ele>
        <time>2024-05-03T10:28:47.231Z</time>
      </trkpt>
      <trkpt lat="49.21256" lon="1.32236">
        <ele>24.176998</ele>
        <time>2024-05-03T10:28:57.418Z</time>
      </trkpt>
      <trkpt lat="49.21224" lon="1.32233">
        <ele>24.384453</ele>
        <time>2024-05-03T10:29:07.241Z</time>
      </trkpt>
      <trkpt lat="49.21219" lon="1.32195">
        <ele>24.55358</ele>
        <time>2024-05-03T10:29:16.069Z</time>
      </trkpt>
      <trkpt lat="49.21215" lon="1.32186">
        <ele>24.60287</ele>
        <time>2024-05-03T10:29:18.707Z</time>
      </trkpt>
      <trkpt lat="49.21167" lon="1.32136">
        <ele>24.98714</ele>
        <time>2024-05-03T10:29:41.950Z</time>
      </trkpt>
      <trkpt lat="49.21136" lon="1.32119">
        <ele>25.392166</ele>
        <time>2024-05-03T10:29:55.939Z</time>
      </trkpt>
      <trkpt lat="49.21118" lon="1.3213">
        <ele>25.725625</ele>
        <time>2024-05-03T10:30:04.379Z</time>
      </trkpt>
      <trkpt lat="49.21103" lon="1.32155">
        <ele>26.104216</ele>
        <time>2024-05-03T10:30:14.004Z</time>
      </trkpt>
      <trkpt lat="49.21086" lon="1.32194">
        <ele>26.610913</ele>
        <time>2024-05-03T10:30:26.935Z</time>
      </trkpt>
      <trkpt lat="49.21054" lon="1.32193">
        <ele>27.154122</ele>
        <time>2024-05-03T10:30:40.424Z</time>
      </trkpt>
      <trkpt lat="49.21049" lon="1.3219">
        <ele>27.245599</ele>
        <time>2024-05-03T10:30:42.597Z</time>
      </trkpt>
      <trkpt lat="49.21042" lon="1.32175">
        <ele>27.450721</ele>
        <time>2024-05-03T10:30:47.468Z</time>
      </trkpt>
      <trkpt lat="49.21028" lon="1.3216">
        <ele>27.738957</ele>
        <time>2024-05-03T10:30:54.066Z</time>
      </trkpt>
      <trkpt lat="49.21025" lon="1.32153">
        <ele>27.834612</ele>
        <time>2024-05-03T10:30:56.172Z</time>
      </trkpt>
      <trkpt lat="49.21024" lon="1.32133">
        <ele>28.058001</ele>
        <time>2024-05-03T10:31:00.987Z</time>
      </trkpt>
      <trkpt lat="49.21016" lon="1.32117">
        <ele>28.06635</ele>
        <time>2024-05-03T10:31:05.440Z</time>
      </trkpt>
      <trkpt lat="49.20994" lon="1.32043">
        <ele>27.859635</ele>
        <time>2024-05-03T10:31:22.568Z</time>
      </trkpt>
      <trkpt lat="49.20964" lon="1.31976">
        <ele>27.654472</ele>
        <time>2024-05-03T10:31:38.261Z</time>
      </trkpt>
      <trkpt lat="49.20959" lon="1.31906">
        <ele>27.4759</ele>
        <time>2024-05-03T10:31:51.518Z</time>
      </trkpt>
      <trkpt lat="49.20941" lon="1.31898">
        <ele>27.408016</ele>
        <time>2024-05-03T10:31:56.913Z</time>
      </trkpt>
      <trkpt lat="49.20934" lon="1.31901">
        <ele>27.417145</ele>
        <time>2024-05-03T10:31:59.220Z</time>
      </trkpt>
      <trkpt lat="49.2093" lon="1.3188">
        <ele>27.433254</ele>
        <time>2024-05-03T10:32:03.371Z</time>
      </trkpt>
      <trkpt lat="49.20914" lon="1.31872">
        <ele>27.452397</ele>
        <time>2024-05-03T10:32:08.402Z</time>
      </trkpt>
      <trkpt lat="49.20883" lon="1.31829">
        <ele>27.500707</ele>
        <time>2024-05-03T10:32:21.326Z</time>
      </trkpt>
      <trkpt lat="49.20871" lon="1.31829">
        <ele>27.514984</ele>
        <time>2024-05-03T10:32:25.253Z</time>
      </trkpt>
      <trkpt lat="49.20807" lon="1.31785">
        <ele>27.595686</ele>
        <time>2024-05-03T10:32:49.715Z</time>
      </trkpt>
      <trkpt lat="49.20799" lon="1.31762">
        <ele>27.623245</ele>
        <time>2024-05-03T10:32:55.895Z</time>
      </trkpt>
      <trkpt lat="49.2077" lon="1.31746">
        <ele>28.188204</ele>
        <time>2024-05-03T10:33:07.853Z</time>
      </trkpt>
      <trkpt lat="49.20763" lon="1.31736">
        <ele>28.354795</ele>
        <time>2024-05-03T10:33:11.402Z</time>
      </trkpt>
      <trkpt lat="49.2077" lon="1.31718">
        <ele>28.603128</ele>
        <time>2024-05-03T10:33:16.741Z</time>
      </trkpt>
      <trkpt lat="49.20738" lon="1.31702">
        <ele>29.213471</ele>
        <time>2024-05-03T10:33:30.093Z</time>
      </trkpt>
      <trkpt lat="49.20548" lon="1.3179">
        <ele>34.237633</ele>
        <time>2024-05-03T10:34:56.685Z</time>
      </trkpt>
      <trkpt lat="49.20356" lon="1.31904">
        <ele>42.350649</ele>
        <time>2024-05-03T10:36:45.653Z</time>
      </trkpt>
      <trkpt lat="49.20263" lon="1.31931">
        <ele>46.65122</ele>
        <time>2024-05-03T10:37:38.187Z</time>
      </trkpt>
      <trkpt lat="49.20212" lon="1.31948">
        <ele>49.092249</ele>
        <time>2024-05-03T10:38:02.253Z</time>
      </trkpt>
      <trkpt lat="49.20187" lon="1.31957">
        <ele>50.298213</ele>
        <time>2024-05-03T10:38:14.169Z</time>
      </trkpt>
      <trkpt lat="49.20173" lon="1.31966">
        <ele>51.013127</ele>
        <time>2024-05-03T10:38:21.148Z</time>
      </trkpt>
      <trkpt lat="49.20118" lon="1.32016">
        <ele>53.702817</ele>
        <time>2024-05-03T10:38:48.772Z</time>
      </trkpt>
      <trkpt lat="49.2007" lon="1.32029">
        <ele>55.478621</ele>
        <time>2024-05-03T10:39:08.741Z</time>
      </trkpt>
      <trkpt lat="49.20058" lon="1.32031">
        <ele>55.919272</ele>
        <time>2024-05-03T10:39:13.620Z</time>
      </trkpt>
      <trkpt lat="49.2005" lon="1.32025">
        <ele>56.209288</ele>
        <time>2024-05-03T10:39:16.759Z</time>
      </trkpt>
      <trkpt lat="49.19996" lon="1.3209">
        <ele>58.680938</ele>
        <time>2024-05-03T10:39:41.496Z</time>
      </trkpt>
      <trkpt lat="49.19983" lon="1.32116">
        <ele>59.38554</ele>
        <time>2024-05-03T10:39:48.639Z</time>
      </trkpt>
      <trkpt lat="49.1997" lon="1.32106">
        <ele>59.71289</ele>
        <time>2024-05-03T10:39:55.485Z</time>
      </trkpt>
      <trkpt lat="49.1992" lon="1.3208">
        <ele>60.881536</ele>
        <time>2024-05-03T10:40:18.267Z</time>
      </trkpt>
      <trkpt lat="49.19774" lon="1.31994">
        <ele>64.040613</ele>
        <time>2024-05-03T10:41:22.676Z</time>
      </trkpt>
      <trkpt lat="49.19685" lon="1.31946">
        <ele>65.58386</ele>
        <time>2024-05-03T10:42:00.396Z</time>
      </trkpt>
      <trkpt lat="49.19676" lon="1.32011">
        <ele>66.266099</ele>
        <time>2024-05-03T10:42:17.320Z</time>
      </trkpt>
      <trkpt lat="49.19658" lon="1.32086">
        <ele>66.878667</ele>
        <time>2024-05-03T10:42:37.219Z</time>
      </trkpt>
      <trkpt lat="49.19633" lon="1.32156">
        <ele>67.497406</ele>
        <time>2024-05-03T10:42:57.194Z</time>
      </trkpt>
      <trkpt lat="49.196" lon="1.3223">
        <ele>68.192294</ele>
        <time>2024-05-03T10:43:18.610Z</time>
      </trkpt>
      <trkpt lat="49.19592" lon="1.32247">
        <ele>68.354537</ele>
        <time>2024-05-03T10:43:23.689Z</time>
      </trkpt>
      <trkpt lat="49.19547" lon="1.3234">
        <ele>69.234637</ele>
        <time>2024-05-03T10:43:41.748Z</time>
      </trkpt>
      <trkpt lat="49.19539" lon="1.32351">
        <ele>69.365842</ele>
        <time>2024-05-03T10:43:44.592Z</time>
      </trkpt>
      <trkpt lat="49.19531" lon="1.32381">
        <ele>69.617034</ele>
        <time>2024-05-03T10:43:50.154Z</time>
      </trkpt>
      <trkpt lat="49.19514" lon="1.32424">
        <ele>70.005943</ele>
        <time>2024-05-03T10:43:59.227Z</time>
      </trkpt>
      <trkpt lat="49.19478" lon="1.32512">
        <ele>71.144647</ele>
        <time>2024-05-03T10:44:18.526Z</time>
      </trkpt>
      <trkpt lat="49.19448" lon="1.3248">
        <ele>71.969048</ele>
        <time>2024-05-03T10:44:29.238Z</time>
      </trkpt>
      <trkpt lat="49.19397" lon="1.32434">
        <ele>73.300495</ele>
        <time>2024-05-03T10:44:47.526Z</time>
      </trkpt>
      <trkpt lat="49.19328" lon="1.32655">
        <ele>78.411413</ele>
        <time>2024-05-03T10:45:44.799Z</time>
      </trkpt>
      <trkpt lat="49.19266" lon="1.32625">
        <ele>80.77785</ele>
        <time>2024-05-03T10:46:10.809Z</time>
      </trkpt>
      <trkpt lat="49.19238" lon="1.32623">
        <ele>82.453251</ele>
        <time>2024-05-03T10:46:23.092Z</time>
      </trkpt>
      <trkpt lat="49.19231" lon="1.3263">
        <ele>83.05058</ele>
        <time>2024-05-03T10:46:27.267Z</time>
      </trkpt>
      <trkpt lat="49.19193" lon="1.32688">
        <ele>86.659527</ele>
        <time>2024-05-03T10:46:53.747Z</time>
      </trkpt>
      <trkpt lat="49.19141" lon="1.32645">
        <ele>90.68035</ele>
        <time>2024-05-03T10:47:28.895Z</time>
      </trkpt>
      <trkpt lat="49.19088" lon="1.32622">
        <ele>94.706947</ele>
        <time>2024-05-03T10:48:02.690Z</time>
      </trkpt>
      <trkpt lat="49.19013" lon="1.32615">
        <ele>101.103292</ele>
        <time>2024-05-03T10:48:51.913Z</time>
      </trkpt>
      <trkpt lat="49.18952" lon="1.32583">
        <ele>106.558831</ele>
        <time>2024-05-03T10:49:33.281Z</time>
      </trkpt>
      <trkpt lat="49.18896" lon="1.32573">
        <ele>110.349034</ele>
        <time>2024-05-03T10:50:07.609Z</time>
      </trkpt>
      <trkpt lat="49.18877" lon="1.32564">
        <ele>111.396009</ele>
        <time>2024-05-03T10:50:17.396Z</time>
      </trkpt>
      <trkpt lat="49.1886" lon="1.32539">
        <ele>112.644243</ele>
        <time>2024-05-03T10:50:28.593Z</time>
      </trkpt>
      <trkpt lat="49.1882" lon="1.32468">
        <ele>115.931998</ele>
        <time>2024-05-03T10:50:56.343Z</time>
      </trkpt>
      <trkpt lat="49.1881" lon="1.32449">
        <ele>116.762597</ele>
        <time>2024-05-03T10:51:04.312Z</time>
      </trkpt>
      <trkpt lat="49.18796" lon="1.32427">
        <ele>117.839389</ele>
        <time>2024-05-03T10:51:15.000Z</time>
      </trkpt>
      <trkpt lat="49.18793" lon="1.32423">
        <ele>118.056135</ele>
        <time>2024-05-03T10:51:17.006Z</time>
      </trkpt>
      <trkpt lat="49.18796" lon="1.32427">
        <ele>118.16721</ele>
        <time>2024-05-03T10:51:18.844Z</time>
      </trkpt>
      <trkpt lat="49.1881" lon="1.32449">
        <ele>118.030846</ele>
        <time>2024-05-03T10:51:28.191Z</time>
      </trkpt>
      <trkpt lat="49.18738" lon="1.32539">
        <ele>117.405552</ele>
        <time>2024-05-03T10:52:01.170Z</time>
      </trkpt>
      <trkpt lat="49.18733" lon="1.32558">
        <ele>117.314275</ele>
        <time>2024-05-03T10:52:04.861Z</time>
      </trkpt>
      <trkpt lat="49.18724" lon="1.32592">
        <ele>117.153521</ele>
        <time>2024-05-03T10:52:11.177Z</time>
      </trkpt>
      <trkpt lat="49.18712" lon="1.32596">
        <ele>117.069634</ele>
        <time>2024-05-03T10:52:14.180Z</time>
      </trkpt>
      <trkpt lat="49.18696" lon="1.3259">
        <ele>116.926493</ele>
        <time>2024-05-03T10:52:18.156Z</time>
      </trkpt>
      <trkpt lat="49.18649" lon="1.32616">
        <ele>113.456046</ele>
        <time>2024-05-03T10:52:29.399Z</time>
      </trkpt>
      <trkpt lat="49.1866" lon="1.32647">
        <ele>111.832636</ele>
        <time>2024-05-03T10:52:34.581Z</time>
      </trkpt>
      <trkpt lat="49.18647" lon="1.32706">
        <ele>109.020193</ele>
        <time>2024-05-03T10:52:43.576Z</time>
      </trkpt>
      <trkpt lat="49.18637" lon="1.32727">
        <ele>107.784423</ele>
        <time>2024-05-03T10:52:47.489Z</time>
      </trkpt>
      <trkpt lat="49.18629" lon="1.32737">
        <ele>107.078258</ele>
        <time>2024-05-03T10:52:49.826Z</time>
      </trkpt>
      <trkpt lat="49.18618" lon="1.32732">
        <ele>106.298018</ele>
        <time>2024-05-03T10:52:52.391Z</time>
      </trkpt>
      <trkpt lat="49.18603" lon="1.32737">
        <ele>105.221923</ele>
        <time>2024-05-03T10:52:55.815Z</time>
      </trkpt>
      <trkpt lat="49.18593" lon="1.32744">
        <ele>104.456269</ele>
        <time>2024-05-03T10:52:58.336Z</time>
      </trkpt>
      <trkpt lat="49.1858" lon="1.32758">
        <ele>103.493783</ele>
        <time>2024-05-03T10:53:01.984Z</time>
      </trkpt>
      <trkpt lat="49.18572" lon="1.32765">
        <ele>102.934032</ele>
        <time>2024-05-03T10:53:04.076Z</time>
      </trkpt>
      <trkpt lat="49.18546" lon="1.32671">
        <ele>98.992748</ele>
        <time>2024-05-03T10:53:19.236Z</time>
      </trkpt>
      <trkpt lat="49.18539" lon="1.32625">
        <ele>97.169684</ele>
        <time>2024-05-03T10:53:26.475Z</time>
      </trkpt>
      <trkpt lat="49.1853" lon="1.32607">
        <ele>96.296015</ele>
        <time>2024-05-03T10:53:30.026Z</time>
      </trkpt>
      <trkpt lat="49.18485" lon="1.32536">
        <ele>93.187032</ele>
        <time>2024-05-03T10:53:46.507Z</time>
      </trkpt>
      <trkpt lat="49.18444" lon="1.32494">
        <ele>91.8935</ele>
        <time>2024-05-03T10:53:58.725Z</time>
      </trkpt>
      <trkpt lat="49.18418" lon="1.32472">
        <ele>91.112345</ele>
        <time>2024-05-03T10:54:05.933Z</time>
      </trkpt>
      <trkpt lat="49.18404" lon="1.32471">
        <ele>90.743814</ele>
        <time>2024-05-03T10:54:09.389Z</time>
      </trkpt>
      <trkpt lat="49.18382" lon="1.32491">
        <ele>90.068507</ele>
        <time>2024-05-03T10:54:16.092Z</time>
      </trkpt>
      <trkpt lat="49.18356" lon="1.3254">
        <ele>89.133387</ele>
        <time>2024-05-03T10:54:28.949Z</time>
      </trkpt>
      <trkpt lat="49.18348" lon="1.32545">
        <ele>89.656122</ele>
        <time>2024-05-03T10:54:32.533Z</time>
      </trkpt>
      <trkpt lat="49.18328" lon="1.32562">
        <ele>90.997389</ele>
        <time>2024-05-03T10:54:42.547Z</time>
      </trkpt>
      <trkpt lat="49.18321" lon="1.32584">
        <ele>92.000843</ele>
        <time>2024-05-03T10:54:51.260Z</time>
      </trkpt>
      <trkpt lat="49.18307" lon="1.32598">
        <ele>92.968567</ele>
        <time>2024-05-03T10:55:00.121Z</time>
      </trkpt>
      <trkpt lat="49.18287" lon="1.32599">
        <ele>94.157426</ele>
        <time>2024-05-03T10:55:12.576Z</time>
      </trkpt>
      <trkpt lat="49.18265" lon="1.3259">
        <ele>95.538678</ele>
        <time>2024-05-03T10:55:28.262Z</time>
      </trkpt>
      <trkpt lat="49.18218" lon="1.32569">
        <ele>98.527069</ele>
        <time>2024-05-03T10:56:06.619Z</time>
      </trkpt>
      <trkpt lat="49.181" lon="1.32529">
        <ele>106.50305</ele>
        <time>2024-05-03T10:57:43.527Z</time>
      </trkpt>
      <trkpt lat="49.18046" lon="1.32513">
        <ele>110.217074</ele>
        <time>2024-05-03T10:58:18.298Z</time>
      </trkpt>
      <trkpt lat="49.18035" lon="1.32514">
        <ele>110.96166</ele>
        <time>2024-05-03T10:58:24.593Z</time>
      </trkpt>
      <trkpt lat="49.17883" lon="1.32468">
        <ele>107.831345</ele>
        <time>2024-05-03T10:59:09.021Z</time>
      </trkpt>
      <trkpt lat="49.17858" lon="1.32472">
        <ele>107.06828</ele>
        <time>2024-05-03T10:59:14.562Z</time>
      </trkpt>
      <trkpt lat="49.17844" lon="1.32491">
        <ele>106.275864</ele>
        <time>2024-05-03T10:59:18.504Z</time>
      </trkpt>
      <trkpt lat="49.17838" lon="1.32534">
        <ele>103.357016</ele>
        <time>2024-05-03T10:59:24.553Z</time>
      </trkpt>
      <trkpt lat="49.17835" lon="1.32649">
        <ele>95.618894</ele>
        <time>2024-05-03T10:59:40.492Z</time>
      </trkpt>
      <trkpt lat="49.17841" lon="1.32709">
        <ele>91.593001</ele>
        <time>2024-05-03T10:59:48.771Z</time>
      </trkpt>
      <trkpt lat="49.17842" lon="1.32723">
        <ele>90.652525</ele>
        <time>2024-05-03T10:59:55.200Z</time>
      </trkpt>
      <trkpt lat="49.17825" lon="1.3272">
        <ele>88.832917</ele>
        <time>2024-05-03T10:59:59.078Z</time>
      </trkpt>
      <trkpt lat="49.17784" lon="1.32728">
        <ele>86.528078</ele>
        <time>2024-05-03T11:00:08.211Z</time>
      </trkpt>
      <trkpt lat="49.17742" lon="1.32736">
        <ele>84.530826</ele>
        <time>2024-05-03T11:00:17.955Z</time>
      </trkpt>
      <trkpt lat="49.17686" lon="1.32701">
        <ele>81.695653</ele>
        <time>2024-05-03T11:00:34.114Z</time>
      </trkpt>
      <trkpt lat="49.17632" lon="1.32701">
        <ele>79.148738</ele>
        <time>2024-05-03T11:00:49.312Z</time>
      </trkpt>
      <trkpt lat="49.17574" lon="1.32693">
        <ele>76.52295</ele>
        <time>2024-05-03T11:01:05.147Z</time>
      </trkpt>
      <trkpt lat="49.17558" lon="1.32694">
        <ele>75.813368</ele>
        <time>2024-05-03T11:01:09.021Z</time>
      </trkpt>
      <trkpt lat="49.17555" lon="1.32684">
        <ele>75.496749</ele>
        <time>2024-05-03T11:01:10.904Z</time>
      </trkpt>
      <trkpt lat="49.17545" lon="1.32672">
        <ele>74.900071</ele>
        <time>2024-05-03T11:01:14.450Z</time>
      </trkpt>
      <trkpt lat="49.17532" lon="1.32717">
        <ele>73.445167</ele>
        <time>2024-05-03T11:01:22.351Z</time>
      </trkpt>
      <trkpt lat="49.17505" lon="1.3274">
        <ele>72.078114</ele>
        <time>2024-05-03T11:01:29.154Z</time>
      </trkpt>
      <trkpt lat="49.1742" lon="1.32745">
        <ele>63.277725</ele>
        <time>2024-05-03T11:01:47.695Z</time>
      </trkpt>
      <trkpt lat="49.17376" lon="1.32757">
        <ele>58.304795</ele>
        <time>2024-05-03T11:01:57.057Z</time>
      </trkpt>
      <trkpt lat="49.17376" lon="1.32757">
        <ele>58.304795</ele>
        <time>2024-05-03T11:01:57.298Z</time>
      </trkpt>
      <trkpt lat="49.17376" lon="1.32757">
        <ele>58.304795</ele>
        <time>2024-05-03T11:01:57.298Z</time>
      </trkpt>
      <trkpt lat="49.17376" lon="1.32755">
        <ele>58.150544</ele>
        <time>2024-05-03T11:01:57.897Z</time>
      </trkpt>
      <trkpt lat="49.17406" lon="1.32785">
        <ele>54.203956</ele>
        <time>2024-05-03T11:02:13.159Z</time>
      </trkpt>
      <trkpt lat="49.17401" lon="1.32814">
        <ele>52.021279</ele>
        <time>2024-05-03T11:02:21.617Z</time>
      </trkpt>
      <trkpt lat="49.17402" lon="1.32849">
        <ele>49.505309</ele>
        <time>2024-05-03T11:02:31.248Z</time>
      </trkpt>
      <trkpt lat="49.17387" lon="1.32885">
        <ele>46.380687</ele>
        <time>2024-05-03T11:02:43.178Z</time>
      </trkpt>
      <trkpt lat="49.17394" lon="1.32921">
        <ele>43.622473</ele>
        <time>2024-05-03T11:02:53.758Z</time>
      </trkpt>
      <trkpt lat="49.17395" lon="1.33025">
        <ele>35.917442</ele>
        <time>2024-05-03T11:03:23.094Z</time>
      </trkpt>
      <trkpt lat="49.17395" lon="1.33028">
        <ele>35.702447</ele>
        <time>2024-05-03T11:03:24.097Z</time>
      </trkpt>
      <trkpt lat="49.17405" lon="1.33018">
        <ele>34.358059</ele>
        <time>2024-05-03T11:03:32.393Z</time>
      </trkpt>
      <trkpt lat="49.17413" lon="1.33004">
        <ele>33.016427</ele>
        <time>2024-05-03T11:03:40.656Z</time>
      </trkpt>
      <trkpt lat="49.17436" lon="1.33024">
        <ele>30.862382</ele>
        <time>2024-05-03T11:03:59.407Z</time>
      </trkpt>
      <trkpt lat="49.17453" lon="1.33033">
        <ele>30.16433</ele>
        <time>2024-05-03T11:04:11.623Z</time>
      </trkpt>
      <trkpt lat="49.17474" lon="1.33035">
        <ele>29.312304</ele>
        <time>2024-05-03T11:04:26.562Z</time>
      </trkpt>
      <trkpt lat="49.17493" lon="1.3303">
        <ele>28.527626</ele>
        <time>2024-05-03T11:04:40.355Z</time>
      </trkpt>
      <trkpt lat="49.1751" lon="1.33033">
        <ele>27.877144</ele>
        <time>2024-05-03T11:04:51.707Z</time>
      </trkpt>
      <trkpt lat="49.17521" lon="1.33045">
        <ele>27.313716</ele>
        <time>2024-05-03T11:05:01.611Z</time>
      </trkpt>
      <trkpt lat="49.17521" lon="1.33045">
        <ele>27.313716</ele>
        <time>2024-05-03T11:05:01.739Z</time>
      </trkpt>
      <trkpt lat="49.17521" lon="1.33045">
        <ele>27.313716</ele>
        <time>2024-05-03T11:05:01.739Z</time>
      </trkpt>
      <trkpt lat="49.1753" lon="1.33045">
        <ele>26.964201</ele>
        <time>2024-05-03T11:05:05.548Z</time>
      </trkpt>
      <trkpt lat="49.17587" lon="1.33114">
        <ele>24.19434</ele>
        <time>2024-05-03T11:05:36.570Z</time>
      </trkpt>
      <trkpt lat="49.1765" lon="1.3313">
        <ele>24.160417</ele>
        <time>2024-05-03T11:06:03.921Z</time>
      </trkpt>
      <trkpt lat="49.17666" lon="1.32998">
        <ele>24.113789</ele>
        <time>2024-05-03T11:06:41.514Z</time>
      </trkpt>
      <trkpt lat="49.17662" lon="1.32998">
        <ele>24.112086</ele>
        <time>2024-05-03T11:06:42.908Z</time>
      </trkpt>
      <trkpt lat="49.17661" lon="1.32979">
        <ele>24.105501</ele>
        <time>2024-05-03T11:06:46.091Z</time>
      </trkpt>
      <trkpt lat="49.1768" lon="1.32964">
        <ele>24.029608</ele>
        <time>2024-05-03T11:06:49.966Z</time>
      </trkpt>
      <trkpt lat="49.17715" lon="1.32955">
        <ele>23.812255</ele>
        <time>2024-05-03T11:06:57.292Z</time>
      </trkpt>
      <trkpt lat="49.17743" lon="1.32961">
        <ele>23.639637</ele>
        <time>2024-05-03T11:07:03.644Z</time>
      </trkpt>
      <trkpt lat="49.17797" lon="1.32992">
        <ele>23.288557</ele>
        <time>2024-05-03T11:07:14.615Z</time>
      </trkpt>
      <trkpt lat="49.17864" lon="1.32995">
        <ele>22.548353</ele>
        <time>2024-05-03T11:07:25.908Z</time>
      </trkpt>
      <trkpt lat="49.17876" lon="1.32992">
        <ele>22.249871</ele>
        <time>2024-05-03T11:07:28.075Z</time>
      </trkpt>
      <trkpt lat="49.17899" lon="1.33001">
        <ele>21.717362</ele>
        <time>2024-05-03T11:07:31.782Z</time>
      </trkpt>
      <trkpt lat="49.17922" lon="1.33024">
        <ele>21.082258</ele>
        <time>2024-05-03T11:07:35.953Z</time>
      </trkpt>
      <trkpt lat="49.17959" lon="1.33034">
        <ele>20.219514</ele>
        <time>2024-05-03T11:07:41.613Z</time>
      </trkpt>
      <trkpt lat="49.17978" lon="1.33046">
        <ele>19.751869</ele>
        <time>2024-05-03T11:07:44.727Z</time>
      </trkpt>
      <trkpt lat="49.17988" lon="1.33055">
        <ele>19.489944</ele>
        <time>2024-05-03T11:07:46.396Z</time>
      </trkpt>
      <trkpt lat="49.1801" lon="1.33099">
        <ele>18.691695</ele>
        <time>2024-05-03T11:07:52.008Z</time>
      </trkpt>
      <trkpt lat="49.18013" lon="1.33105">
        <ele>18.592166</ele>
        <time>2024-05-03T11:07:52.750Z</time>
      </trkpt>
      <trkpt lat="49.18018" lon="1.33134">
        <ele>18.192451</ele>
        <time>2024-05-03T11:07:55.825Z</time>
      </trkpt>
      <trkpt lat="49.18024" lon="1.3318">
        <ele>17.577056</ele>
        <time>2024-05-03T11:08:00.637Z</time>
      </trkpt>
      <trkpt lat="49.18035" lon="1.33231">
        <ele>16.862615</ele>
        <time>2024-05-03T11:08:06.459Z</time>
      </trkpt>
      <trkpt lat="49.18039" lon="1.33241">
        <ele>16.705255</ele>
        <time>2024-05-03T11:08:07.789Z</time>
      </trkpt>
      <trkpt lat="49.18055" lon="1.33373">
        <ele>15.078003</ele>
        <time>2024-05-03T11:08:22.794Z</time>
      </trkpt>
      <trkpt lat="49.18057" lon="1.3347">
        <ele>14.394441</ele>
        <time>2024-05-03T11:08:34.023Z</time>
      </trkpt>
      <trkpt lat="49.18072" lon="1.33471">
        <ele>14.232977</ele>
        <time>2024-05-03T11:08:36.529Z</time>
      </trkpt>
      <trkpt lat="49.18086" lon="1.33477">
        <ele>14.071272</ele>
        <time>2024-05-03T11:08:39.026Z</time>
      </trkpt>
      <trkpt lat="49.18101" lon="1.33483">
        <ele>13.904638</ele>
        <time>2024-05-03T11:08:41.610Z</time>
      </trkpt>
      <trkpt lat="49.18106" lon="1.33488">
        <ele>13.842782</ele>
        <time>2024-05-03T11:08:42.582Z</time>
      </trkpt>
      <trkpt lat="49.1811" lon="1.33501">
        <ele>13.738245</ele>
        <time>2024-05-03T11:08:44.183Z</time>
      </trkpt>
      <trkpt lat="49.18118" lon="1.33509">
        <ele>13.636938</ele>
        <time>2024-05-03T11:08:45.751Z</time>
      </trkpt>
      <trkpt lat="49.18127" lon="1.3351">
        <ele>13.535474</ele>
        <time>2024-05-03T11:08:47.319Z</time>
      </trkpt>
      <trkpt lat="49.18131" lon="1.33509">
        <ele>13.493861</ele>
        <time>2024-05-03T11:08:47.972Z</time>
      </trkpt>
      <trkpt lat="49.1814" lon="1.33507">
        <ele>13.391038</ele>
        <time>2024-05-03T11:08:49.649Z</time>
      </trkpt>
      <trkpt lat="49.1815" lon="1.33511">
        <ele>13.290899</ele>
        <time>2024-05-03T11:08:51.343Z</time>
      </trkpt>
      <trkpt lat="49.18163" lon="1.3352">
        <ele>13.223416</ele>
        <time>2024-05-03T11:08:53.981Z</time>
      </trkpt>
      <trkpt lat="49.18188" lon="1.33549">
        <ele>13.080394</ele>
        <time>2024-05-03T11:08:59.331Z</time>
      </trkpt>
      <trkpt lat="49.182" lon="1.33568">
        <ele>13.002243</ele>
        <time>2024-05-03T11:09:02.309Z</time>
      </trkpt>
      <trkpt lat="49.18236" lon="1.3369">
        <ele>12.601136</ele>
        <time>2024-05-03T11:09:18.361Z</time>
      </trkpt>
      <trkpt lat="49.18247" lon="1.33718">
        <ele>12.504248</ele>
        <time>2024-05-03T11:09:22.405Z</time>
      </trkpt>
      <trkpt lat="49.1826" lon="1.33743">
        <ele>12.493505</ele>
        <time>2024-05-03T11:09:26.465Z</time>
      </trkpt>
      <trkpt lat="49.18287" lon="1.33795">
        <ele>12.562376</ele>
        <time>2024-05-03T11:09:35.134Z</time>
      </trkpt>
      <trkpt lat="49.18282" lon="1.338">
        <ele>12.572103</ele>
        <time>2024-05-03T11:09:37.123Z</time>
      </trkpt>
      <trkpt lat="49.18185" lon="1.33909">
        <ele>12.76422</ele>
        <time>2024-05-03T11:10:17.063Z</time>
      </trkpt>
      <trkpt lat="49.18101" lon="1.34007">
        <ele>12.910494</ele>
        <time>2024-05-03T11:10:50.899Z</time>
      </trkpt>
      <trkpt lat="49.18008" lon="1.34138">
        <ele>13.053828</ele>
        <time>2024-05-03T11:11:32.063Z</time>
      </trkpt>
      <trkpt lat="49.17895" lon="1.34311">
        <ele>13.085692</ele>
        <time>2024-05-03T11:12:23.066Z</time>
      </trkpt>
      <trkpt lat="49.17817" lon="1.3445">
        <ele>12.860102</ele>
        <time>2024-05-03T11:13:00.545Z</time>
      </trkpt>
      <trkpt lat="49.17806" lon="1.34469">
        <ele>12.83071</ele>
        <time>2024-05-03T11:13:05.411Z</time>
      </trkpt>
      <trkpt lat="49.17792" lon="1.34474">
        <ele>12.801742</ele>
        <time>2024-05-03T11:13:09.949Z</time>
      </trkpt>
      <trkpt lat="49.17753" lon="1.34408">
        <ele>12.680314</ele>
        <time>2024-05-03T11:13:28.013Z</time>
      </trkpt>
      <trkpt lat="49.17715" lon="1.34374">
        <ele>12.589362</ele>
        <time>2024-05-03T11:13:41.581Z</time>
      </trkpt>
      <trkpt lat="49.1769" lon="1.34357">
        <ele>12.532942</ele>
        <time>2024-05-03T11:13:50.085Z</time>
      </trkpt>
      <trkpt lat="49.17674" lon="1.34353">
        <ele>12.498041</ele>
        <time>2024-05-03T11:13:55.355Z</time>
      </trkpt>
      <trkpt lat="49.17656" lon="1.34354">
        <ele>12.462081</ele>
        <time>2024-05-03T11:14:00.832Z</time>
      </trkpt>
      <trkpt lat="49.1761" lon="1.34375">
        <ele>12.425071</ele>
        <time>2024-05-03T11:14:16.156Z</time>
      </trkpt>
      <trkpt lat="49.17572" lon="1.34386">
        <ele>12.408781</ele>
        <time>2024-05-03T11:14:28.446Z</time>
      </trkpt>
      <trkpt lat="49.17585" lon="1.34493">
        <ele>12.378982</ele>
        <time>2024-05-03T11:14:41.825Z</time>
      </trkpt>
      <trkpt lat="49.17586" lon="1.34499">
        <ele>12.37748</ele>
        <time>2024-05-03T11:14:42.529Z</time>
      </trkpt>
      <trkpt lat="49.17592" lon="1.34506">
        <ele>12.374213</ele>
        <time>2024-05-03T11:14:44.518Z</time>
      </trkpt>
      <trkpt lat="49.17593" lon="1.34512">
        <ele>12.372641</ele>
        <time>2024-05-03T11:14:45.476Z</time>
      </trkpt>
      <trkpt lat="49.17594" lon="1.34524">
        <ele>12.369121</ele>
        <time>2024-05-03T11:14:47.612Z</time>
      </trkpt>
      <trkpt lat="49.1759" lon="1.34536">
        <ele>12.366544</ele>
        <time>2024-05-03T11:14:49.838Z</time>
      </trkpt>
      <trkpt lat="49.17591" lon="1.34544">
        <ele>12.374295</ele>
        <time>2024-05-03T11:14:50.795Z</time>
      </trkpt>
      <trkpt lat="49.17591" lon="1.34564">
        <ele>12.395031</ele>
        <time>2024-05-03T11:14:53.480Z</time>
      </trkpt>
      <trkpt lat="49.17588" lon="1.34604">
        <ele>12.436174</ele>
        <time>2024-05-03T11:14:59.298Z</time>
      </trkpt>
      <trkpt lat="49.17581" lon="1.34621">
        <ele>12.455663</ele>
        <time>2024-05-03T11:15:02.053Z</time>
      </trkpt>
      <trkpt lat="49.17578" lon="1.34629">
        <ele>12.46511</ele>
        <time>2024-05-03T11:15:04.047Z</time>
      </trkpt>
      <trkpt lat="49.17571" lon="1.34656">
        <ele>12.494347</ele>
        <time>2024-05-03T11:15:08.244Z</time>
      </trkpt>
      <trkpt lat="49.17574" lon="1.34688">
        <ele>12.527442</ele>
        <time>2024-05-03T11:15:12.947Z</time>
      </trkpt>
      <trkpt lat="49.17559" lon="1.34798">
        <ele>12.641629</ele>
        <time>2024-05-03T11:15:29.009Z</time>
      </trkpt>
      <trkpt lat="49.17563" lon="1.34817">
        <ele>12.70238</ele>
        <time>2024-05-03T11:15:31.931Z</time>
      </trkpt>
      <trkpt lat="49.17562" lon="1.34827">
        <ele>12.737668</ele>
        <time>2024-05-03T11:15:33.453Z</time>
      </trkpt>
      <trkpt lat="49.17556" lon="1.34828">
        <ele>12.771861</ele>
        <time>2024-05-03T11:15:34.840Z</time>
      </trkpt>
      <trkpt lat="49.17551" lon="1.34854">
        <ele>12.865348</ele>
        <time>2024-05-03T11:15:38.681Z</time>
      </trkpt>
      <trkpt lat="49.17544" lon="1.34877">
        <ele>12.951921</ele>
        <time>2024-05-03T11:15:42.304Z</time>
      </trkpt>
      <trkpt lat="49.17535" lon="1.34898">
        <ele>13.039971</ele>
        <time>2024-05-03T11:15:46.063Z</time>
      </trkpt>
      <trkpt lat="49.17526" lon="1.34893">
        <ele>13.090537</ele>
        <time>2024-05-03T11:15:48.148Z</time>
      </trkpt>
      <trkpt lat="49.1752" lon="1.34899">
        <ele>13.126863</ele>
        <time>2024-05-03T11:15:49.657Z</time>
      </trkpt>
      <trkpt lat="49.17517" lon="1.34908">
        <ele>13.163329</ele>
        <time>2024-05-03T11:15:51.192Z</time>
      </trkpt>
      <trkpt lat="49.1752" lon="1.34918">
        <ele>13.199977</ele>
        <time>2024-05-03T11:15:52.736Z</time>
      </trkpt>
      <trkpt lat="49.1749" lon="1.3494">
        <ele>13.373797</ele>
        <time>2024-05-03T11:15:59.988Z</time>
      </trkpt>
      <trkpt lat="49.17478" lon="1.34943">
        <ele>13.441142</ele>
        <time>2024-05-03T11:16:02.809Z</time>
      </trkpt>
      <trkpt lat="49.1742" lon="1.34944">
        <ele>13.767104</ele>
        <time>2024-05-03T11:16:15.799Z</time>
      </trkpt>
      <trkpt lat="49.17392" lon="1.3495">
        <ele>13.940331</ele>
        <time>2024-05-03T11:16:22.032Z</time>
      </trkpt>
      <trkpt lat="49.17363" lon="1.34968">
        <ele>14.133361</ele>
        <time>2024-05-03T11:16:28.967Z</time>
      </trkpt>
      <trkpt lat="49.17352" lon="1.34984">
        <ele>14.224071</ele>
        <time>2024-05-03T11:16:32.544Z</time>
      </trkpt>
      <trkpt lat="49.17332" lon="1.35025">
        <ele>14.430536</ele>
        <time>2024-05-03T11:16:40.248Z</time>
      </trkpt>
      <trkpt lat="49.17326" lon="1.3504">
        <ele>14.498498</ele>
        <time>2024-05-03T11:16:42.547Z</time>
      </trkpt>
      <trkpt lat="49.17323" lon="1.35063">
        <ele>14.589933</ele>
        <time>2024-05-03T11:16:45.890Z</time>
      </trkpt>
      <trkpt lat="49.17319" lon="1.35079">
        <ele>14.658156</ele>
        <time>2024-05-03T11:16:48.486Z</time>
      </trkpt>
      <trkpt lat="49.1731" lon="1.35089">
        <ele>14.706097</ele>
        <time>2024-05-03T11:16:50.735Z</time>
      </trkpt>
      <trkpt lat="49.17308" lon="1.35111">
        <ele>14.738166</ele>
        <time>2024-05-03T11:16:54.034Z</time>
      </trkpt>
      <trkpt lat="49.17314" lon="1.35126">
        <ele>14.763938</ele>
        <time>2024-05-03T11:16:56.667Z</time>
      </trkpt>
      <trkpt lat="49.17326" lon="1.3513">
        <ele>14.788957</ele>
        <time>2024-05-03T11:16:58.981Z</time>
      </trkpt>
      <trkpt lat="49.17336" lon="1.35121">
        <ele>14.813966</ele>
        <time>2024-05-03T11:17:01.582Z</time>
      </trkpt>
      <trkpt lat="49.17338" lon="1.35117">
        <ele>14.821027</ele>
        <time>2024-05-03T11:17:02.378Z</time>
      </trkpt>
      <trkpt lat="49.17353" lon="1.3511">
        <ele>14.856437</ele>
        <time>2024-05-03T11:17:05.778Z</time>
      </trkpt>
      <trkpt lat="49.17387" lon="1.35104">
        <ele>14.92852</ele>
        <time>2024-05-03T11:17:12.544Z</time>
      </trkpt>
      <trkpt lat="49.17457" lon="1.35115">
        <ele>15.079408</ele>
        <time>2024-05-03T11:17:25.912Z</time>
      </trkpt>
      <trkpt lat="49.17502" lon="1.35127">
        <ele>14.931334</ele>
        <time>2024-05-03T11:17:34.713Z</time>
      </trkpt>
      <trkpt lat="49.17503" lon="1.35127">
        <ele>14.928009</ele>
        <time>2024-05-03T11:17:34.894Z</time>
      </trkpt>
      <trkpt lat="49.17557" lon="1.35145">
        <ele>14.746485</ele>
        <time>2024-05-03T11:17:44.840Z</time>
      </trkpt>
      <trkpt lat="49.17556" lon="1.35151">
        <ele>14.733427</ele>
        <time>2024-05-03T11:17:47.606Z</time>
      </trkpt>
      <trkpt lat="49.1755" lon="1.35165">
        <ele>14.696604</ele>
        <time>2024-05-03T11:18:01.345Z</time>
      </trkpt>
      <trkpt lat="49.17545" lon="1.35166">
        <ele>14.67995</ele>
        <time>2024-05-03T11:18:04.896Z</time>
      </trkpt>
      <trkpt lat="49.1755" lon="1.35184">
        <ele>14.639378</ele>
        <time>2024-05-03T11:18:07.176Z</time>
      </trkpt>
      <trkpt lat="49.17549" lon="1.35195">
        <ele>14.614525</ele>
        <time>2024-05-03T11:18:08.610Z</time>
      </trkpt>
      <trkpt lat="49.17526" lon="1.3519">
        <ele>14.538759</ele>
        <time>2024-05-03T11:18:12.753Z</time>
      </trkpt>
      <trkpt lat="49.17519" lon="1.35195">
        <ele>14.513976</ele>
        <time>2024-05-03T11:18:14.080Z</time>
      </trkpt>
      <trkpt lat="49.17477" lon="1.35294">
        <ele>14.487816</ele>
        <time>2024-05-03T11:18:27.919Z</time>
      </trkpt>
      <trkpt lat="49.17463" lon="1.35333">
        <ele>14.487816</ele>
        <time>2024-05-03T11:18:33.370Z</time>
      </trkpt>
      <trkpt lat="49.17448" lon="1.35414">
        <ele>14.487816</ele>
        <time>2024-05-03T11:18:43.537Z</time>
      </trkpt>
      <trkpt lat="49.17463" lon="1.35421">
        <ele>14.487816</ele>
        <time>2024-05-03T11:18:46.325Z</time>
      </trkpt>
      <trkpt lat="49.17473" lon="1.3543">
        <ele>14.487816</ele>
        <time>2024-05-03T11:18:48.443Z</time>
      </trkpt>
      <trkpt lat="49.17477" lon="1.35438">
        <ele>14.487816</ele>
        <time>2024-05-03T11:18:49.667Z</time>
      </trkpt>
      <trkpt lat="49.1749" lon="1.35455">
        <ele>14.487816</ele>
        <time>2024-05-03T11:18:52.994Z</time>
      </trkpt>
      <trkpt lat="49.17505" lon="1.35472">
        <ele>14.487816</ele>
        <time>2024-05-03T11:18:56.402Z</time>
      </trkpt>
      <trkpt lat="49.17506" lon="1.35474">
        <ele>14.487816</ele>
        <time>2024-05-03T11:18:56.867Z</time>
      </trkpt>
      <trkpt lat="49.17513" lon="1.35482">
        <ele>14.487816</ele>
        <time>2024-05-03T11:18:58.671Z</time>
      </trkpt>
    </trkseg>
  </trk>
</gpx>